Provisional Data: Marsh Creek near Blanchard, PA


Please select a monitoring station.
Please select start date.
Please select start date.

Toggle Unit: C/F Toggle Unit: C/F
Sample Time Temperature (C) Temperature (F) Specific Conductivity (mS/cm) pH   Turbidity (NTU+) DO (mg/L)
1/12/2021 12:00:00 AM 1.88 35.384 0.095 6.32 3.07 13.54
1/12/2021 12:15:00 AM 1.86 35.348 0.095 6.31 3.11 13.55
1/12/2021 12:30:00 AM 1.86 35.348 0.095 6.33 3.11 13.55
1/12/2021 12:45:00 AM 1.85 35.33 0.096 6.33 3.06 13.56
1/12/2021 1:00:00 AM 1.83 35.294 0.095 6.31 3.11 13.57
1/12/2021 1:15:00 AM 1.82 35.276 0.095 6.32 3.01 13.57
1/12/2021 1:30:00 AM 1.81 35.258 0.095 6.32 3.03 13.58
1/12/2021 1:45:00 AM 1.79 35.222 0.096 6.31 3.04 13.57
1/12/2021 2:00:00 AM 1.79 35.222 0.096 6.32 3.1 13.58
1/12/2021 2:15:00 AM 1.78 35.204 0.096 6.33 3.01 13.57
1/12/2021 2:30:00 AM 1.77 35.186 0.096 6.32 3.06 13.59
1/12/2021 2:45:00 AM 1.76 35.168 0.096 6.32 3.03 13.59
1/12/2021 3:00:00 AM 1.74 35.132 0.095 6.32 3.01 13.6
1/12/2021 3:15:00 AM 1.73 35.114 0.095 6.33 3.14 13.6
1/12/2021 3:30:00 AM 1.71 35.078 0.096 6.33 3.07 13.61
1/12/2021 3:45:00 AM 1.7 35.06 0.096 6.33 3.03 13.61
1/12/2021 4:00:00 AM 1.69 35.042 0.096 6.33 3.07 13.61
1/12/2021 4:15:00 AM 1.69 35.042 0.095 6.34 3.06 13.62
1/12/2021 4:30:00 AM 1.69 35.042 0.096 6.33 3.12 13.62
1/12/2021 4:45:00 AM 1.69 35.042 0.096 6.33 2.98 13.61
1/12/2021 5:00:00 AM 1.69 35.042 0.096 6.35 3.04 13.62
1/12/2021 5:15:00 AM 1.68 35.024 0.096 6.32 3.09 13.61
1/12/2021 5:30:00 AM 1.68 35.024 0.096 6.33 3.01 13.61
1/12/2021 5:45:00 AM 1.68 35.024 0.096 6.32 3 13.61
1/12/2021 6:00:00 AM 1.68 35.024 0.096 6.34 3.04 13.62
1/12/2021 6:15:00 AM 1.67 35.006 0.096 6.31 3.11 13.62
1/12/2021 6:30:00 AM 1.67 35.006 0.095 6.33 3.06 13.62
1/12/2021 6:45:00 AM 1.68 35.024 0.096 6.33 3.08 13.62
1/12/2021 7:00:00 AM 1.67 35.006 0.096 6.33 3.12 13.63
1/12/2021 7:15:00 AM 1.67 35.006 0.096 6.33 3.1 13.63
1/12/2021 7:30:00 AM 1.66 34.988 0.096 6.33 3.35 13.64
1/12/2021 7:45:00 AM 1.66 34.988 0.096 6.33 3.27 13.64
1/12/2021 8:00:00 AM 1.66 34.988 0.096 6.33 3.08 13.64
1/12/2021 8:15:00 AM 1.67 35.006 0.096 6.33 3.06 13.65
1/12/2021 8:30:00 AM 1.68 35.024 0.096 6.34 3.07 13.67
1/12/2021 8:45:00 AM 1.69 35.042 0.095 6.33 3.08 13.69
1/12/2021 9:00:00 AM 1.7 35.06 0.096 6.35 3.14 13.7
1/12/2021 9:15:00 AM 1.73 35.114 0.096 6.34 3.03 13.72
1/12/2021 9:30:00 AM 1.77 35.186 0.095 6.35 3.03 13.74
1/12/2021 9:45:00 AM 1.82 35.276 0.095 6.35 2.98 13.76
1/12/2021 10:00:00 AM 1.86 35.348 0.095 6.35 3.06 13.78
1/12/2021 10:15:00 AM 1.93 35.474 0.095 6.37 3.01 13.79
1/12/2021 10:30:00 AM 2 35.6 0.095 6.37 2.96 13.79
1/12/2021 10:45:00 AM 2.07 35.726 0.095 6.37 2.91 13.78
1/12/2021 11:00:00 AM 2.13 35.834 0.095 6.39 2.94 13.8
1/12/2021 11:15:00 AM 2.21 35.978 0.095 6.39 2.88 13.79
1/12/2021 11:30:00 AM 2.31 36.158 0.095 6.41 2.96 13.78
1/12/2021 11:45:00 AM 2.34 36.212 0.095 6.41 3.07 13.77
1/12/2021 12:00:00 PM 2.37 36.266 0.095 6.4 2.97 13.77
1/12/2021 12:15:00 PM 2.42 36.356 0.095 6.41 3 13.76
1/12/2021 12:30:00 PM 2.47 36.446 0.095 6.39 2.89 13.74
1/12/2021 12:45:00 PM 2.53 36.554 0.095 6.41 2.91 13.73
1/12/2021 1:00:00 PM 2.59 36.662 0.095 6.4 2.99 13.71
1/12/2021 1:15:00 PM 2.65 36.77 0.095 6.4 2.95 13.69
1/12/2021 1:30:00 PM 2.71 36.878 0.095 6.43 3.01 13.67
1/12/2021 1:45:00 PM 2.75 36.95 0.095 6.42 3.08 13.65
1/12/2021 2:00:00 PM 2.79 37.022 0.095 6.43 3.03 13.64
1/12/2021 2:15:00 PM 2.82 37.076 0.095 6.43 3.03 13.62
1/12/2021 2:30:00 PM 2.86 37.148 0.095 6.42 2.95 13.6
1/12/2021 2:45:00 PM 2.91 37.238 0.095 6.42 2.93 13.58
1/12/2021 3:00:00 PM 2.95 37.31 0.094 6.42 3.14 13.57
1/12/2021 3:15:00 PM 3 37.4 0.095 6.42 2.93 13.55
1/12/2021 3:30:00 PM 3.06 37.508 0.094 6.41 2.94 13.53
1/12/2021 3:45:00 PM 3.06 37.508 0.095 6.42 2.97 13.51
1/12/2021 4:00:00 PM 3.06 37.508 0.095 6.41 3.06 13.48
1/12/2021 4:15:00 PM 3.06 37.508 0.095 6.41 2.92 13.45
1/12/2021 4:30:00 PM 3.06 37.508 0.094 6.41 2.9 13.42
1/12/2021 4:45:00 PM 3.06 37.508 0.095 6.41 2.99 13.39
1/12/2021 5:00:00 PM 3.05 37.49 0.094 6.39 3.01 13.36
1/12/2021 5:15:00 PM 3.04 37.472 0.094 6.4 2.94 13.33
1/12/2021 5:30:00 PM 2.99 37.382 0.095 6.37 2.92 13.31
1/12/2021 5:45:00 PM 2.96 37.328 0.095 6.38 3.09 13.29
1/12/2021 6:00:00 PM 2.93 37.274 0.095 6.37 3.01 13.29
1/12/2021 6:15:00 PM 2.9 37.22 0.095 6.37 3.09 13.27
1/12/2021 6:30:00 PM 2.88 37.184 0.095 6.36 2.95 13.25
1/12/2021 6:45:00 PM 2.85 37.13 0.095 6.36 3.12 13.25
1/12/2021 7:00:00 PM 2.84 37.112 0.095 6.35 2.97 13.24
1/12/2021 7:15:00 PM 2.82 37.076 0.095 6.34 3.04 13.22
1/12/2021 7:30:00 PM 2.81 37.058 0.095 6.37 3.15 13.22
1/12/2021 7:45:00 PM 2.8 37.04 0.095 6.34 3.03 13.21
1/12/2021 8:00:00 PM 2.8 37.04 0.095 6.33 3.06 13.2
1/12/2021 8:15:00 PM 2.79 37.022 0.095 6.34 3.08 13.19
1/12/2021 8:30:00 PM 2.78 37.004 0.095 6.34 3.11 13.19
1/12/2021 8:45:00 PM 2.78 37.004 0.095 6.34 3.28 13.2
1/12/2021 9:00:00 PM 2.77 36.986 0.095 6.35 3.19 13.2
1/12/2021 9:15:00 PM 2.76 36.968 0.095 6.34 3.12 13.2
1/12/2021 9:30:00 PM 2.75 36.95 0.095 6.34 3.22 13.2
1/12/2021 9:45:00 PM 2.73 36.914 0.095 6.34 3.04 13.19
1/12/2021 10:00:00 PM 2.72 36.896 0.095 6.33 3.1 13.2
1/12/2021 10:15:00 PM 2.71 36.878 0.095 6.34 3.04 13.21
1/12/2021 10:30:00 PM 2.7 36.86 0.095 6.33 3.09 13.21
1/12/2021 10:45:00 PM 2.69 36.842 0.095 6.33 3.01 13.21
1/12/2021 11:00:00 PM 2.68 36.824 0.095 6.33 3.06 13.21
1/12/2021 11:15:00 PM 2.67 36.806 0.095 6.33 3.1 13.22
1/12/2021 11:30:00 PM 2.65 36.77 0.095 6.33 3.04 13.22
1/12/2021 11:45:00 PM 2.65 36.77 0.095 6.34 3.01 13.22
1/13/2021 12:00:00 AM 2.63 36.734 0.095 6.32 2.98 13.22
1/13/2021 12:15:00 AM 2.62 36.716 0.095 6.33 3.04 13.23
1/13/2021 12:30:00 AM 2.61 36.698 0.095 6.33 3.1 13.24
1/13/2021 12:45:00 AM 2.6 36.68 0.095 6.34 3.09 13.23
1/13/2021 1:00:00 AM 2.59 36.662 0.095 6.34 3 13.24
1/13/2021 1:15:00 AM 2.58 36.644 0.095 6.34 3.01 13.24
1/13/2021 1:30:00 AM 2.57 36.626 0.095 6.33 2.95 13.24
1/13/2021 1:45:00 AM 2.56 36.608 0.095 6.31 3 13.24
1/13/2021 2:00:00 AM 2.55 36.59 0.095 6.33 3.03 13.24
1/13/2021 2:15:00 AM 2.54 36.572 0.095 6.33 3.2 13.25
1/13/2021 2:30:00 AM 2.53 36.554 0.095 6.33 2.98 13.26
1/13/2021 2:45:00 AM 2.53 36.554 0.095 6.33 3.01 13.26
1/13/2021 3:00:00 AM 2.52 36.536 0.095 6.33 3.03 13.26
1/13/2021 3:15:00 AM 2.51 36.518 0.096 6.34 2.99 13.25
1/13/2021 3:30:00 AM 2.49 36.482 0.096 6.32 3.11 13.26
1/13/2021 3:45:00 AM 2.47 36.446 0.095 6.33 3.08 13.27
1/13/2021 4:00:00 AM 2.47 36.446 0.096 6.34 2.9 13.27
1/13/2021 4:15:00 AM 2.46 36.428 0.095 6.33 3.06 13.28
1/13/2021 4:30:00 AM 2.45 36.41 0.095 6.33 3.05 13.28
1/13/2021 4:45:00 AM 2.43 36.374 0.095 6.34 3.09 13.28
1/13/2021 5:00:00 AM 2.41 36.338 0.095 6.33 3.01 13.29
1/13/2021 5:15:00 AM 2.39 36.302 0.096 6.34 3.15 13.3
1/13/2021 5:30:00 AM 2.37 36.266 0.095 6.35 3.01 13.31
1/13/2021 5:45:00 AM 2.36 36.248 0.096 6.35 3 13.31
1/13/2021 6:00:00 AM 2.34 36.212 0.095 6.34 3.03 13.32
1/13/2021 6:15:00 AM 2.34 36.212 0.095 6.35 2.92 13.32
1/13/2021 6:30:00 AM 2.33 36.194 0.096 6.34 2.96 13.32
1/13/2021 6:45:00 AM 2.32 36.176 0.096 6.34 3.01 13.33
1/13/2021 7:00:00 AM 2.31 36.158 0.096 6.34 3.09 13.33
1/13/2021 7:15:00 AM 2.3 36.14 0.096 6.35 2.93 13.33
1/13/2021 7:30:00 AM 2.29 36.122 0.096 6.35 3 13.34
1/13/2021 7:45:00 AM 2.28 36.104 0.096 6.34 2.97 13.34
1/13/2021 8:00:00 AM 2.27 36.086 0.096 6.35 2.97 13.35
1/13/2021 8:15:00 AM 2.27 36.086 0.096 6.35 3.01 13.36
1/13/2021 8:30:00 AM 2.26 36.068 0.096 6.34 3.14 13.38
1/13/2021 8:45:00 AM 2.26 36.068 0.096 6.33 3.14 13.38
1/13/2021 9:00:00 AM 2.25 36.05 0.095 6.33 3.06 13.4
1/13/2021 9:15:00 AM 2.24 36.032 0.096 6.35 3.02 13.41
1/13/2021 9:30:00 AM 2.24 36.032 0.096 6.34 3.13 13.43
1/13/2021 9:45:00 AM 2.25 36.05 0.096 6.35 3.16 13.46
1/13/2021 10:00:00 AM 2.26 36.068 0.096 6.35 3.13 13.48
1/13/2021 10:15:00 AM 2.27 36.086 0.096 6.35 3.21 13.49
1/13/2021 10:30:00 AM 2.28 36.104 0.095 6.36 3.23 13.52
1/13/2021 10:45:00 AM 2.31 36.158 0.096 6.36 3.13 13.54
1/13/2021 11:00:00 AM 2.34 36.212 0.095 6.37 3.08 13.55
1/13/2021 11:15:00 AM 2.38 36.284 0.095 6.38 3.04 13.57
1/13/2021 11:30:00 AM 2.44 36.392 0.095 6.38 3.02 13.58
1/13/2021 11:45:00 AM 2.49 36.482 0.095 6.39 2.99 13.58
1/13/2021 12:00:00 PM 2.55 36.59 0.095 6.38 3.09 13.58
1/13/2021 12:15:00 PM 2.59 36.662 0.095 6.39 3.12 13.58
1/13/2021 12:30:00 PM 2.65 36.77 0.095 6.4 3.21 13.57
1/13/2021 12:45:00 PM 2.72 36.896 0.095 6.4 3.13 13.56
1/13/2021 1:00:00 PM 2.81 37.058 0.095 6.4 3.17 13.55
1/13/2021 1:15:00 PM 2.95 37.31 0.095 6.42 3.14 13.55
1/13/2021 1:30:00 PM 3.03 37.454 0.095 6.42 3.02 13.52
1/13/2021 1:45:00 PM 3.08 37.544 0.095 6.43 3 13.51
1/13/2021 2:00:00 PM 3.14 37.652 0.095 6.42 3.02 13.48
1/13/2021 2:15:00 PM 3.2 37.76 0.095 6.43 2.95 13.45
1/13/2021 2:30:00 PM 3.26 37.868 0.095 6.43 2.96 13.42
1/13/2021 2:45:00 PM 3.33 37.994 0.095 6.44 3.08 13.38
1/13/2021 3:00:00 PM 3.39 38.102 0.095 6.44 3.01 13.35
1/13/2021 3:15:00 PM 3.44 38.192 0.095 6.43 2.91 13.32
1/13/2021 3:30:00 PM 3.48 38.264 0.095 6.42 2.94 13.28
1/13/2021 3:45:00 PM 3.5 38.3 0.095 6.43 3.01 13.25
1/13/2021 4:00:00 PM 3.5 38.3 0.095 6.42 2.98 13.22
1/13/2021 4:15:00 PM 3.49 38.282 0.095 6.42 2.94 13.21
1/13/2021 4:30:00 PM 3.46 38.228 0.095 6.41 2.93 13.19
1/13/2021 4:45:00 PM 3.43 38.174 0.095 6.42 3.02 13.16
1/13/2021 5:00:00 PM 3.41 38.138 0.095 6.42 3.07 13.13
1/13/2021 5:15:00 PM 3.39 38.102 0.095 6.41 3.06 13.11
1/13/2021 5:30:00 PM 3.38 38.084 0.095 6.4 2.96 13.08
1/13/2021 5:45:00 PM 3.37 38.066 0.095 6.39 2.97 13.05
1/13/2021 6:00:00 PM 3.36 38.048 0.095 6.39 2.94 13.03
1/13/2021 6:15:00 PM 3.35 38.03 0.095 6.38 2.99 13
1/13/2021 6:30:00 PM 3.33 37.994 0.095 6.39 3.07 12.99
1/13/2021 6:45:00 PM 3.31 37.958 0.095 6.37 3.02 12.97
1/13/2021 7:00:00 PM 3.29 37.922 0.095 6.37 2.98 12.96
1/13/2021 7:15:00 PM 3.27 37.886 0.095 6.36 2.98 12.95
1/13/2021 7:30:00 PM 3.25 37.85 0.095 6.35 2.99 12.95
1/13/2021 7:45:00 PM 3.23 37.814 0.095 6.37 3.04 12.95
1/13/2021 8:00:00 PM 3.21 37.778 0.095 6.35 3.1 12.94
1/13/2021 8:15:00 PM 3.19 37.742 0.095 6.34 3.06 12.94
1/13/2021 8:30:00 PM 3.17 37.706 0.095 6.35 3.2 12.94
1/13/2021 8:45:00 PM 3.15 37.67 0.095 6.35 3.11 12.95
1/13/2021 9:00:00 PM 3.13 37.634 0.095 6.35 3.12 12.95
1/13/2021 9:15:00 PM 3.1 37.58 0.095 6.34 3.07 12.95
1/13/2021 9:30:00 PM 3.08 37.544 0.095 6.34 3.16 12.96
1/13/2021 9:45:00 PM 3.05 37.49 0.095 6.34 3.13 12.97
1/13/2021 10:00:00 PM 3.02 37.436 0.096 6.34 3.06 12.97
1/13/2021 10:15:00 PM 2.99 37.382 0.095 6.33 3.21 12.97
1/13/2021 10:30:00 PM 2.96 37.328 0.096 6.34 3.06 12.99
1/13/2021 10:45:00 PM 2.94 37.292 0.096 6.33 3.13 12.99
1/13/2021 11:00:00 PM 2.91 37.238 0.096 6.34 3.13 13
1/13/2021 11:15:00 PM 2.89 37.202 0.096 6.33 3.11 13.02
1/13/2021 11:30:00 PM 2.86 37.148 0.095 6.32 3.06 13.01
1/13/2021 11:45:00 PM 2.84 37.112 0.096 6.32 3.06 13.02
1/14/2021 12:00:00 AM 2.81 37.058 0.095 6.32 3.07 13.02
1/14/2021 12:15:00 AM 2.79 37.022 0.096 6.33 3.22 13.04
1/14/2021 12:30:00 AM 2.77 36.986 0.096 6.33 3.12 13.04
1/14/2021 12:45:00 AM 2.75 36.95 0.096 6.33 3.14 13.05
1/14/2021 1:00:00 AM 2.73 36.914 0.096 6.34 3.11 13.06
1/14/2021 1:15:00 AM 2.71 36.878 0.096 6.34 3.11 13.06
1/14/2021 1:30:00 AM 2.7 36.86 0.096 6.33 3.06 13.08
1/14/2021 1:45:00 AM 2.68 36.824 0.096 6.33 3.12 13.07
1/14/2021 2:00:00 AM 2.66 36.788 0.096 6.33 3.05 13.08
1/14/2021 2:15:00 AM 2.65 36.77 0.096 6.33 3.02 13.09
1/14/2021 2:30:00 AM 2.64 36.752 0.096 6.33 3.05 13.08
1/14/2021 2:45:00 AM 2.63 36.734 0.096 6.33 3.05 13.1
1/14/2021 3:00:00 AM 2.62 36.716 0.096 6.34 3 13.1
1/14/2021 3:15:00 AM 2.62 36.716 0.096 6.34 3.08 13.1
1/14/2021 3:30:00 AM 2.61 36.698 0.096 6.34 3.1 13.11
1/14/2021 3:45:00 AM 2.61 36.698 0.096 6.33 3.12 13.11
1/14/2021 4:00:00 AM 2.61 36.698 0.096 6.34 3.01 13.11
1/14/2021 4:15:00 AM 2.6 36.68 0.096 6.34 3.02 13.12
1/14/2021 4:30:00 AM 2.61 36.698 0.096 6.34 3.1 13.11
1/14/2021 4:45:00 AM 2.61 36.698 0.096 6.35 3.03 13.11
1/14/2021 5:00:00 AM 2.6 36.68 0.096 6.34 2.96 13.12
1/14/2021 5:15:00 AM 2.6 36.68 0.096 6.34 3.01 13.11
1/14/2021 5:30:00 AM 2.6 36.68 0.096 6.35 3 13.1
1/14/2021 5:45:00 AM 2.59 36.662 0.096 6.34 2.96 13.12
1/14/2021 6:00:00 AM 2.59 36.662 0.096 6.34 3.02 13.11
1/14/2021 6:15:00 AM 2.59 36.662 0.096 6.35 2.97 13.12
1/14/2021 6:30:00 AM 2.59 36.662 0.096 6.35 2.99 13.12
1/14/2021 6:45:00 AM 2.59 36.662 0.096 6.34 3 13.12
1/14/2021 7:00:00 AM 2.58 36.644 0.096 6.34 3.03 13.12
1/14/2021 7:15:00 AM 2.58 36.644 0.096 6.34 2.99 13.12
1/14/2021 7:30:00 AM 2.58 36.644 0.096 6.34 3.04 13.12
1/14/2021 7:45:00 AM 2.58 36.644 0.096 6.34 2.98 13.13
1/14/2021 8:00:00 AM 2.58 36.644 0.096 6.33 3.01 13.14
1/14/2021 8:15:00 AM 2.59 36.662 0.096 6.34 2.98 13.16
1/14/2021 8:30:00 AM 2.6 36.68 0.096 6.34 2.94 13.17
1/14/2021 8:45:00 AM 2.61 36.698 0.097 6.35 2.98 13.2
1/14/2021 9:00:00 AM 2.63 36.734 0.097 6.35 2.92 13.22
1/14/2021 9:15:00 AM 2.65 36.77 0.096 6.36 2.96 13.24
1/14/2021 9:30:00 AM 2.67 36.806 0.096 6.37 2.96 13.27
1/14/2021 9:45:00 AM 2.7 36.86 0.096 6.36 2.9 13.3
1/14/2021 10:00:00 AM 2.74 36.932 0.096 6.37 2.91 13.31
1/14/2021 10:15:00 AM 2.77 36.986 0.096 6.37 2.96 13.34
1/14/2021 10:30:00 AM 2.83 37.094 0.096 6.38 2.93 13.36
1/14/2021 10:45:00 AM 2.89 37.202 0.096 6.38 3.04 13.37
1/14/2021 11:00:00 AM 2.97 37.346 0.096 6.39 2.93 13.37
1/14/2021 11:15:00 AM 3.07 37.526 0.095 6.41 2.92 13.37
1/14/2021 11:30:00 AM 3.11 37.598 0.095 6.41 2.94 13.37
1/14/2021 11:45:00 AM 3.18 37.724 0.095 6.42 2.91 13.37
1/14/2021 12:00:00 PM 3.27 37.886 0.095 6.41 2.88 13.36
1/14/2021 12:15:00 PM 3.36 38.048 0.095 6.42 3.05 13.35
1/14/2021 12:30:00 PM 3.47 38.246 0.095 6.43 2.94 13.33
1/14/2021 12:45:00 PM 3.56 38.408 0.095 6.43 2.98 13.31
1/14/2021 1:00:00 PM 3.61 38.498 0.095 6.44 2.94 13.29
1/14/2021 1:15:00 PM 3.67 38.606 0.095 6.45 2.97 13.27
1/14/2021 1:30:00 PM 3.74 38.732 0.095 6.44 2.95 13.23
1/14/2021 1:45:00 PM 3.82 38.876 0.095 6.45 2.95 13.21
1/14/2021 2:00:00 PM 3.92 39.056 0.095 6.46 2.94 13.19
1/14/2021 2:15:00 PM 4.01 39.218 0.095 6.45 2.98 13.17
1/14/2021 2:30:00 PM 4.08 39.344 0.095 6.46 2.89 13.14
1/14/2021 2:45:00 PM 4.14 39.452 0.095 6.46 3 13.12
1/14/2021 3:00:00 PM 4.21 39.578 0.095 6.45 2.99 13.09
1/14/2021 3:15:00 PM 4.25 39.65 0.095 6.47 3.23 13.06
1/14/2021 3:30:00 PM 4.33 39.794 0.095 6.46 3.08 13.04
1/14/2021 3:45:00 PM 4.37 39.866 0.095 6.47 3.03 13.02
1/14/2021 4:00:00 PM 4.39 39.902 0.095 6.46 3 13
1/14/2021 4:15:00 PM 4.4 39.92 0.095 6.48 3.01 12.97
1/14/2021 4:30:00 PM 4.37 39.866 0.095 6.49 3.1 12.94
1/14/2021 4:45:00 PM 4.36 39.848 0.095 6.45 3.09 12.89
1/14/2021 5:00:00 PM 4.34 39.812 0.095 6.45 3.08 12.86
1/14/2021 5:15:00 PM 4.32 39.776 0.095 6.43 3.04 12.83
1/14/2021 5:30:00 PM 4.29 39.722 0.095 6.43 3.11 12.79
1/14/2021 5:45:00 PM 4.26 39.668 0.095 6.42 3.15 12.76
1/14/2021 6:00:00 PM 4.21 39.578 0.096 6.41 3.14 12.73
1/14/2021 6:15:00 PM 4.14 39.452 0.096 6.41 3.22 12.73
1/14/2021 6:30:00 PM 4.06 39.308 0.096 6.4 3.23 12.72
1/14/2021 6:45:00 PM 4 39.2 0.096 6.39 3.3 12.71
1/14/2021 7:00:00 PM 3.93 39.074 0.096 6.37 3.23 12.71
1/14/2021 7:15:00 PM 3.87 38.966 0.096 6.35 3.33 12.7
1/14/2021 7:30:00 PM 3.81 38.858 0.096 6.36 3.29 12.71
1/14/2021 7:45:00 PM 3.76 38.768 0.097 6.36 3.35 12.71
1/14/2021 8:00:00 PM 3.71 38.678 0.096 6.35 3.58 12.72
1/14/2021 8:15:00 PM 3.67 38.606 0.097 6.36 3.51 12.72
1/14/2021 8:30:00 PM 3.62 38.516 0.097 6.35 3.46 12.73
1/14/2021 8:45:00 PM 3.57 38.426 0.097 6.35 3.32 12.73
1/14/2021 9:00:00 PM 3.52 38.336 0.097 6.35 3.4 12.75
1/14/2021 9:15:00 PM 3.48 38.264 0.097 6.33 3.26 12.76
1/14/2021 9:30:00 PM 3.44 38.192 0.097 6.34 3.35 12.78
1/14/2021 9:45:00 PM 3.4 38.12 0.097 6.34 3.34 12.8
1/14/2021 10:00:00 PM 3.37 38.066 0.097 6.33 3.26 12.81
1/14/2021 10:15:00 PM 3.32 37.976 0.097 6.33 3.31 12.82
1/14/2021 10:30:00 PM 3.29 37.922 0.096 6.33 3.33 12.83
1/14/2021 10:45:00 PM 3.26 37.868 0.097 6.34 3.36 12.84
1/14/2021 11:00:00 PM 3.23 37.814 0.096 6.33 3.27 12.85
1/14/2021 11:15:00 PM 3.19 37.742 0.096 6.33 3.25 12.87
1/14/2021 11:30:00 PM 3.16 37.688 0.096 6.34 3.24 12.89
1/14/2021 11:45:00 PM 3.13 37.634 0.096 6.34 3.35 12.9
1/15/2021 12:00:00 AM 3.1 37.58 0.096 6.33 3.31 12.91
1/15/2021 12:15:00 AM 3.06 37.508 0.097 6.33 3.32 12.92
1/15/2021 12:30:00 AM 3.02 37.436 0.096 6.34 3.44 12.94
1/15/2021 12:45:00 AM 2.98 37.364 0.097 6.33 3.31 12.95
1/15/2021 1:00:00 AM 2.94 37.292 0.096 6.33 3.43 12.96
1/15/2021 1:15:00 AM 2.91 37.238 0.097 6.33 3.41 12.97
1/15/2021 1:30:00 AM 2.87 37.166 0.097 6.34 3.32 12.99
1/15/2021 1:45:00 AM 2.83 37.094 0.096 6.33 3.37 13
1/15/2021 2:00:00 AM 2.79 37.022 0.097 6.34 3.36 13.01
1/15/2021 2:15:00 AM 2.76 36.968 0.097 6.34 3.32 13.03
1/15/2021 2:30:00 AM 2.73 36.914 0.096 6.34 3.28 13.03
1/15/2021 2:45:00 AM 2.7 36.86 0.097 6.34 3.28 13.05
1/15/2021 3:00:00 AM 2.67 36.806 0.097 6.35 3.3 13.06
1/15/2021 3:15:00 AM 2.66 36.788 0.097 6.34 3.33 13.08
1/15/2021 3:30:00 AM 2.64 36.752 0.096 6.34 3.25 13.08
1/15/2021 3:45:00 AM 2.6 36.68 0.097 6.35 3.24 13.1
1/15/2021 4:00:00 AM 2.58 36.644 0.096 6.32 3.23 13.1
1/15/2021 4:15:00 AM 2.55 36.59 0.096 6.34 3.22 13.11
1/15/2021 4:30:00 AM 2.51 36.518 0.096 6.33 3.2 13.13
1/15/2021 4:45:00 AM 2.48 36.464 0.097 6.33 3.39 13.14
1/15/2021 5:00:00 AM 2.46 36.428 0.097 6.34 3.25 13.14
1/15/2021 5:15:00 AM 2.43 36.374 0.097 6.33 3.22 13.15
1/15/2021 5:30:00 AM 2.42 36.356 0.097 6.32 3.18 13.16
1/15/2021 5:45:00 AM 2.4 36.32 0.097 6.33 3.32 13.17
1/15/2021 6:00:00 AM 2.38 36.284 0.097 6.33 3.23 13.17
1/15/2021 6:15:00 AM 2.37 36.266 0.097 6.33 3.29 13.19
1/15/2021 6:30:00 AM 2.35 36.23 0.097 6.34 3.23 13.19
1/15/2021 6:45:00 AM 2.34 36.212 0.097 6.33 3.24 13.2
1/15/2021 7:00:00 AM 2.33 36.194 0.097 6.34 3.24 13.21
1/15/2021 7:15:00 AM 2.33 36.194 0.097 6.34 3.28 13.21
1/15/2021 7:30:00 AM 2.32 36.176 0.097 6.33 3.26 13.22
1/15/2021 7:45:00 AM 2.32 36.176 0.097 6.34 3.13 13.23
1/15/2021 8:00:00 AM 2.32 36.176 0.097 6.34 3.14 13.24
1/15/2021 8:15:00 AM 2.32 36.176 0.097 6.35 3.35 13.25
1/15/2021 8:30:00 AM 2.32 36.176 0.097 6.34 3.22 13.27
1/15/2021 8:45:00 AM 2.33 36.194 0.097 6.35 3.3 13.29
1/15/2021 9:00:00 AM 2.35 36.23 0.097 6.34 3.19 13.31
1/15/2021 9:15:00 AM 2.36 36.248 0.097 6.35 3.36 13.34
1/15/2021 9:30:00 AM 2.39 36.302 0.097 6.37 3.32 13.36
1/15/2021 9:45:00 AM 2.42 36.356 0.097 6.38 3.22 13.38
1/15/2021 10:00:00 AM 2.44 36.392 0.097 6.4 3.79 13.4
1/15/2021 10:15:00 AM 2.47 36.446 0.097 6.4 3.2 13.43
1/15/2021 10:30:00 AM 2.5 36.5 0.097 6.39 3.14 13.45
1/15/2021 10:45:00 AM 2.53 36.554 0.097 6.39 3.11 13.46
1/15/2021 11:00:00 AM 2.57 36.626 0.096 6.4 3.07 13.48
1/15/2021 11:15:00 AM 2.62 36.716 0.097 6.42 3.09 13.48
1/15/2021 11:30:00 AM 2.67 36.806 0.097 6.41 3.13 13.49
1/15/2021 11:45:00 AM 2.74 36.932 0.097 6.43 3.11 13.49
1/15/2021 12:00:00 PM 2.79 37.022 0.097 6.45 3.13 13.48
1/15/2021 12:15:00 PM 2.84 37.112 0.097 6.44 3.1 13.48
1/15/2021 12:30:00 PM 2.91 37.238 0.097 6.46 3.12 13.47
1/15/2021 12:45:00 PM 2.98 37.364 0.097 6.46 3.13 13.47
1/15/2021 1:00:00 PM 3.05 37.49 0.097 6.46 3.13 13.45
1/15/2021 1:15:00 PM 3.12 37.616 0.097 6.48 3.08 13.44
1/15/2021 1:30:00 PM 3.19 37.742 0.097 6.48 3.14 13.43
1/15/2021 1:45:00 PM 3.23 37.814 0.097 6.48 3.17 13.4
1/15/2021 2:00:00 PM 3.27 37.886 0.097 6.48 3.04 13.38
1/15/2021 2:15:00 PM 3.31 37.958 0.097 6.48 3.15 13.37
1/15/2021 2:30:00 PM 3.35 38.03 0.097 6.47 3.07 13.35
1/15/2021 2:45:00 PM 3.41 38.138 0.097 6.48 3.15 13.33
1/15/2021 3:00:00 PM 3.46 38.228 0.097 6.46 3.12 13.31
1/15/2021 3:15:00 PM 3.5 38.3 0.097 6.46 3.14 13.28
1/15/2021 3:30:00 PM 3.52 38.336 0.097 6.46 3.16 13.26
1/15/2021 3:45:00 PM 3.54 38.372 0.097 6.48 3.18 13.24
1/15/2021 4:00:00 PM 3.55 38.39 0.097 6.47 3.21 13.2
1/15/2021 4:15:00 PM 3.56 38.408 0.097 6.46 3.2 13.16
1/15/2021 4:30:00 PM 3.56 38.408 0.097 6.45 3.22 13.12
1/15/2021 4:45:00 PM 3.56 38.408 0.097 6.44 3.19 13.07
1/15/2021 5:00:00 PM 3.56 38.408 0.097 6.44 3.16 13.03
1/15/2021 5:15:00 PM 3.56 38.408 0.098 6.43 3.25 12.99
1/15/2021 5:30:00 PM 3.56 38.408 0.097 6.43 3.27 12.96
1/15/2021 5:45:00 PM 3.56 38.408 0.098 6.4 3.35 12.91
1/15/2021 6:00:00 PM 3.56 38.408 0.098 6.39 3.27 12.89
1/15/2021 6:15:00 PM 3.56 38.408 0.098 6.39 3.33 12.87
1/15/2021 6:30:00 PM 3.57 38.426 0.098 6.39 3.55 12.84
1/15/2021 6:45:00 PM 3.57 38.426 0.098 6.39 3.36 12.82
1/15/2021 7:00:00 PM 3.58 38.444 0.099 6.39 3.63 12.8
1/15/2021 7:15:00 PM 3.57 38.426 0.099 6.38 3.73 12.79
1/15/2021 7:30:00 PM 3.58 38.444 0.099 6.37 3.98 12.78
1/15/2021 7:45:00 PM 3.58 38.444 0.099 6.35 4.19 12.77
1/15/2021 8:00:00 PM 3.58 38.444 0.1 6.36 4.45 12.76
1/15/2021 8:15:00 PM 3.57 38.426 0.1 6.36 4.75 12.73
1/15/2021 8:30:00 PM 3.56 38.408 0.1 6.35 4.87 12.73
1/15/2021 8:45:00 PM 3.55 38.39 0.1 6.37 5.14 12.73
1/15/2021 9:00:00 PM 3.54 38.372 0.1 6.37 5.55 12.72
1/15/2021 9:15:00 PM 3.54 38.372 0.101 6.36 5.94 12.71
1/15/2021 9:30:00 PM 3.53 38.354 0.101 6.36 6.48 12.7
1/15/2021 9:45:00 PM 3.51 38.318 0.101 6.36 6.99 12.71
1/15/2021 10:00:00 PM 3.5 38.3 0.102 6.36 7.76 12.71
1/15/2021 10:15:00 PM 3.49 38.282 0.101 6.35 7.47 12.71
1/15/2021 10:30:00 PM 3.47 38.246 0.101 6.34 7.52 12.72
1/15/2021 10:45:00 PM 3.46 38.228 0.101 6.34 7.74 12.72
1/15/2021 11:00:00 PM 3.46 38.228 0.101 6.35 6.94 12.72
1/15/2021 11:15:00 PM 3.45 38.21 0.101 6.33 7.16 12.72
1/15/2021 11:30:00 PM 3.44 38.192 0.102 6.35 7.35 12.73
1/15/2021 11:45:00 PM 3.43 38.174 0.102 6.35 8.73 12.73
1/16/2021 12:00:00 AM 3.42 38.156 0.103 6.34 8.46 12.72
1/16/2021 12:15:00 AM 3.41 38.138 0.104 6.35 8.95 12.72
1/16/2021 12:30:00 AM 3.4 38.12 0.105 6.36 8.94 12.72
1/16/2021 12:45:00 AM 3.38 38.084 0.106 6.35 9.74 12.72
1/16/2021 1:00:00 AM 3.37 38.066 0.106 6.35 8.95 12.72
1/16/2021 1:15:00 AM 3.36 38.048 0.106 6.35 9.32 12.72
1/16/2021 1:30:00 AM 3.35 38.03 0.106 6.35 10.24 12.73
1/16/2021 1:45:00 AM 3.33 37.994 0.106 6.35 11.15 12.71
1/16/2021 2:00:00 AM 3.32 37.976 0.106 6.36 9.61 12.73
1/16/2021 2:15:00 AM 3.32 37.976 0.107 6.35 10.02 12.71
1/16/2021 2:30:00 AM 3.3 37.94 0.108 6.36 9.93 12.74
1/16/2021 2:45:00 AM 3.28 37.904 0.109 6.36 9.94 12.73
1/16/2021 3:00:00 AM 3.25 37.85 0.109 6.37 9.93 12.74
1/16/2021 3:15:00 AM 3.23 37.814 0.109 6.37 9.71 12.75
1/16/2021 3:30:00 AM 3.22 37.796 0.109 6.37 9.95 12.74
1/16/2021 3:45:00 AM 3.22 37.796 0.108 6.37 9.75 12.75
1/16/2021 4:00:00 AM 3.21 37.778 0.107 6.38 9.16 12.76
1/16/2021 4:15:00 AM 3.2 37.76 0.107 6.37 8.93 12.76
1/16/2021 4:30:00 AM 3.2 37.76 0.106 6.36 8.37 12.76
1/16/2021 4:45:00 AM 3.19 37.742 0.105 6.38 7.8 12.77
1/16/2021 5:00:00 AM 3.18 37.724 0.105 6.38 7.68 12.77
1/16/2021 5:15:00 AM 3.16 37.688 0.105 6.38 8.03 12.77
1/16/2021 5:30:00 AM 3.15 37.67 0.105 6.38 7.87 12.78
1/16/2021 5:45:00 AM 3.13 37.634 0.104 6.38 7.33 12.79
1/16/2021 6:00:00 AM 3.1 37.58 0.104 6.38 7.5 12.79
1/16/2021 6:15:00 AM 3.07 37.526 0.104 6.39 7.74 12.8
1/16/2021 6:30:00 AM 3.03 37.454 0.105 6.38 7.26 12.8
1/16/2021 6:45:00 AM 3.01 37.418 0.105 6.38 7.44 12.81
1/16/2021 7:00:00 AM 2.97 37.346 0.104 6.39 7.37 12.82
1/16/2021 7:15:00 AM 2.93 37.274 0.105 6.38 7.01 12.82
1/16/2021 7:30:00 AM 2.9 37.22 0.104 6.38 6.8 12.85
1/16/2021 7:45:00 AM 2.86 37.148 0.105 6.38 7.34 12.86
1/16/2021 8:00:00 AM 2.84 37.112 0.104 6.38 6.56 12.89
1/16/2021 8:15:00 AM 2.82 37.076 0.104 6.38 6.59 12.91
1/16/2021 8:30:00 AM 2.82 37.076 0.104 6.38 7.04 12.96
1/16/2021 8:45:00 AM 2.83 37.094 0.104 6.38 7.12 12.98
1/16/2021 9:00:00 AM 2.85 37.13 0.104 6.38 6.39 13.02
1/16/2021 9:15:00 AM 2.86 37.148 0.104 6.4 6.31 13.07
1/16/2021 9:30:00 AM 2.89 37.202 0.104 6.4 6.06 13.11
1/16/2021 9:45:00 AM 2.94 37.292 0.104 6.41 6.18 13.14
1/16/2021 10:00:00 AM 2.99 37.382 0.104 6.42 5.85 13.18
1/16/2021 10:15:00 AM 3.08 37.544 0.104 6.43 6.04 13.2
1/16/2021 10:30:00 AM 3.16 37.688 0.105 6.43 6.27 13.21
1/16/2021 10:45:00 AM 3.21 37.778 0.105 6.44 5.81 13.21
1/16/2021 11:00:00 AM 3.29 37.922 0.105 6.44 5.7 13.23
1/16/2021 11:15:00 AM 3.38 38.084 0.106 6.44 5.98 13.22
1/16/2021 11:30:00 AM 3.51 38.318 0.106 6.46 5.81 13.21
1/16/2021 11:45:00 AM 3.63 38.534 0.105 6.46 5.72 13.2
1/16/2021 12:00:00 PM 3.75 38.75 0.106 6.47 5.86 13.18
1/16/2021 12:15:00 PM 3.89 39.002 0.106 6.47 5.65 13.15
1/16/2021 12:30:00 PM 3.97 39.146 0.106 6.49 6.11 13.15
1/16/2021 12:45:00 PM 4.08 39.344 0.106 6.49 6.18 13.12
1/16/2021 1:00:00 PM 4.19 39.542 0.106 6.49 6.07 13.08
1/16/2021 1:15:00 PM 4.34 39.812 0.107 6.5 6.79 13.06
1/16/2021 1:30:00 PM 4.39 39.902 0.107 6.5 6.63 13.04
1/16/2021 1:45:00 PM 4.44 39.992 0.106 6.5 6.09 13.02
1/16/2021 2:00:00 PM 4.46 40.028 0.107 6.5 6.36 12.99
1/16/2021 2:15:00 PM 4.46 40.028 0.107 6.5 6.29 12.98
1/16/2021 2:30:00 PM 4.46 40.028 0.106 6.5 6.12 12.95
1/16/2021 2:45:00 PM 4.5 40.1 0.107 6.5 6.1 12.94
1/16/2021 3:00:00 PM 4.51 40.118 0.107 6.5 5.91 12.92
1/16/2021 3:15:00 PM 4.47 40.046 0.106 6.5 6.04 12.91
1/16/2021 3:30:00 PM 4.45 40.01 0.107 6.49 6.1 12.9
1/16/2021 3:45:00 PM 4.41 39.938 0.106 6.49 5.88 12.89
1/16/2021 4:00:00 PM 4.38 39.884 0.106 6.49 5.83 12.87
1/16/2021 4:15:00 PM 4.34 39.812 0.106 6.49 5.95 12.84
1/16/2021 4:30:00 PM 4.3 39.74 0.107 6.48 6.03 12.82
1/16/2021 4:45:00 PM 4.25 39.65 0.107 6.47 6.17 12.79
1/16/2021 5:00:00 PM 4.19 39.542 0.107 6.47 6.02 12.78
1/16/2021 5:15:00 PM 4.13 39.434 0.107 6.45 6.17 12.75
1/16/2021 5:30:00 PM 4.08 39.344 0.107 6.44 6.03 12.72
1/16/2021 5:45:00 PM 4.01 39.218 0.107 6.43 5.96 12.7
1/16/2021 6:00:00 PM 3.93 39.074 0.107 6.43 5.86 12.68
1/16/2021 6:15:00 PM 3.86 38.948 0.108 6.43 5.98 12.68
1/16/2021 6:30:00 PM 3.82 38.876 0.109 6.41 5.95 12.66
1/16/2021 6:45:00 PM 3.79 38.822 0.108 6.4 6.1 12.64
1/16/2021 7:00:00 PM 3.74 38.732 0.108 6.41 5.83 12.64
1/16/2021 7:15:00 PM 3.7 38.66 0.108 6.4 5.89 12.62
1/16/2021 7:30:00 PM 3.69 38.642 0.109 6.4 5.84 12.62
1/16/2021 7:45:00 PM 3.67 38.606 0.109 6.39 6.07 12.61
1/16/2021 8:00:00 PM 3.65 38.57 0.109 6.4 5.84 12.61
1/16/2021 8:15:00 PM 3.61 38.498 0.109 6.39 5.81 12.61
1/16/2021 8:30:00 PM 3.57 38.426 0.109 6.39 5.94 12.62
1/16/2021 8:45:00 PM 3.54 38.372 0.109 6.39 6.01 12.63
1/16/2021 9:00:00 PM 3.5 38.3 0.109 6.39 6 12.63
1/16/2021 9:15:00 PM 3.46 38.228 0.109 6.39 5.85 12.64
1/16/2021 9:30:00 PM 3.43 38.174 0.108 6.39 5.67 12.66
1/16/2021 9:45:00 PM 3.39 38.102 0.108 6.38 5.88 12.66
1/16/2021 10:00:00 PM 3.35 38.03 0.108 6.38 5.61 12.68
1/16/2021 10:15:00 PM 3.32 37.976 0.107 6.38 5.81 12.68
1/16/2021 10:30:00 PM 3.29 37.922 0.107 6.38 5.66 12.7
1/16/2021 10:45:00 PM 3.27 37.886 0.107 6.38 5.8 12.71
1/16/2021 11:00:00 PM 3.23 37.814 0.107 6.38 5.53 12.72
1/16/2021 11:15:00 PM 3.21 37.778 0.106 6.38 5.42 12.73
1/16/2021 11:30:00 PM 3.19 37.742 0.106 6.38 5.88 12.74
1/16/2021 11:45:00 PM 3.17 37.706 0.106 6.38 5.45 12.74
1/17/2021 12:00:00 AM 3.15 37.67 0.105 6.38 5.27 12.75
1/17/2021 12:15:00 AM 3.13 37.634 0.106 6.37 5.59 12.76
1/17/2021 12:30:00 AM 3.11 37.598 0.106 6.39 5.5 12.77
1/17/2021 12:45:00 AM 3.1 37.58 0.105 6.39 5.08 12.78
1/17/2021 1:00:00 AM 3.1 37.58 0.105 6.39 5.12 12.78
1/17/2021 1:15:00 AM 3.08 37.544 0.105 6.39 5.09 12.79
1/17/2021 1:30:00 AM 3.07 37.526 0.105 6.38 5.42 12.8
1/17/2021 1:45:00 AM 3.05 37.49 0.105 6.38 5.46 12.81
1/17/2021 2:00:00 AM 3.03 37.454 0.105 6.38 5.1 12.81
1/17/2021 2:15:00 AM 3.02 37.436 0.105 6.39 5.38 12.81
1/17/2021 2:30:00 AM 2.99 37.382 0.105 6.39 5.2 12.83
1/17/2021 2:45:00 AM 2.98 37.364 0.105 6.38 5.41 12.84
1/17/2021 3:00:00 AM 2.96 37.328 0.104 6.39 4.99 12.85
1/17/2021 3:15:00 AM 2.94 37.292 0.105 6.39 4.94 12.85
1/17/2021 3:30:00 AM 2.93 37.274 0.105 6.39 4.92 12.85
1/17/2021 3:45:00 AM 2.9 37.22 0.104 6.39 4.98 12.87
1/17/2021 4:00:00 AM 2.88 37.184 0.104 6.38 4.82 12.88
1/17/2021 4:15:00 AM 2.86 37.148 0.105 6.39 4.82 12.88
1/17/2021 4:30:00 AM 2.84 37.112 0.104 6.39 5.06 12.9
1/17/2021 4:45:00 AM 2.83 37.094 0.104 6.38 4.84 12.9
1/17/2021 5:00:00 AM 2.81 37.058 0.104 6.39 4.79 12.91
1/17/2021 5:15:00 AM 2.79 37.022 0.104 6.39 4.8 12.91
1/17/2021 5:30:00 AM 2.78 37.004 0.104 6.39 4.9 12.92
1/17/2021 5:45:00 AM 2.77 36.986 0.104 6.39 4.66 12.93
1/17/2021 6:00:00 AM 2.77 36.986 0.104 6.38 4.64 12.93
1/17/2021 6:15:00 AM 2.77 36.986 0.104 6.39 4.77 12.94
1/17/2021 6:30:00 AM 2.76 36.968 0.104 6.39 4.7 12.95
1/17/2021 6:45:00 AM 2.76 36.968 0.104 6.39 4.73 12.95
1/17/2021 7:00:00 AM 2.76 36.968 0.104 6.39 4.7 12.96
1/17/2021 7:15:00 AM 2.75 36.95 0.104 6.39 4.53 12.96
1/17/2021 7:30:00 AM 2.75 36.95 0.104 6.39 4.62 12.96
1/17/2021 7:45:00 AM 2.74 36.932 0.104 6.39 4.55 12.98
1/17/2021 8:00:00 AM 2.74 36.932 0.104 6.39 4.6 12.98
1/17/2021 8:15:00 AM 2.74 36.932 0.104 6.39 4.62 13
1/17/2021 8:30:00 AM 2.73 36.914 0.104 6.39 4.57 13.01
1/17/2021 8:45:00 AM 2.74 36.932 0.104 6.39 4.46 13.02
1/17/2021 9:00:00 AM 2.75 36.95 0.103 6.4 4.93 13.05
1/17/2021 9:15:00 AM 2.76 36.968 0.103 6.4 4.65 13.09
1/17/2021 9:30:00 AM 2.77 36.986 0.103 6.4 4.51 13.12
1/17/2021 9:45:00 AM 2.8 37.04 0.103 6.4 4.54 13.13
1/17/2021 10:00:00 AM 2.82 37.076 0.103 6.41 4.5 13.17
1/17/2021 10:15:00 AM 2.84 37.112 0.103 6.41 4.54 13.19
1/17/2021 10:30:00 AM 2.88 37.184 0.102 6.42 4.35 13.21
1/17/2021 10:45:00 AM 2.93 37.274 0.102 6.42 4.49 13.26
1/17/2021 11:00:00 AM 2.99 37.382 0.102 6.43 4.41 13.27
1/17/2021 11:15:00 AM 3.02 37.436 0.102 6.41 4.28 13.29
1/17/2021 11:30:00 AM 3.06 37.508 0.102 6.45 4.31 13.29
1/17/2021 11:45:00 AM 3.09 37.562 0.102 6.45 4.31 13.29
1/17/2021 12:00:00 PM 3.14 37.652 0.102 6.45 4.35 13.29
1/17/2021 12:15:00 PM 3.2 37.76 0.102 6.45 4.48 13.29
1/17/2021 12:30:00 PM 3.23 37.814 0.102 6.45 4.39 13.3
1/17/2021 12:45:00 PM 3.27 37.886 0.102 6.46 4.24 13.29
1/17/2021 1:00:00 PM 3.31 37.958 0.102 6.46 4.34 13.29
1/17/2021 1:15:00 PM 3.35 38.03 0.101 6.47 4.37 13.28
1/17/2021 1:30:00 PM 3.4 38.12 0.102 6.47 4.26 13.26
1/17/2021 1:45:00 PM 3.43 38.174 0.102 6.47 4.26 13.24
1/17/2021 2:00:00 PM 3.46 38.228 0.101 6.47 4.32 13.23
1/17/2021 2:15:00 PM 3.51 38.318 0.102 6.48 4.32 13.22
1/17/2021 2:30:00 PM 3.55 38.39 0.101 6.47 4.3 13.21
1/17/2021 2:45:00 PM 3.56 38.408 0.101 6.47 4.47 13.18
1/17/2021 3:00:00 PM 3.59 38.462 0.101 6.47 4.55 13.17
1/17/2021 3:15:00 PM 3.61 38.498 0.101 6.47 4.39 13.14
1/17/2021 3:30:00 PM 3.64 38.552 0.101 6.47 4.3 13.13
1/17/2021 3:45:00 PM 3.69 38.642 0.1 6.47 4.52 13.12
1/17/2021 4:00:00 PM 3.68 38.624 0.101 6.47 4.59 13.11
1/17/2021 4:15:00 PM 3.66 38.588 0.101 6.47 4.3 13.08
1/17/2021 4:30:00 PM 3.64 38.552 0.101 6.46 4.39 13.06
1/17/2021 4:45:00 PM 3.64 38.552 0.1 6.46 4.36 13.04
1/17/2021 5:00:00 PM 3.64 38.552 0.1 6.45 4.47 13.01
1/17/2021 5:15:00 PM 3.63 38.534 0.101 6.45 4.75 12.97
1/17/2021 5:30:00 PM 3.62 38.516 0.1 6.44 4.37 12.95
1/17/2021 5:45:00 PM 3.61 38.498 0.1 6.44 4.36 12.92
1/17/2021 6:00:00 PM 3.58 38.444 0.1 6.43 4.67 12.89
1/17/2021 6:15:00 PM 3.57 38.426 0.1 6.41 4.42 12.87
1/17/2021 6:30:00 PM 3.55 38.39 0.1 6.41 4.62 12.84
1/17/2021 6:45:00 PM 3.54 38.372 0.1 6.4 4.31 12.82
1/17/2021 7:00:00 PM 3.53 38.354 0.101 6.4 4.32 12.8
1/17/2021 7:15:00 PM 3.52 38.336 0.101 6.4 4.5 12.79
1/17/2021 7:30:00 PM 3.52 38.336 0.1 6.4 4.41 12.79
1/17/2021 7:45:00 PM 3.52 38.336 0.1 6.39 4.2 12.78
1/17/2021 8:00:00 PM 3.51 38.318 0.1 6.4 4.25 12.76
1/17/2021 8:15:00 PM 3.5 38.3 0.1 6.39 4.22 12.76
1/17/2021 8:30:00 PM 3.5 38.3 0.1 6.38 4.09 12.76
1/17/2021 8:45:00 PM 3.49 38.282 0.1 6.38 4.09 12.76
1/17/2021 9:00:00 PM 3.48 38.264 0.1 6.38 4.3 12.76
1/17/2021 9:15:00 PM 3.48 38.264 0.1 6.38 4.21 12.76
1/17/2021 9:30:00 PM 3.47 38.246 0.1 6.37 4.06 12.76
1/17/2021 9:45:00 PM 3.46 38.228 0.1 6.37 4.25 12.76
1/17/2021 10:00:00 PM 3.45 38.21 0.1 6.37 4.07 12.76
1/17/2021 10:15:00 PM 3.44 38.192 0.099 6.37 3.96 12.76
1/17/2021 10:30:00 PM 3.44 38.192 0.1 6.37 4.02 12.76
1/17/2021 10:45:00 PM 3.43 38.174 0.1 6.37 4.32 12.76
1/17/2021 11:00:00 PM 3.42 38.156 0.1 6.37 4.13 12.77
1/17/2021 11:15:00 PM 3.41 38.138 0.1 6.37 4.07 12.76
1/17/2021 11:30:00 PM 3.41 38.138 0.099 6.37 4.04 12.76
1/17/2021 11:45:00 PM 3.39 38.102 0.099 6.38 4.1 12.77
1/18/2021 12:00:00 AM 3.38 38.084 0.1 6.37 3.97 12.77
1/18/2021 12:15:00 AM 3.37 38.066 0.1 6.36 4.09 12.77
1/18/2021 12:30:00 AM 3.35 38.03 0.099 6.38 3.95 12.77
1/18/2021 12:45:00 AM 3.33 37.994 0.1 6.37 4.19 12.78
1/18/2021 1:00:00 AM 3.31 37.958 0.099 6.37 3.97 12.79
1/18/2021 1:15:00 AM 3.29 37.922 0.1 6.38 4 12.79
1/18/2021 1:30:00 AM 3.28 37.904 0.099 6.35 4.01 12.79
1/18/2021 1:45:00 AM 3.27 37.886 0.099 6.37 3.99 12.8
1/18/2021 2:00:00 AM 3.26 37.868 0.099 6.36 4.09 12.8
1/18/2021 2:15:00 AM 3.25 37.85 0.099 6.37 3.89 12.81
1/18/2021 2:30:00 AM 3.23 37.814 0.1 6.36 3.94 12.81
1/18/2021 2:45:00 AM 3.21 37.778 0.099 6.36 4.02 12.81
1/18/2021 3:00:00 AM 3.19 37.742 0.099 6.37 4.01 12.83
1/18/2021 3:15:00 AM 3.19 37.742 0.099 6.36 3.91 12.83
1/18/2021 3:30:00 AM 3.17 37.706 0.1 6.36 3.99 12.84
1/18/2021 3:45:00 AM 3.15 37.67 0.099 6.36 4.01 12.84
1/18/2021 4:00:00 AM 3.13 37.634 0.099 6.36 4.05 12.85
1/18/2021 4:15:00 AM 3.12 37.616 0.099 6.36 3.89 12.85
1/18/2021 4:30:00 AM 3.12 37.616 0.099 6.36 3.82 12.85
1/18/2021 4:45:00 AM 3.11 37.598 0.099 6.36 3.84 12.86
1/18/2021 5:00:00 AM 3.1 37.58 0.099 6.36 3.87 12.85
1/18/2021 5:15:00 AM 3.09 37.562 0.1 6.36 4.11 12.87
1/18/2021 5:30:00 AM 3.08 37.544 0.099 6.36 3.92 12.87
1/18/2021 5:45:00 AM 3.07 37.526 0.1 6.36 4.06 12.88
1/18/2021 6:00:00 AM 3.07 37.526 0.099 6.37 3.8 12.89
1/18/2021 6:15:00 AM 3.06 37.508 0.099 6.37 3.92 12.89
1/18/2021 6:30:00 AM 3.05 37.49 0.1 6.36 3.84 12.89
1/18/2021 6:45:00 AM 3.04 37.472 0.1 6.36 3.9 12.89
1/18/2021 7:00:00 AM 3.02 37.436 0.099 6.36 3.82 12.9
1/18/2021 7:15:00 AM 3 37.4 0.099 6.36 3.89 12.91
1/18/2021 7:30:00 AM 2.98 37.364 0.099 6.36 3.87 12.91
1/18/2021 7:45:00 AM 2.96 37.328 0.099 6.37 3.87 12.93
1/18/2021 8:00:00 AM 2.94 37.292 0.099 6.36 3.91 12.96
1/18/2021 8:15:00 AM 2.93 37.274 0.099 6.36 3.8 12.98
1/18/2021 8:30:00 AM 2.94 37.292 0.099 6.37 3.88 13.01
1/18/2021 8:45:00 AM 2.97 37.346 0.099 6.37 3.89 13.07
1/18/2021 9:00:00 AM 2.98 37.364 0.099 6.38 3.84 13.11
1/18/2021 9:15:00 AM 3 37.4 0.1 6.39 4.08 13.14
1/18/2021 9:30:00 AM 3.04 37.472 0.099 6.4 3.98 13.2
1/18/2021 9:45:00 AM 3.08 37.544 0.099 6.41 3.88 13.23
1/18/2021 10:00:00 AM 3.13 37.634 0.099 6.41 3.78 13.26
1/18/2021 10:15:00 AM 3.21 37.778 0.099 6.42 3.77 13.29
1/18/2021 10:30:00 AM 3.26 37.868 0.099 6.42 3.87 13.3
1/18/2021 10:45:00 AM 3.27 37.886 0.098 6.43 3.85 13.31
1/18/2021 11:00:00 AM 3.33 37.994 0.099 6.44 3.77 13.33
1/18/2021 11:15:00 AM 3.36 38.048 0.098 6.45 3.85 13.33
1/18/2021 11:30:00 AM 3.4 38.12 0.098 6.45 3.84 13.34
1/18/2021 11:45:00 AM 3.44 38.192 0.098 6.46 3.64 13.35
1/18/2021 12:00:00 PM 3.49 38.282 0.098 6.46 3.79 13.34
1/18/2021 12:15:00 PM 3.53 38.354 0.098 6.46 3.72 13.34
1/18/2021 12:30:00 PM 3.56 38.408 0.098 6.46 3.69 13.33
1/18/2021 12:45:00 PM 3.59 38.462 0.098 6.47 3.69 13.32
1/18/2021 1:00:00 PM 3.63 38.534 0.098 6.46 3.71 13.31
1/18/2021 1:15:00 PM 3.65 38.57 0.098 6.47 3.63 13.29
1/18/2021 1:30:00 PM 3.68 38.624 0.098 6.48 3.72 13.29
1/18/2021 1:45:00 PM 3.7 38.66 0.098 6.48 3.88 13.28
1/18/2021 2:00:00 PM 3.7 38.66 0.098 6.48 3.69 13.25
1/18/2021 2:15:00 PM 3.72 38.696 0.098 6.48 3.78 13.25
1/18/2021 2:30:00 PM 3.74 38.732 0.098 6.46 3.74 13.24
1/18/2021 2:45:00 PM 3.75 38.75 0.098 6.48 3.77 13.22
1/18/2021 3:00:00 PM 3.75 38.75 0.097 6.47 3.82 13.21
1/18/2021 3:15:00 PM 3.75 38.75 0.098 6.45 3.78 13.2
1/18/2021 3:30:00 PM 3.75 38.75 0.097 6.46 3.78 13.21
1/18/2021 3:45:00 PM 3.75 38.75 0.097 6.47 3.6 13.2
1/18/2021 4:00:00 PM 3.74 38.732 0.097 6.46 3.79 13.18
1/18/2021 4:15:00 PM 3.74 38.732 0.098 6.46 3.77 13.16
1/18/2021 4:30:00 PM 3.74 38.732 0.098 6.46 3.78 13.14
1/18/2021 4:45:00 PM 3.73 38.714 0.097 6.45 3.61 13.12
1/18/2021 5:00:00 PM 3.72 38.696 0.097 6.44 3.7 13.09
1/18/2021 5:15:00 PM 3.71 38.678 0.097 6.43 3.83 13.05
1/18/2021 5:30:00 PM 3.69 38.642 0.097 6.43 3.95 13.02
1/18/2021 5:45:00 PM 3.68 38.624 0.097 6.42 3.8 12.99
1/18/2021 6:00:00 PM 3.66 38.588 0.097 6.41 3.8 12.96
1/18/2021 6:15:00 PM 3.64 38.552 0.098 6.4 3.84 12.94
1/18/2021 6:30:00 PM 3.61 38.498 0.097 6.4 3.79 12.92
1/18/2021 6:45:00 PM 3.59 38.462 0.097 6.4 3.83 12.91
1/18/2021 7:00:00 PM 3.56 38.408 0.097 6.38 3.8 12.9
1/18/2021 7:15:00 PM 3.54 38.372 0.097 6.39 3.78 12.88
1/18/2021 7:30:00 PM 3.52 38.336 0.097 6.38 3.87 12.87
1/18/2021 7:45:00 PM 3.49 38.282 0.097 6.38 3.91 12.88
1/18/2021 8:00:00 PM 3.47 38.246 0.097 6.38 3.94 12.88
1/18/2021 8:15:00 PM 3.45 38.21 0.097 6.37 3.8 12.88
1/18/2021 8:30:00 PM 3.42 38.156 0.097 6.36 3.79 12.88
1/18/2021 8:45:00 PM 3.4 38.12 0.097 6.36 3.69 12.88
1/18/2021 9:00:00 PM 3.38 38.084 0.098 6.36 3.87 12.88
1/18/2021 9:15:00 PM 3.36 38.048 0.098 6.36 3.83 12.9
1/18/2021 9:30:00 PM 3.34 38.012 0.098 6.36 3.69 12.91
1/18/2021 9:45:00 PM 3.32 37.976 0.098 6.36 3.71 12.91
1/18/2021 10:00:00 PM 3.3 37.94 0.098 6.35 3.6 12.91
1/18/2021 10:15:00 PM 3.28 37.904 0.098 6.35 3.65 12.92
1/18/2021 10:30:00 PM 3.26 37.868 0.098 6.35 3.63 12.93
1/18/2021 10:45:00 PM 3.24 37.832 0.098 6.36 3.7 12.93
1/18/2021 11:00:00 PM 3.23 37.814 0.098 6.35 3.75 12.94
1/18/2021 11:15:00 PM 3.22 37.796 0.098 6.34 3.73 12.94
1/18/2021 11:30:00 PM 3.21 37.778 0.097 6.34 3.63 12.95
1/18/2021 11:45:00 PM 3.2 37.76 0.097 6.34 3.58 12.95
1/19/2021 12:00:00 AM 3.19 37.742 0.097 6.35 3.87 12.95
1/19/2021 12:15:00 AM 3.18 37.724 0.097 6.36 3.83 12.96
1/19/2021 12:30:00 AM 3.17 37.706 0.097 6.35 3.53 12.97
1/19/2021 12:45:00 AM 3.15 37.67 0.097 6.36 3.67 12.97
1/19/2021 1:00:00 AM 3.14 37.652 0.097 6.35 3.6 12.97
1/19/2021 1:15:00 AM 3.12 37.616 0.097 6.35 3.66 12.98
1/19/2021 1:30:00 AM 3.1 37.58 0.097 6.36 3.57 12.98
1/19/2021 1:45:00 AM 3.07 37.526 0.097 6.36 3.65 12.99
1/19/2021 2:00:00 AM 3.06 37.508 0.097 6.36 3.53 13
1/19/2021 2:15:00 AM 3.03 37.454 0.097 6.35 3.72 13.01
1/19/2021 2:30:00 AM 3.01 37.418 0.097 6.36 3.56 13.01
1/19/2021 2:45:00 AM 3 37.4 0.097 6.36 3.56 13.02
1/19/2021 3:00:00 AM 2.98 37.364 0.097 6.36 3.56 13.03
1/19/2021 3:15:00 AM 2.96 37.328 0.098 6.35 3.69 13.04
1/19/2021 3:30:00 AM 2.95 37.31 0.097 6.36 3.55 13.05
1/19/2021 3:45:00 AM 2.93 37.274 0.097 6.35 3.6 13.06
1/19/2021 4:00:00 AM 2.92 37.256 0.097 6.35 3.56 13.05
1/19/2021 4:15:00 AM 2.91 37.238 0.097 6.34 3.47 13.07
1/19/2021 4:30:00 AM 2.9 37.22 0.097 6.35 3.6 13.08
1/19/2021 4:45:00 AM 2.89 37.202 0.097 6.35 3.55 13.08
1/19/2021 5:00:00 AM 2.88 37.184 0.097 6.35 3.47 13.09
1/19/2021 5:15:00 AM 2.86 37.148 0.097 6.35 3.47 13.1
1/19/2021 5:30:00 AM 2.86 37.148 0.097 6.34 3.48 13.1
1/19/2021 5:45:00 AM 2.85 37.13 0.097 6.35 3.54 13.1
1/19/2021 6:00:00 AM 2.83 37.094 0.097 6.35 3.53 13.11
1/19/2021 6:15:00 AM 2.83 37.094 0.097 6.35 3.45 13.11
1/19/2021 6:30:00 AM 2.82 37.076 0.097 6.34 3.43 13.13
1/19/2021 6:45:00 AM 2.81 37.058 0.097 6.36 3.51 13.12
1/19/2021 7:00:00 AM 2.8 37.04 0.097 6.36 3.72 13.14
1/19/2021 7:15:00 AM 2.79 37.022 0.097 6.36 3.57 13.14
1/19/2021 7:30:00 AM 2.78 37.004 0.097 6.35 3.46 13.14
1/19/2021 7:45:00 AM 2.77 36.986 0.097 6.35 3.47 13.15
1/19/2021 8:00:00 AM 2.77 36.986 0.097 6.34 3.53 13.16
1/19/2021 8:15:00 AM 2.77 36.986 0.097 6.36 3.47 13.18
1/19/2021 8:30:00 AM 2.76 36.968 0.097 6.36 3.48 13.19
1/19/2021 8:45:00 AM 2.76 36.968 0.097 6.36 3.72 13.21
1/19/2021 9:00:00 AM 2.76 36.968 0.097 6.36 3.58 13.24
1/19/2021 9:15:00 AM 2.77 36.986 0.097 6.35 3.43 13.28
1/19/2021 9:30:00 AM 2.78 37.004 0.097 6.37 3.44 13.31
1/19/2021 9:45:00 AM 2.79 37.022 0.097 6.38 3.41 13.35
1/19/2021 10:00:00 AM 2.81 37.058 0.097 6.38 3.4 13.4
1/19/2021 10:15:00 AM 2.83 37.094 0.097 6.39 3.39 13.43
1/19/2021 10:30:00 AM 2.85 37.13 0.097 6.39 3.39 13.46
1/19/2021 10:45:00 AM 2.9 37.22 0.097 6.41 3.37 13.49
1/19/2021 11:00:00 AM 2.9 37.22 0.097 6.42 3.43 13.51
1/19/2021 11:15:00 AM 2.9 37.22 0.097 6.42 3.44 13.52
1/19/2021 11:30:00 AM 2.93 37.274 0.097 6.42 3.48 13.53
1/19/2021 11:45:00 AM 2.95 37.31 0.096 6.43 3.47 13.54
1/19/2021 12:00:00 PM 3.04 37.472 0.096 6.43 3.36 13.56
1/19/2021 12:15:00 PM 3.08 37.544 0.096 6.43 3.38 13.56
1/19/2021 12:30:00 PM 3.13 37.634 0.096 6.44 3.32 13.57
1/19/2021 12:45:00 PM 3.24 37.832 0.096 6.44 3.45 13.56
1/19/2021 1:00:00 PM 3.23 37.814 0.096 6.45 3.47 13.56
1/19/2021 1:15:00 PM 3.28 37.904 0.096 6.44 3.37 13.56
1/19/2021 1:30:00 PM 3.38 38.084 0.096 6.46 3.39 13.55
1/19/2021 1:45:00 PM 3.47 38.246 0.096 6.46 3.33 13.53
1/19/2021 2:00:00 PM 3.51 38.318 0.096 6.46 3.38 13.51
1/19/2021 2:15:00 PM 3.6 38.48 0.096 6.47 3.37 13.49
1/19/2021 2:30:00 PM 3.72 38.696 0.096 6.46 3.29 13.48
1/19/2021 2:45:00 PM 3.74 38.732 0.095 6.48 3.36 13.47
1/19/2021 3:00:00 PM 3.75 38.75 0.095 6.47 3.29 13.45
1/19/2021 3:15:00 PM 3.77 38.786 0.095 6.48 3.34 13.44
1/19/2021 3:30:00 PM 3.79 38.822 0.095 6.47 3.39 13.41
1/19/2021 3:45:00 PM 3.78 38.804 0.095 6.48 3.3 13.41
1/19/2021 4:00:00 PM 3.74 38.732 0.095 6.48 3.4 13.4
1/19/2021 4:15:00 PM 3.66 38.588 0.095 6.47 3.34 13.4
1/19/2021 4:30:00 PM 3.59 38.462 0.095 6.46 3.37 13.39
1/19/2021 4:45:00 PM 3.53 38.354 0.095 6.44 3.34 13.37
1/19/2021 5:00:00 PM 3.47 38.246 0.095 6.44 3.4 13.35
1/19/2021 5:15:00 PM 3.41 38.138 0.095 6.44 3.39 13.32
1/19/2021 5:30:00 PM 3.35 38.03 0.095 6.42 3.43 13.29
1/19/2021 5:45:00 PM 3.3 37.94 0.095 6.42 3.49 13.26
1/19/2021 6:00:00 PM 3.25 37.85 0.095 6.39 3.39 13.23
1/19/2021 6:15:00 PM 3.19 37.742 0.095 6.37 3.39 13.21
1/19/2021 6:30:00 PM 3.15 37.67 0.096 6.38 3.49 13.18
1/19/2021 6:45:00 PM 3.11 37.598 0.095 6.37 3.43 13.16
1/19/2021 7:00:00 PM 3.08 37.544 0.095 6.36 3.45 13.15
1/19/2021 7:15:00 PM 3.04 37.472 0.096 6.36 3.33 13.12
1/19/2021 7:30:00 PM 3 37.4 0.096 6.35 3.45 13.12
1/19/2021 7:45:00 PM 2.96 37.328 0.095 6.34 3.4 13.12
1/19/2021 8:00:00 PM 2.92 37.256 0.096 6.34 3.39 13.12
1/19/2021 8:15:00 PM 2.88 37.184 0.096 6.33 3.42 13.12
1/19/2021 8:30:00 PM 2.84 37.112 0.096 6.32 3.34 13.13
1/19/2021 8:45:00 PM 2.8 37.04 0.096 6.32 3.33 13.14
1/19/2021 9:00:00 PM 2.76 36.968 0.096 6.33 3.33 13.15
1/19/2021 9:15:00 PM 2.71 36.878 0.095 6.33 3.28 13.16
1/19/2021 9:30:00 PM 2.67 36.806 0.096 6.34 3.34 13.17
1/19/2021 9:45:00 PM 2.64 36.752 0.096 6.33 3.37 13.18
1/19/2021 10:00:00 PM 2.61 36.698 0.096 6.33 3.42 13.19
1/19/2021 10:15:00 PM 2.58 36.644 0.096 6.32 3.4 13.2
1/19/2021 10:30:00 PM 2.55 36.59 0.096 6.32 3.41 13.21
1/19/2021 10:45:00 PM 2.53 36.554 0.096 6.32 3.36 13.21
1/19/2021 11:00:00 PM 2.5 36.5 0.096 6.32 3.53 13.23
1/19/2021 11:15:00 PM 2.48 36.464 0.096 6.31 3.37 13.23
1/19/2021 11:30:00 PM 2.45 36.41 0.096 6.32 3.49 13.24
1/19/2021 11:45:00 PM 2.44 36.392 0.096 6.32 3.38 13.24
1/20/2021 12:00:00 AM 2.42 36.356 0.096 6.33 3.34 13.24
1/20/2021 12:15:00 AM 2.41 36.338 0.096 6.33 3.32 13.25
1/20/2021 12:30:00 AM 2.38 36.284 0.096 6.32 3.37 13.25
1/20/2021 12:45:00 AM 2.37 36.266 0.096 6.32 3.26 13.26
1/20/2021 1:00:00 AM 2.36 36.248 0.096 6.32 3.29 13.27
1/20/2021 1:15:00 AM 2.34 36.212 0.096 6.32 3.33 13.27
1/20/2021 1:30:00 AM 2.32 36.176 0.096 6.32 3.26 13.27
1/20/2021 1:45:00 AM 2.31 36.158 0.096 6.33 3.36 13.28
1/20/2021 2:00:00 AM 2.31 36.158 0.096 6.33 3.37 13.28
1/20/2021 2:15:00 AM 2.3 36.14 0.096 6.33 3.25 13.28
1/20/2021 2:30:00 AM 2.3 36.14 0.096 6.32 3.35 13.28
1/20/2021 2:45:00 AM 2.29 36.122 0.096 6.32 3.28 13.28
1/20/2021 3:00:00 AM 2.28 36.104 0.096 6.33 3.44 13.29
1/20/2021 3:15:00 AM 2.28 36.104 0.096 6.33 3.28 13.28
1/20/2021 3:30:00 AM 2.28 36.104 0.096 6.33 3.28 13.28
1/20/2021 3:45:00 AM 2.29 36.122 0.096 6.34 3.27 13.28
1/20/2021 4:00:00 AM 2.28 36.104 0.096 6.35 3.33 13.28
1/20/2021 4:15:00 AM 2.28 36.104 0.096 6.34 3.36 13.28
1/20/2021 4:30:00 AM 2.28 36.104 0.096 6.34 3.27 13.28
1/20/2021 4:45:00 AM 2.27 36.086 0.096 6.33 3.35 13.27
1/20/2021 5:00:00 AM 2.27 36.086 0.096 6.34 3.22 13.28
1/20/2021 5:15:00 AM 2.26 36.068 0.096 6.34 3.23 13.28
1/20/2021 5:30:00 AM 2.24 36.032 0.096 6.34 3.33 13.28
1/20/2021 5:45:00 AM 2.23 36.014 0.096 6.34 3.3 13.28
1/20/2021 6:00:00 AM 2.23 36.014 0.096 6.35 3.26 13.28
1/20/2021 6:15:00 AM 2.22 35.996 0.096 6.34 3.36 13.29
1/20/2021 6:30:00 AM 2.2 35.96 0.096 6.35 3.38 13.29
1/20/2021 6:45:00 AM 2.17 35.906 0.096 6.35 3.23 13.3
1/20/2021 7:00:00 AM 2.16 35.888 0.096 6.34 3.27 13.31
1/20/2021 7:15:00 AM 2.16 35.888 0.096 6.35 3.29 13.31
1/20/2021 7:30:00 AM 2.15 35.87 0.096 6.34 3.26 13.32
1/20/2021 7:45:00 AM 2.13 35.834 0.096 6.33 3.24 13.33
1/20/2021 8:00:00 AM 2.12 35.816 0.096 6.34 3.29 13.36
1/20/2021 8:15:00 AM 2.12 35.816 0.096 6.35 3.23 13.39
1/20/2021 8:30:00 AM 2.12 35.816 0.096 6.35 3.32 13.42
1/20/2021 8:45:00 AM 2.1 35.78 0.096 6.36 3.35 13.47
1/20/2021 9:00:00 AM 2.11 35.798 0.096 6.36 3.31 13.51
1/20/2021 9:15:00 AM 2.14 35.852 0.096 6.38 3.25 13.56
1/20/2021 9:30:00 AM 2.15 35.87 0.096 6.38 3.3 13.61
1/20/2021 9:45:00 AM 2.15 35.87 0.096 6.38 3.27 13.65
1/20/2021 10:00:00 AM 2.21 35.978 0.096 6.39 3.26 13.69
1/20/2021 10:15:00 AM 2.22 35.996 0.096 6.4 3.35 13.71
1/20/2021 10:30:00 AM 2.26 36.068 0.095 6.4 3.38 13.75
1/20/2021 10:45:00 AM 2.35 36.23 0.095 6.42 3.31 13.77
1/20/2021 11:00:00 AM 2.33 36.194 0.095 6.43 3.26 13.79
1/20/2021 11:15:00 AM 2.34 36.212 0.095 6.43 3.26 13.8
1/20/2021 11:30:00 AM 2.35 36.23 0.095 6.43 3.21 13.8
1/20/2021 11:45:00 AM 2.37 36.266 0.095 6.44 3.25 13.81
1/20/2021 12:00:00 PM 2.41 36.338 0.095 6.44 3.21 13.82
1/20/2021 12:15:00 PM 2.42 36.356 0.095 6.44 3.27 13.84
1/20/2021 12:30:00 PM 2.44 36.392 0.095 6.43 3.22 13.83
1/20/2021 12:45:00 PM 2.46 36.428 0.095 6.45 3.34 13.84
1/20/2021 1:00:00 PM 2.51 36.518 0.095 6.45 3.21 13.83
1/20/2021 1:15:00 PM 2.58 36.644 0.095 6.45 3.25 13.81
1/20/2021 1:30:00 PM 2.66 36.788 0.095 6.45 3.16 13.81
1/20/2021 1:45:00 PM 2.7 36.86 0.094 6.45 3.15 13.8
1/20/2021 2:00:00 PM 2.71 36.878 0.094 6.45 3.12 13.79
1/20/2021 2:15:00 PM 2.71 36.878 0.094 6.45 3.2 13.79
1/20/2021 2:30:00 PM 2.69 36.842 0.094 6.46 3.21 13.79
1/20/2021 2:45:00 PM 2.68 36.824 0.094 6.45 3.17 13.79
1/20/2021 3:00:00 PM 2.7 36.86 0.094 6.46 3.22 13.79
1/20/2021 3:15:00 PM 2.71 36.878 0.094 6.42 3.23 13.78
1/20/2021 3:30:00 PM 2.75 36.95 0.094 6.47 3.2 13.78
1/20/2021 3:45:00 PM 2.72 36.896 0.094 6.47 3.18 13.78
1/20/2021 4:00:00 PM 2.65 36.77 0.094 6.47 3.15 13.76
1/20/2021 4:15:00 PM 2.59 36.662 0.094 6.46 3.15 13.76
1/20/2021 4:30:00 PM 2.55 36.59 0.094 6.46 3.16 13.76
1/20/2021 4:45:00 PM 2.51 36.518 0.094 6.43 3.26 13.74
1/20/2021 5:00:00 PM 2.45 36.41 0.094 6.44 3.25 13.73
1/20/2021 5:15:00 PM 2.38 36.284 0.094 6.42 3.34 13.7
1/20/2021 5:30:00 PM 2.32 36.176 0.094 6.4 3.22 13.67
1/20/2021 5:45:00 PM 2.24 36.032 0.094 6.4 3.29 13.65
1/20/2021 6:00:00 PM 2.17 35.906 0.094 6.39 3.26 13.64
1/20/2021 6:15:00 PM 2.1 35.78 0.094 6.39 3.27 13.62
1/20/2021 6:30:00 PM 2.05 35.69 0.094 6.38 3.23 13.6
1/20/2021 6:45:00 PM 1.99 35.582 0.094 6.37 3.23 13.59
1/20/2021 7:00:00 PM 1.95 35.51 0.094 6.37 3.27 13.57
1/20/2021 7:15:00 PM 1.91 35.438 0.094 6.36 3.19 13.56
1/20/2021 7:30:00 PM 1.86 35.348 0.094 6.35 3.14 13.55
1/20/2021 7:45:00 PM 1.82 35.276 0.095 6.35 3.23 13.55
1/20/2021 8:00:00 PM 1.78 35.204 0.094 6.35 3.22 13.55
1/20/2021 8:15:00 PM 1.75 35.15 0.095 6.34 3.21 13.55
1/20/2021 8:30:00 PM 1.72 35.096 0.095 6.34 3.2 13.56
1/20/2021 8:45:00 PM 1.69 35.042 0.095 6.34 3.17 13.57
1/20/2021 9:00:00 PM 1.65 34.97 0.095 6.32 3.25 13.58
1/20/2021 9:15:00 PM 1.61 34.898 0.095 6.32 3.18 13.59
1/20/2021 9:30:00 PM 1.56 34.808 0.095 6.31 3.16 13.61
1/20/2021 9:45:00 PM 1.53 34.754 0.095 6.31 3.3 13.6
1/20/2021 10:00:00 PM 1.48 34.664 0.095 6.32 3.17 13.62
1/20/2021 10:15:00 PM 1.44 34.592 0.095 6.32 3.21 13.64
1/20/2021 10:30:00 PM 1.39 34.502 0.095 6.32 3.17 13.64
1/20/2021 10:45:00 PM 1.36 34.448 0.095 6.31 3.16 13.65
1/20/2021 11:00:00 PM 1.34 34.412 0.095 6.31 3.21 13.66
1/20/2021 11:15:00 PM 1.31 34.358 0.095 6.32 3.18 13.67
1/20/2021 11:30:00 PM 1.28 34.304 0.095 6.32 3.16 13.68
1/20/2021 11:45:00 PM 1.26 34.268 0.095 6.33 3.14 13.7
1/21/2021 12:00:00 AM 1.23 34.214 0.095 6.33 3.27 13.71
1/21/2021 12:15:00 AM 1.22 34.196 0.095 6.31 3.1 13.7
1/21/2021 12:30:00 AM 1.18 34.124 0.095 6.31 3.1 13.72
1/21/2021 12:45:00 AM 1.13 34.034 0.095 6.32 3.15 13.73
1/21/2021 1:00:00 AM 1.09 33.962 0.095 6.31 3.12 13.75
1/21/2021 1:15:00 AM 1.05 33.89 0.095 6.3 3.16 13.76
1/21/2021 1:30:00 AM 1 33.8 0.095 6.31 3.1 13.77
1/21/2021 1:45:00 AM 0.94 33.692 0.095 6.33 3.14 13.78
1/21/2021 2:00:00 AM 0.89 33.602 0.095 6.31 3.11 13.8
1/21/2021 2:15:00 AM 0.84 33.512 0.095 6.3 3.11 13.81
1/21/2021 2:30:00 AM 0.79 33.422 0.095 6.32 3.27 13.82
1/21/2021 2:45:00 AM 0.74 33.332 0.095 6.32 3.12 13.84
1/21/2021 3:00:00 AM 0.69 33.242 0.095 6.3 3.17 13.85
1/21/2021 3:15:00 AM 0.64 33.152 0.095 6.31 3.14 13.88
1/21/2021 3:30:00 AM 0.59 33.062 0.095 6.29 3.13 13.89
1/21/2021 3:45:00 AM 0.54 32.972 0.095 6.3 3.14 13.91
1/21/2021 4:00:00 AM 0.49 32.882 0.095 6.3 3.08 13.92
1/21/2021 4:15:00 AM 0.45 32.81 0.095 6.3 3.03 13.94
1/21/2021 4:30:00 AM 0.43 32.774 0.095 6.3 3.17 13.95
1/21/2021 4:45:00 AM 0.41 32.738 0.095 6.29 3.05 13.97
1/21/2021 5:00:00 AM 0.39 32.702 0.095 6.3 3.1 13.98
1/21/2021 5:15:00 AM 0.37 32.666 0.095 6.3 3.11 13.99
1/21/2021 5:30:00 AM 0.35 32.63 0.095 6.3 3.12 13.99
1/21/2021 5:45:00 AM 0.34 32.612 0.095 6.31 3.11 14.01
1/21/2021 6:00:00 AM 0.32 32.576 0.095 6.31 3.11 14.01
1/21/2021 6:15:00 AM 0.3 32.54 0.095 6.31 3.13 14.02
1/21/2021 6:30:00 AM 0.29 32.522 0.096 6.3 3.21 14.02
1/21/2021 6:45:00 AM 0.27 32.486 0.096 6.31 3.15 14.03
1/21/2021 7:00:00 AM 0.25 32.45 0.095 6.31 3.1 14.04
1/21/2021 7:15:00 AM 0.23 32.414 0.096 6.3 3.09 14.04
1/21/2021 7:30:00 AM 0.19 32.342 0.096 6.32 3.11 14.06
1/21/2021 7:45:00 AM 0.16 32.288 0.096 6.31 3.09 14.07
1/21/2021 8:00:00 AM 0.13 32.234 0.096 6.32 3.08 14.1
1/21/2021 8:15:00 AM 0.12 32.216 0.096 6.33 3.08 14.13
1/21/2021 8:30:00 AM 0.12 32.216 0.096 6.32 3.14 14.17
1/21/2021 8:45:00 AM 0.12 32.216 0.096 6.31 3.17 14.21
1/21/2021 9:00:00 AM 0.12 32.216 0.096 6.34 3.1 14.23
1/21/2021 9:15:00 AM 0.13 32.234 0.095 6.34 3.09 14.28
1/21/2021 9:30:00 AM 0.14 32.252 0.095 6.35 3.08 14.32
1/21/2021 9:45:00 AM 0.18 32.324 0.095 6.33 3.13 14.36
1/21/2021 10:00:00 AM 0.21 32.378 0.095 6.35 3.07 14.38
1/21/2021 10:15:00 AM 0.25 32.45 0.095 6.36 3.05 14.4
1/21/2021 10:30:00 AM 0.31 32.558 0.095 6.37 3.1 14.42
1/21/2021 10:45:00 AM 0.39 32.702 0.095 6.37 3.07 14.44
1/21/2021 11:00:00 AM 0.45 32.81 0.095 6.38 3.06 14.43
1/21/2021 11:15:00 AM 0.52 32.936 0.095 6.39 3.1 14.44
1/21/2021 11:30:00 AM 0.65 33.17 0.094 6.39 3.12 14.44
1/21/2021 11:45:00 AM 0.84 33.512 0.094 6.39 3.1 14.42
1/21/2021 12:00:00 PM 1.01 33.818 0.094 6.38 3.1 14.39
1/21/2021 12:15:00 PM 1.13 34.034 0.094 6.41 3.07 14.36
1/21/2021 12:30:00 PM 1.27 34.286 0.094 6.43 3.05 14.33
1/21/2021 12:45:00 PM 1.41 34.538 0.094 6.41 2.98 14.28
1/21/2021 1:00:00 PM 1.56 34.808 0.094 6.5 3 14.23
1/21/2021 1:15:00 PM 1.68 35.024 0.094 6.52 3.04 14.19
1/21/2021 1:30:00 PM 1.85 35.33 0.094 6.48 3.02 14.13
1/21/2021 1:45:00 PM 1.94 35.492 0.094 6.49 3.05 14.08
1/21/2021 2:00:00 PM 2.05 35.69 0.094 6.47 3.06 14.03
1/21/2021 2:15:00 PM 2.16 35.888 0.093 6.48 3.19 14
1/21/2021 2:30:00 PM 2.22 35.996 0.093 6.47 3.11 13.96
1/21/2021 2:45:00 PM 2.25 36.05 0.093 6.47 3.05 13.94
1/21/2021 3:00:00 PM 2.27 36.086 0.093 6.47 3.02 13.91
1/21/2021 3:15:00 PM 2.25 36.05 0.093 6.44 3.04 13.9
1/21/2021 3:30:00 PM 2.23 36.014 0.093 6.44 3.04 13.88
1/21/2021 3:45:00 PM 2.2 35.96 0.093 6.45 3.1 13.87
1/21/2021 4:00:00 PM 2.17 35.906 0.093 6.42 3.06 13.85
1/21/2021 4:15:00 PM 2.15 35.87 0.093 6.44 3.08 13.83
1/21/2021 4:30:00 PM 2.12 35.816 0.093 6.41 3.06 13.8
1/21/2021 4:45:00 PM 2.1 35.78 0.093 6.41 3.08 13.76
1/21/2021 5:00:00 PM 2.07 35.726 0.093 6.41 3.03 13.72
1/21/2021 5:15:00 PM 2.04 35.672 0.093 6.42 3.08 13.68
1/21/2021 5:30:00 PM 2 35.6 0.093 6.4 3.1 13.64
1/21/2021 5:45:00 PM 1.96 35.528 0.093 6.39 3.05 13.61
1/21/2021 6:00:00 PM 1.91 35.438 0.093 6.37 3.1 13.58
1/21/2021 6:15:00 PM 1.86 35.348 0.093 6.35 3.11 13.55
1/21/2021 6:30:00 PM 1.81 35.258 0.093 6.36 3.14 13.53
1/21/2021 6:45:00 PM 1.77 35.186 0.093 6.34 3.14 13.51
1/21/2021 7:00:00 PM 1.75 35.15 0.094 6.33 3.11 13.47
1/21/2021 7:15:00 PM 1.74 35.132 0.093 6.34 3.1 13.47
1/21/2021 7:30:00 PM 1.74 35.132 0.093 6.34 3.15 13.45
1/21/2021 7:45:00 PM 1.72 35.096 0.093 6.33 3.13 13.44
1/21/2021 8:00:00 PM 1.69 35.042 0.093 6.31 3.08 13.43
1/21/2021 8:15:00 PM 1.67 35.006 0.093 6.33 3.12 13.43
1/21/2021 8:30:00 PM 1.66 34.988 0.093 6.3 3.11 13.41
1/21/2021 8:45:00 PM 1.65 34.97 0.093 6.32 3.07 13.41
1/21/2021 9:00:00 PM 1.63 34.934 0.093 6.31 3.29 13.4
1/21/2021 9:15:00 PM 1.61 34.898 0.093 6.31 3.16 13.41
1/21/2021 9:30:00 PM 1.61 34.898 0.093 6.32 3.26 13.41
1/21/2021 9:45:00 PM 1.6 34.88 0.093 6.31 3.12 13.42
1/21/2021 10:00:00 PM 1.61 34.898 0.094 6.32 3.15 13.42
1/21/2021 10:15:00 PM 1.61 34.898 0.093 6.31 3.16 13.41
1/21/2021 10:30:00 PM 1.6 34.88 0.093 6.31 3.13 13.43
1/21/2021 10:45:00 PM 1.6 34.88 0.094 6.3 3.05 13.43
1/21/2021 11:00:00 PM 1.6 34.88 0.093 6.31 3.06 13.42
1/21/2021 11:15:00 PM 1.6 34.88 0.093 6.29 3.12 13.42
1/21/2021 11:30:00 PM 1.6 34.88 0.093 6.28 3.1 13.42
1/21/2021 11:45:00 PM 1.58 34.844 0.094 6.3 3.11 13.43
1/22/2021 12:00:00 AM 1.58 34.844 0.093 6.3 3.14 13.44
1/22/2021 12:15:00 AM 1.57 34.826 0.093 6.3 3.08 13.45
1/22/2021 12:30:00 AM 1.57 34.826 0.093 6.3 3.13 13.43
1/22/2021 12:45:00 AM 1.57 34.826 0.093 6.31 3.13 13.44
1/22/2021 1:00:00 AM 1.57 34.826 0.093 6.31 3.07 13.44
1/22/2021 1:15:00 AM 1.58 34.844 0.093 6.31 3.16 13.45
1/22/2021 1:30:00 AM 1.59 34.862 0.093 6.3 3.08 13.44
1/22/2021 1:45:00 AM 1.6 34.88 0.093 6.31 3.13 13.44
1/22/2021 2:00:00 AM 1.61 34.898 0.093 6.31 3.1 13.43
1/22/2021 2:15:00 AM 1.62 34.916 0.093 6.29 3.12 13.44
1/22/2021 2:30:00 AM 1.62 34.916 0.093 6.3 3.1 13.43
1/22/2021 2:45:00 AM 1.63 34.934 0.093 6.3 3.12 13.43
1/22/2021 3:00:00 AM 1.63 34.934 0.093 6.29 3.09 13.43
1/22/2021 3:15:00 AM 1.63 34.934 0.093 6.31 3.19 13.43
1/22/2021 3:30:00 AM 1.63 34.934 0.093 6.3 3.12 13.44
1/22/2021 3:45:00 AM 1.64 34.952 0.093 6.3 3.08 13.42
1/22/2021 4:00:00 AM 1.64 34.952 0.093 6.31 3.06 13.42
1/22/2021 4:15:00 AM 1.64 34.952 0.093 6.31 3.08 13.43
1/22/2021 4:30:00 AM 1.62 34.916 0.093 6.3 3.1 13.44
1/22/2021 4:45:00 AM 1.61 34.898 0.093 6.31 3.12 13.44
1/22/2021 5:00:00 AM 1.59 34.862 0.093 6.3 3.25 13.43
1/22/2021 5:15:00 AM 1.58 34.844 0.093 6.31 3.11 13.44
1/22/2021 5:30:00 AM 1.58 34.844 0.093 6.29 3.13 13.44
1/22/2021 5:45:00 AM 1.57 34.826 0.093 6.3 3.07 13.44
1/22/2021 6:00:00 AM 1.55 34.79 0.093 6.29 3.03 13.45
1/22/2021 6:15:00 AM 1.53 34.754 0.093 6.29 3.06 13.45
1/22/2021 6:30:00 AM 1.52 34.736 0.093 6.3 3.06 13.46
1/22/2021 6:45:00 AM 1.52 34.736 0.093 6.32 3.04 13.46
1/22/2021 7:00:00 AM 1.52 34.736 0.093 6.3 3.05 13.48
1/22/2021 7:15:00 AM 1.5 34.7 0.093 6.31 3.09 13.48
1/22/2021 7:30:00 AM 1.5 34.7 0.093 6.32 3.04 13.49
1/22/2021 7:45:00 AM 1.49 34.682 0.093 6.31 3.02 13.5
1/22/2021 8:00:00 AM 1.5 34.7 0.093 6.31 3.03 13.52
1/22/2021 8:15:00 AM 1.51 34.718 0.093 6.3 3.08 13.56
1/22/2021 8:30:00 AM 1.52 34.736 0.093 6.31 3.06 13.61
1/22/2021 8:45:00 AM 1.54 34.772 0.093 6.33 3.07 13.63
1/22/2021 9:00:00 AM 1.57 34.826 0.093 6.33 3.12 13.69
1/22/2021 9:15:00 AM 1.6 34.88 0.093 6.35 3.04 13.73
1/22/2021 9:30:00 AM 1.65 34.97 0.093 6.36 3.07 13.76
1/22/2021 9:45:00 AM 1.69 35.042 0.093 6.36 3.11 13.81
1/22/2021 10:00:00 AM 1.73 35.114 0.093 6.37 3.03 13.83
1/22/2021 10:15:00 AM 1.76 35.168 0.093 6.38 3.06 13.86
1/22/2021 10:30:00 AM 1.81 35.258 0.093 6.38 3.08 13.89
1/22/2021 10:45:00 AM 1.85 35.33 0.093 6.38 3.02 13.9
1/22/2021 11:00:00 AM 1.91 35.438 0.093 6.39 3.06 13.92
1/22/2021 11:15:00 AM 2.03 35.654 0.093 6.41 3.05 13.92
1/22/2021 11:30:00 AM 2.17 35.906 0.093 6.42 3.03 13.92
1/22/2021 11:45:00 AM 2.24 36.032 0.092 6.43 3.03 13.9
1/22/2021 12:00:00 PM 2.24 36.032 0.092 6.41 3.03 13.9
1/22/2021 12:15:00 PM 2.26 36.068 0.092 6.42 3.01 13.89
1/22/2021 12:30:00 PM 2.3 36.14 0.092 6.42 3.04 13.88
1/22/2021 12:45:00 PM 2.36 36.248 0.092 6.43 3.05 13.86
1/22/2021 1:00:00 PM 2.38 36.284 0.092 6.42 2.98 13.84
1/22/2021 1:15:00 PM 2.38 36.284 0.092 6.41 3.11 13.81
1/22/2021 1:30:00 PM 2.4 36.32 0.092 6.41 3 13.8
1/22/2021 1:45:00 PM 2.42 36.356 0.092 6.43 2.97 13.78
1/22/2021 2:00:00 PM 2.44 36.392 0.092 6.41 2.97 13.78
1/22/2021 2:15:00 PM 2.46 36.428 0.092 6.41 2.95 13.78
1/22/2021 2:30:00 PM 2.46 36.428 0.092 6.42 2.99 13.77
1/22/2021 2:45:00 PM 2.46 36.428 0.092 6.42 2.97 13.76
1/22/2021 3:00:00 PM 2.46 36.428 0.092 6.4 2.95 13.75
1/22/2021 3:15:00 PM 2.47 36.446 0.092 6.4 3 13.73
1/22/2021 3:30:00 PM 2.48 36.464 0.092 6.41 2.98 13.71
1/22/2021 3:45:00 PM 2.49 36.482 0.092 6.41 3.02 13.68
1/22/2021 4:00:00 PM 2.47 36.446 0.092 6.39 2.93 13.64
1/22/2021 4:15:00 PM 2.48 36.464 0.092 6.38 2.99 13.62
1/22/2021 4:30:00 PM 2.48 36.464 0.092 6.38 2.99 13.6
1/22/2021 4:45:00 PM 2.48 36.464 0.092 6.37 3.02 13.55
1/22/2021 5:00:00 PM 2.47 36.446 0.092 6.37 3.05 13.52
1/22/2021 5:15:00 PM 2.45 36.41 0.092 6.37 3.09 13.5
1/22/2021 5:30:00 PM 2.43 36.374 0.092 6.36 3.04 13.47
1/22/2021 5:45:00 PM 2.41 36.338 0.092 6.34 3 13.44
1/22/2021 6:00:00 PM 2.4 36.32 0.092 6.33 3.07 13.42
1/22/2021 6:15:00 PM 2.38 36.284 0.092 6.34 3.05 13.4
1/22/2021 6:30:00 PM 2.36 36.248 0.092 6.33 3.11 13.38
1/22/2021 6:45:00 PM 2.34 36.212 0.092 6.32 3.06 13.36
1/22/2021 7:00:00 PM 2.32 36.176 0.092 6.31 2.99 13.35
1/22/2021 7:15:00 PM 2.3 36.14 0.092 6.32 3.08 13.34
1/22/2021 7:30:00 PM 2.29 36.122 0.092 6.33 3.02 13.33
1/22/2021 7:45:00 PM 2.27 36.086 0.092 6.31 3.1 13.32
1/22/2021 8:00:00 PM 2.24 36.032 0.092 6.32 3.05 13.32
1/22/2021 8:15:00 PM 2.23 36.014 0.092 6.31 3.08 13.32
1/22/2021 8:30:00 PM 2.21 35.978 0.092 6.3 3.08 13.32
1/22/2021 8:45:00 PM 2.19 35.942 0.092 6.3 3.08 13.33
1/22/2021 9:00:00 PM 2.17 35.906 0.092 6.3 3.08 13.33
1/22/2021 9:15:00 PM 2.15 35.87 0.092 6.3 3.1 13.34
1/22/2021 9:30:00 PM 2.12 35.816 0.092 6.3 3.16 13.35
1/22/2021 9:45:00 PM 2.09 35.762 0.092 6.29 3.2 13.36
1/22/2021 10:00:00 PM 2.07 35.726 0.092 6.3 3.19 13.36
1/22/2021 10:15:00 PM 2.04 35.672 0.092 6.29 3.29 13.38
1/22/2021 10:30:00 PM 2.01 35.618 0.092 6.28 3.36 13.39
1/22/2021 10:45:00 PM 1.97 35.546 0.092 6.29 3.5 13.4
1/22/2021 11:00:00 PM 1.93 35.474 0.092 6.28 3.57 13.41
1/22/2021 11:15:00 PM 1.9 35.42 0.092 6.3 3.7 13.43
1/22/2021 11:30:00 PM 1.87 35.366 0.092 6.29 3.51 13.44
1/22/2021 11:45:00 PM 1.84 35.312 0.092 6.28 3.42 13.45
1/23/2021 12:00:00 AM 1.82 35.276 0.092 6.29 3.34 13.46
1/23/2021 12:15:00 AM 1.79 35.222 0.092 6.29 3.21 13.47
1/23/2021 12:30:00 AM 1.76 35.168 0.093 6.28 3.17 13.47
1/23/2021 12:45:00 AM 1.72 35.096 0.092 6.29 3.19 13.5
1/23/2021 1:00:00 AM 1.68 35.024 0.092 6.27 3.14 13.52
1/23/2021 1:15:00 AM 1.65 34.97 0.093 6.28 3.13 13.53
1/23/2021 1:30:00 AM 1.62 34.916 0.093 6.28 3.05 13.53
1/23/2021 1:45:00 AM 1.59 34.862 0.093 6.28 3.1 13.54
1/23/2021 2:00:00 AM 1.55 34.79 0.092 6.29 3.06 13.58
1/23/2021 2:15:00 AM 1.5 34.7 0.093 6.28 3 13.59
1/23/2021 2:30:00 AM 1.46 34.628 0.093 6.29 3.02 13.61
1/23/2021 2:45:00 AM 1.42 34.556 0.093 6.28 2.99 13.61
1/23/2021 3:00:00 AM 1.37 34.466 0.093 6.29 3.06 13.64
1/23/2021 3:15:00 AM 1.33 34.394 0.093 6.29 3.09 13.65
1/23/2021 3:30:00 AM 1.29 34.322 0.093 6.26 3.06 13.68
1/23/2021 3:45:00 AM 1.24 34.232 0.093 6.27 3.03 13.69
1/23/2021 4:00:00 AM 1.2 34.16 0.093 6.27 3.06 13.71
1/23/2021 4:15:00 AM 1.16 34.088 0.093 6.27 3.06 13.72
1/23/2021 4:30:00 AM 1.12 34.016 0.093 6.26 3.01 13.75
1/23/2021 4:45:00 AM 1.09 33.962 0.093 6.29 3.01 13.76
1/23/2021 5:00:00 AM 1.04 33.872 0.093 6.26 2.99 13.78
1/23/2021 5:15:00 AM 1.01 33.818 0.093 6.28 3 13.79
1/23/2021 5:30:00 AM 0.96 33.728 0.093 6.27 3.03 13.81
1/23/2021 5:45:00 AM 0.91 33.638 0.093 6.28 3.03 13.83
1/23/2021 6:00:00 AM 0.86 33.548 0.093 6.28 3.04 13.85
1/23/2021 6:15:00 AM 0.83 33.494 0.093 6.25 2.97 13.87
1/23/2021 6:30:00 AM 0.8 33.44 0.093 6.27 3.03 13.88
1/23/2021 6:45:00 AM 0.76 33.368 0.093 6.28 3.01 13.9
1/23/2021 7:00:00 AM 0.72 33.296 0.093 6.29 2.99 13.92
1/23/2021 7:15:00 AM 0.68 33.224 0.093 6.27 3.01 13.94
1/23/2021 7:30:00 AM 0.63 33.134 0.093 6.28 3 13.96
1/23/2021 7:45:00 AM 0.59 33.062 0.093 6.28 2.99 13.99
1/23/2021 8:00:00 AM 0.55 32.99 0.093 6.27 2.94 14.04
1/23/2021 8:15:00 AM 0.51 32.918 0.093 6.28 3.03 14.09
1/23/2021 8:30:00 AM 0.48 32.864 0.093 6.3 2.99 14.14
1/23/2021 8:45:00 AM 0.48 32.864 0.093 6.3 3.12 14.2
1/23/2021 9:00:00 AM 0.47 32.846 0.093 6.31 3.02 14.25
1/23/2021 9:15:00 AM 0.44 32.792 0.093 6.31 2.97 14.3
1/23/2021 9:30:00 AM 0.44 32.792 0.094 6.31 2.95 14.36
1/23/2021 9:45:00 AM 0.45 32.81 0.094 6.32 2.95 14.41
1/23/2021 10:00:00 AM 0.45 32.81 0.094 6.34 3.01 14.45
1/23/2021 10:15:00 AM 0.47 32.846 0.094 6.34 2.97 14.49
1/23/2021 10:30:00 AM 0.5 32.9 0.094 6.34 3 14.53
1/23/2021 10:45:00 AM 0.52 32.936 0.094 6.35 3.08 14.56
1/23/2021 11:00:00 AM 0.55 32.99 0.093 6.37 2.93 14.59
1/23/2021 11:15:00 AM 0.57 33.026 0.093 6.37 2.94 14.61
1/23/2021 11:30:00 AM 0.6 33.08 0.093 6.36 3 14.63
1/23/2021 11:45:00 AM 0.63 33.134 0.093 6.38 2.95 14.64
1/23/2021 12:00:00 PM 0.67 33.206 0.093 6.38 2.9 14.65
1/23/2021 12:15:00 PM 0.69 33.242 0.093 6.39 2.93 14.65
1/23/2021 12:30:00 PM 0.7 33.26 0.093 6.39 2.94 14.66
1/23/2021 12:45:00 PM 0.73 33.314 0.093 6.4 2.98 14.65
1/23/2021 1:00:00 PM 0.76 33.368 0.092 6.39 2.96 14.65
1/23/2021 1:15:00 PM 0.79 33.422 0.092 6.42 2.94 14.65
1/23/2021 1:30:00 PM 0.81 33.458 0.092 6.42 2.98 14.65
1/23/2021 1:45:00 PM 0.83 33.494 0.092 6.42 2.94 14.65
1/23/2021 2:00:00 PM 0.85 33.53 0.092 6.41 2.94 14.63
1/23/2021 2:15:00 PM 0.87 33.566 0.092 6.43 2.98 14.63
1/23/2021 2:30:00 PM 0.9 33.62 0.092 6.39 3 14.62
1/23/2021 2:45:00 PM 0.91 33.638 0.092 6.42 2.99 14.62
1/23/2021 3:00:00 PM 0.93 33.674 0.092 6.42 2.99 14.61
1/23/2021 3:15:00 PM 0.94 33.692 0.092 6.41 3.03 14.61
1/23/2021 3:30:00 PM 0.97 33.746 0.092 6.41 3 14.6
1/23/2021 3:45:00 PM 0.97 33.746 0.092 6.4 3.02 14.59
1/23/2021 4:00:00 PM 0.96 33.728 0.092 6.4 2.96 14.58
1/23/2021 4:15:00 PM 0.95 33.71 0.092 6.38 2.94 14.57
1/23/2021 4:30:00 PM 0.93 33.674 0.092 6.38 2.94 14.54
1/23/2021 4:45:00 PM 0.92 33.656 0.092 6.38 2.91 14.51
1/23/2021 5:00:00 PM 0.9 33.62 0.092 6.38 3.02 14.48
1/23/2021 5:15:00 PM 0.89 33.602 0.092 6.37 2.92 14.44
1/23/2021 5:30:00 PM 0.85 33.53 0.092 6.36 2.87 14.41
1/23/2021 5:45:00 PM 0.83 33.494 0.092 6.36 2.96 14.38
1/23/2021 6:00:00 PM 0.78 33.404 0.092 6.35 2.99 14.35
1/23/2021 6:15:00 PM 0.74 33.332 0.092 6.34 3.16 14.32
1/23/2021 6:30:00 PM 0.7 33.26 0.092 6.33 3.09 14.3
1/23/2021 6:45:00 PM 0.67 33.206 0.092 6.32 3.03 14.27
1/23/2021 7:00:00 PM 0.64 33.152 0.092 6.31 3 14.25
1/23/2021 7:15:00 PM 0.6 33.08 0.092 6.31 2.98 14.25
1/23/2021 7:30:00 PM 0.58 33.044 0.092 6.31 3.06 14.23
1/23/2021 7:45:00 PM 0.54 32.972 0.092 6.29 2.9 14.23
1/23/2021 8:00:00 PM 0.52 32.936 0.092 6.28 3.03 14.21
1/23/2021 8:15:00 PM 0.5 32.9 0.092 6.3 3.06 14.21
1/23/2021 8:30:00 PM 0.48 32.864 0.092 6.29 3.02 14.21
1/23/2021 8:45:00 PM 0.45 32.81 0.092 6.29 3.07 14.21
1/23/2021 9:00:00 PM 0.42 32.756 0.092 6.3 3.01 14.21
1/23/2021 9:15:00 PM 0.4 32.72 0.093 6.28 2.97 14.21
1/23/2021 9:30:00 PM 0.39 32.702 0.093 6.29 2.97 14.21
1/23/2021 9:45:00 PM 0.37 32.666 0.093 6.28 2.99 14.22
1/23/2021 10:00:00 PM 0.34 32.612 0.093 6.28 2.96 14.23
1/23/2021 10:15:00 PM 0.31 32.558 0.093 6.28 3.03 14.24
1/23/2021 10:30:00 PM 0.29 32.522 0.093 6.28 3.07 14.25
1/23/2021 10:45:00 PM 0.27 32.486 0.093 6.27 2.94 14.25
1/23/2021 11:00:00 PM 0.25 32.45 0.093 6.27 2.94 14.26
1/23/2021 11:15:00 PM 0.23 32.414 0.093 6.28 2.93 14.27
1/23/2021 11:30:00 PM 0.21 32.378 0.093 6.28 2.96 14.28
1/23/2021 11:45:00 PM 0.18 32.324 0.093 6.28 2.95 14.28
1/24/2021 12:00:00 AM 0.15 32.27 0.093 6.27 2.93 14.29
1/24/2021 12:15:00 AM 0.13 32.234 0.093 6.27 2.87 14.29
1/24/2021 12:30:00 AM 0.12 32.216 0.093 6.28 2.89 14.31
1/24/2021 12:45:00 AM 0.09 32.162 0.093 6.29 2.93 14.32
1/24/2021 1:00:00 AM 0.07 32.126 0.093 6.29 2.92 14.33
1/24/2021 1:15:00 AM 0.05 32.09 0.093 6.29 2.9 14.33
1/24/2021 1:30:00 AM 0.02 32.036 0.093 6.28 2.86 14.34
1/24/2021 1:45:00 AM -0.02 31.964 0.093 6.27 2.87 14.36
1/24/2021 2:00:00 AM -0.04 31.928 0.093 6.28 2.89 14.36
1/24/2021 2:15:00 AM -0.07 31.874 0.093 6.28 2.91 14.37
1/24/2021 2:30:00 AM -0.1 31.82 0.093 6.28 2.9 14.39
1/24/2021 2:45:00 AM -0.14 31.748 0.093 6.28 2.93 14.4
1/24/2021 3:00:00 AM -0.15 31.73 0.093 6.26 2.94 14.4
1/24/2021 3:15:00 AM -0.13 31.766 0.094 6.29 2.88 14.42
1/24/2021 3:30:00 AM -0.13 31.766 0.093 6.31 2.95 14.42
1/24/2021 3:45:00 AM -0.13 31.766 0.094 6.31 2.88 14.43
1/24/2021 4:00:00 AM -0.12 31.784 0.094 6.33 2.92 14.42
1/24/2021 4:15:00 AM -0.12 31.784 0.094 6.34 2.86 14.44
1/24/2021 4:30:00 AM -0.12 31.784 0.094 6.34 2.89 14.43
1/24/2021 4:45:00 AM -0.11 31.802 0.095 6.33 2.86 14.39
1/24/2021 5:00:00 AM -0.1 31.82 0.095 6.34 3.02 14.41
1/24/2021 5:15:00 AM -0.11 31.802 0.095 6.34 2.94 14.44
1/24/2021 5:30:00 AM -0.11 31.802 0.095 6.34 2.97 14.46
1/24/2021 5:45:00 AM -0.11 31.802 0.095 6.34 3 14.47
1/24/2021 6:00:00 AM -0.11 31.802 0.095 6.34 2.97 14.48
1/24/2021 6:15:00 AM -0.11 31.802 0.095 6.34 3.05 14.48
1/24/2021 6:30:00 AM -0.11 31.802 0.095 6.34 3.01 14.49
1/24/2021 6:45:00 AM -0.11 31.802 0.095 6.34 3.05 14.5
1/24/2021 7:00:00 AM -0.11 31.802 0.095 6.35 3.08 14.5
1/24/2021 7:15:00 AM -0.11 31.802 0.095 6.34 3.18 14.5
1/24/2021 7:30:00 AM -0.11 31.802 0.095 6.34 3.17 14.5
1/24/2021 7:45:00 AM -0.11 31.802 0.095 6.33 3.03 14.51
1/24/2021 8:00:00 AM -0.1 31.82 0.095 6.34 3.06 14.53
1/24/2021 8:15:00 AM -0.1 31.82 0.096 6.34 3.22 14.55
1/24/2021 8:30:00 AM -0.1 31.82 0.096 6.35 3.11 14.59
1/24/2021 8:45:00 AM -0.1 31.82 0.095 6.35 3.12 14.63
1/24/2021 9:00:00 AM -0.09 31.838 0.095 6.34 3.18 14.65
1/24/2021 9:15:00 AM -0.08 31.856 0.095 6.34 4.05 14.68
1/24/2021 9:30:00 AM -0.05 31.91 0.096 6.36 3.66 14.69
1/24/2021 9:45:00 AM -0.04 31.928 0.095 6.37 3.47 14.72
1/24/2021 10:00:00 AM -0.03 31.946 0.095 6.36 3.26 14.73
1/24/2021 10:15:00 AM -0.03 31.946 0.095 6.38 3.21 14.77
1/24/2021 10:30:00 AM -0.02 31.964 0.095 6.37 3.24 14.79
1/24/2021 10:45:00 AM -0.02 31.964 0.095 6.38 3.1 14.8
1/24/2021 11:00:00 AM 0.03 32.054 0.096 6.38 3.04 14.8
1/24/2021 11:15:00 AM 0.06 32.108 0.096 6.39 3.06 14.81
1/24/2021 11:30:00 AM 0.08 32.144 0.095 6.39 3.33 14.82
1/24/2021 11:45:00 AM 0.1 32.18 0.095 6.41 3.03 14.84
1/24/2021 12:00:00 PM 0.12 32.216 0.094 6.39 3.14 14.85
1/24/2021 12:15:00 PM 0.18 32.324 0.094 6.4 3.1 14.86
1/24/2021 12:30:00 PM 0.22 32.396 0.093 6.39 3.05 14.87
1/24/2021 12:45:00 PM 0.26 32.468 0.093 6.4 3.08 14.86
1/24/2021 1:00:00 PM 0.29 32.522 0.093 6.4 3.01 14.86
1/24/2021 1:15:00 PM 0.26 32.468 0.093 6.4 2.99 14.85
1/24/2021 1:30:00 PM 0.26 32.468 0.093 6.39 2.98 14.84
1/24/2021 1:45:00 PM 0.39 32.702 0.093 6.4 3 14.81
1/24/2021 2:00:00 PM 0.41 32.738 0.093 6.39 2.97 14.8
1/24/2021 2:15:00 PM 0.42 32.756 0.092 6.39 2.94 14.78
1/24/2021 2:30:00 PM 0.42 32.756 0.092 6.38 2.94 14.77
1/24/2021 2:45:00 PM 0.48 32.864 0.092 6.4 2.97 14.75
1/24/2021 3:00:00 PM 0.57 33.026 0.092 6.41 3 14.73
1/24/2021 3:15:00 PM 0.59 33.062 0.092 6.41 3.03 14.72
1/24/2021 3:30:00 PM 0.59 33.062 0.091 6.41 3.04 14.72
1/24/2021 3:45:00 PM 0.59 33.062 0.091 6.41 3.03 14.72
1/24/2021 4:00:00 PM 0.56 33.008 0.091 6.4 3.12 14.71
1/24/2021 4:15:00 PM 0.53 32.954 0.091 6.41 3 14.73
1/24/2021 4:30:00 PM 0.5 32.9 0.091 6.41 3.08 14.74
1/24/2021 4:45:00 PM 0.43 32.774 0.091 6.4 3.13 14.73
1/24/2021 5:00:00 PM 0.38 32.684 0.091 6.4 3.08 14.71
1/24/2021 5:15:00 PM 0.32 32.576 0.091 6.38 3.08 14.69
1/24/2021 5:30:00 PM 0.28 32.504 0.091 6.37 3.1 14.66
1/24/2021 5:45:00 PM 0.24 32.432 0.091 6.36 3.09 14.63
1/24/2021 6:00:00 PM 0.19 32.342 0.091 6.36 3.1 14.6
1/24/2021 6:15:00 PM 0.16 32.288 0.091 6.34 3.12 14.56
1/24/2021 6:30:00 PM 0.14 32.252 0.092 6.33 3.04 14.52
1/24/2021 6:45:00 PM 0.13 32.234 0.092 6.33 3.09 14.5
1/24/2021 7:00:00 PM 0.14 32.252 0.092 6.35 3.09 14.46
1/24/2021 7:15:00 PM 0.15 32.27 0.092 6.32 3.04 14.42
1/24/2021 7:30:00 PM 0.15 32.27 0.092 6.33 3.06 14.39
1/24/2021 7:45:00 PM 0.17 32.306 0.092 6.32 3.07 14.36
1/24/2021 8:00:00 PM 0.17 32.306 0.093 6.3 3.05 14.35
1/24/2021 8:15:00 PM 0.18 32.324 0.093 6.31 2.99 14.32
1/24/2021 8:30:00 PM 0.18 32.324 0.093 6.3 3.1 14.31
1/24/2021 8:45:00 PM 0.18 32.324 0.093 6.31 3.01 14.3
1/24/2021 9:00:00 PM 0.18 32.324 0.093 6.31 3.05 14.28
1/24/2021 9:15:00 PM 0.19 32.342 0.093 6.29 3.02 14.26
1/24/2021 9:30:00 PM 0.17 32.306 0.093 6.3 2.98 14.29
1/24/2021 9:45:00 PM 0.17 32.306 0.093 6.3 2.95 14.28
1/24/2021 10:00:00 PM 0.17 32.306 0.093 6.29 2.95 14.27
1/24/2021 10:15:00 PM 0.17 32.306 0.093 6.3 2.97 14.26
1/24/2021 10:30:00 PM 0.18 32.324 0.093 6.29 3 14.25
1/24/2021 10:45:00 PM 0.18 32.324 0.093 6.31 3.13 14.25
1/24/2021 11:00:00 PM 0.19 32.342 0.094 6.3 2.99 14.23
1/24/2021 11:15:00 PM 0.21 32.378 0.093 6.3 2.96 14.21
1/24/2021 11:30:00 PM 0.22 32.396 0.093 6.31 2.97 14.21
1/24/2021 11:45:00 PM 0.23 32.414 0.093 6.31 3.06 14.21
1/25/2021 12:00:00 AM 0.24 32.432 0.093 6.31 3.02 14.19
1/25/2021 12:15:00 AM 0.26 32.468 0.093 6.3 2.96 14.19
1/25/2021 12:30:00 AM 0.27 32.486 0.093 6.29 3 14.17
1/25/2021 12:45:00 AM 0.28 32.504 0.093 6.3 2.99 14.16
1/25/2021 1:00:00 AM 0.28 32.504 0.093 6.3 3.01 14.17
1/25/2021 1:15:00 AM 0.28 32.504 0.093 6.31 2.98 14.16
1/25/2021 1:30:00 AM 0.27 32.486 0.093 6.31 2.95 14.15
1/25/2021 1:45:00 AM 0.25 32.45 0.093 6.31 2.94 14.17
1/25/2021 2:00:00 AM 0.25 32.45 0.093 6.31 2.92 14.17
1/25/2021 2:15:00 AM 0.23 32.414 0.093 6.3 2.96 14.17
1/25/2021 2:30:00 AM 0.22 32.396 0.093 6.3 3.05 14.16
1/25/2021 2:45:00 AM 0.2 32.36 0.093 6.31 2.96 14.18
1/25/2021 3:00:00 AM 0.19 32.342 0.093 6.3 2.91 14.18
1/25/2021 3:15:00 AM 0.18 32.324 0.093 6.29 3.03 14.19
1/25/2021 3:30:00 AM 0.18 32.324 0.093 6.27 2.96 14.18
1/25/2021 3:45:00 AM 0.16 32.288 0.093 6.3 2.97 14.2
1/25/2021 4:00:00 AM 0.15 32.27 0.093 6.3 2.88 14.21
1/25/2021 4:15:00 AM 0.15 32.27 0.093 6.3 2.9 14.2
1/25/2021 4:30:00 AM 0.14 32.252 0.093 6.3 2.96 14.21
1/25/2021 4:45:00 AM 0.14 32.252 0.093 6.31 2.89 14.22
1/25/2021 5:00:00 AM 0.14 32.252 0.093 6.31 2.9 14.21
1/25/2021 5:15:00 AM 0.14 32.252 0.093 6.29 2.91 14.2
1/25/2021 5:30:00 AM 0.14 32.252 0.093 6.31 2.86 14.2
1/25/2021 5:45:00 AM 0.14 32.252 0.093 6.31 2.89 14.2
1/25/2021 6:00:00 AM 0.14 32.252 0.094 6.29 2.87 14.2
1/25/2021 6:15:00 AM 0.15 32.27 0.094 6.32 2.89 14.2
1/25/2021 6:30:00 AM 0.15 32.27 0.094 6.31 2.86 14.19
1/25/2021 6:45:00 AM 0.15 32.27 0.094 6.32 2.9 14.2
1/25/2021 7:00:00 AM 0.15 32.27 0.094 6.31 2.99 14.2
1/25/2021 7:15:00 AM 0.15 32.27 0.094 6.32 2.93 14.2
1/25/2021 7:30:00 AM 0.15 32.27 0.094 6.32 2.96 14.2
1/25/2021 7:45:00 AM 0.15 32.27 0.094 6.32 3.23 14.21
1/25/2021 8:00:00 AM 0.16 32.288 0.094 6.31 2.95 14.23
1/25/2021 8:15:00 AM 0.17 32.306 0.094 6.32 2.92 14.25
1/25/2021 8:30:00 AM 0.18 32.324 0.094 6.32 2.88 14.28
1/25/2021 8:45:00 AM 0.21 32.378 0.094 6.33 2.92 14.32
1/25/2021 9:00:00 AM 0.23 32.414 0.094 6.33 2.91 14.37
1/25/2021 9:15:00 AM 0.24 32.432 0.094 6.35 2.91 14.42
1/25/2021 9:30:00 AM 0.29 32.522 0.094 6.35 2.92 14.45
1/25/2021 9:45:00 AM 0.36 32.648 0.093 6.37 2.89 14.49
1/25/2021 10:00:00 AM 0.41 32.738 0.093 6.37 2.9 14.54
1/25/2021 10:15:00 AM 0.45 32.81 0.093 6.37 2.92 14.55
1/25/2021 10:30:00 AM 0.51 32.918 0.093 6.39 2.92 14.59
1/25/2021 10:45:00 AM 0.58 33.044 0.093 6.4 2.9 14.6
1/25/2021 11:00:00 AM 0.68 33.224 0.093 6.4 2.88 14.61
1/25/2021 11:15:00 AM 0.77 33.386 0.093 6.42 2.85 14.62
1/25/2021 11:30:00 AM 0.81 33.458 0.093 6.42 2.87 14.63
1/25/2021 11:45:00 AM 0.91 33.638 0.093 6.41 2.86 14.62
1/25/2021 12:00:00 PM 1.03 33.854 0.093 6.42 2.81 14.62
1/25/2021 12:15:00 PM 1.11 33.998 0.093 6.43 2.88 14.59
1/25/2021 12:30:00 PM 1.16 34.088 0.092 6.42 2.87 14.57
1/25/2021 12:45:00 PM 1.23 34.214 0.093 6.42 2.89 14.55
1/25/2021 1:00:00 PM 1.31 34.358 0.092 6.43 2.9 14.54
1/25/2021 1:15:00 PM 1.39 34.502 0.092 6.41 2.88 14.51
1/25/2021 1:30:00 PM 1.48 34.664 0.092 6.43 2.96 14.49
1/25/2021 1:45:00 PM 1.58 34.844 0.092 6.44 2.9 14.45
1/25/2021 2:00:00 PM 1.62 34.916 0.092 6.44 2.93 14.43
1/25/2021 2:15:00 PM 1.66 34.988 0.092 6.43 2.81 14.4
1/25/2021 2:30:00 PM 1.71 35.078 0.092 6.42 2.86 14.38
1/25/2021 2:45:00 PM 1.72 35.096 0.092 6.44 2.88 14.36
1/25/2021 3:00:00 PM 1.74 35.132 0.092 6.44 2.88 14.34
1/25/2021 3:15:00 PM 1.77 35.186 0.092 6.44 2.86 14.32
1/25/2021 3:30:00 PM 1.78 35.204 0.092 6.43 2.79 14.3
1/25/2021 3:45:00 PM 1.78 35.204 0.092 6.44 3.2 14.3
1/25/2021 4:00:00 PM 1.78 35.204 0.092 6.44 2.81 14.25
1/25/2021 4:15:00 PM 1.79 35.222 0.092 6.43 2.86 14.21
1/25/2021 4:30:00 PM 1.78 35.204 0.092 6.42 2.88 14.18
1/25/2021 4:45:00 PM 1.77 35.186 0.092 6.41 2.87 14.15
1/25/2021 5:00:00 PM 1.76 35.168 0.092 6.41 2.87 14.1
1/25/2021 5:15:00 PM 1.75 35.15 0.093 6.4 2.89 14.05
1/25/2021 5:30:00 PM 1.72 35.096 0.092 6.39 2.96 14.01
1/25/2021 5:45:00 PM 1.7 35.06 0.092 6.38 3 13.95
1/25/2021 6:00:00 PM 1.68 35.024 0.092 6.38 2.95 13.92
1/25/2021 6:15:00 PM 1.67 35.006 0.092 6.37 2.98 13.87
1/25/2021 6:30:00 PM 1.65 34.97 0.092 6.35 2.93 13.84
1/25/2021 6:45:00 PM 1.63 34.934 0.092 6.35 3 13.8
1/25/2021 7:00:00 PM 1.61 34.898 0.093 6.32 2.9 13.77
1/25/2021 7:15:00 PM 1.59 34.862 0.093 6.34 2.88 13.73
1/25/2021 7:30:00 PM 1.56 34.808 0.093 6.33 2.9 13.73
1/25/2021 7:45:00 PM 1.55 34.79 0.093 6.32 2.91 13.71
1/25/2021 8:00:00 PM 1.54 34.772 0.093 6.32 2.91 13.68
1/25/2021 8:15:00 PM 1.53 34.754 0.093 6.32 2.91 13.67
1/25/2021 8:30:00 PM 1.52 34.736 0.093 6.32 2.89 13.67
1/25/2021 8:45:00 PM 1.52 34.736 0.093 6.29 2.91 13.66
1/25/2021 9:00:00 PM 1.51 34.718 0.093 6.3 2.92 13.65
1/25/2021 9:15:00 PM 1.51 34.718 0.093 6.3 2.93 13.65
1/25/2021 9:30:00 PM 1.51 34.718 0.093 6.3 2.91 13.64
1/25/2021 9:45:00 PM 1.5 34.7 0.093 6.31 2.96 13.64
1/25/2021 10:00:00 PM 1.51 34.718 0.093 6.3 2.92 13.63
1/25/2021 10:15:00 PM 1.5 34.7 0.093 6.31 2.93 13.61
1/25/2021 10:30:00 PM 1.49 34.682 0.093 6.3 2.89 13.63
1/25/2021 10:45:00 PM 1.49 34.682 0.093 6.3 2.94 13.62
1/25/2021 11:00:00 PM 1.49 34.682 0.093 6.29 2.89 13.61
1/25/2021 11:15:00 PM 1.48 34.664 0.093 6.29 2.88 13.62
1/25/2021 11:30:00 PM 1.47 34.646 0.093 6.3 3.05 13.64
1/25/2021 11:45:00 PM 1.46 34.628 0.093 6.3 2.9 13.64
1/26/2021 12:00:00 AM 1.46 34.628 0.093 6.29 3.02 13.63
1/26/2021 12:15:00 AM 1.46 34.628 0.093 6.29 2.89 13.63
1/26/2021 12:30:00 AM 1.45 34.61 0.093 6.29 2.88 13.65
1/26/2021 12:45:00 AM 1.46 34.628 0.093 6.28 2.91 13.62
1/26/2021 1:00:00 AM 1.45 34.61 0.093 6.29 2.87 13.63
1/26/2021 1:15:00 AM 1.44 34.592 0.093 6.3 2.93 13.64
1/26/2021 1:30:00 AM 1.44 34.592 0.093 6.29 2.92 13.63
1/26/2021 1:45:00 AM 1.44 34.592 0.093 6.28 2.9 13.64
1/26/2021 2:00:00 AM 1.43 34.574 0.093 6.3 2.92 13.64
1/26/2021 2:15:00 AM 1.42 34.556 0.093 6.29 2.91 13.64
1/26/2021 2:30:00 AM 1.42 34.556 0.093 6.28 2.88 13.63
1/26/2021 2:45:00 AM 1.41 34.538 0.093 6.28 2.91 13.63
1/26/2021 3:00:00 AM 1.41 34.538 0.093 6.3 2.88 13.62
1/26/2021 3:15:00 AM 1.41 34.538 0.093 6.29 2.88 13.62
1/26/2021 3:30:00 AM 1.41 34.538 0.093 6.29 2.88 13.63
1/26/2021 3:45:00 AM 1.41 34.538 0.093 6.29 2.89 13.62
1/26/2021 4:00:00 AM 1.41 34.538 0.093 6.3 2.91 13.63
1/26/2021 4:15:00 AM 1.41 34.538 0.093 6.28 2.84 13.63
1/26/2021 4:30:00 AM 1.41 34.538 0.093 6.29 2.88 13.61
1/26/2021 4:45:00 AM 1.42 34.556 0.093 6.29 2.87 13.61
1/26/2021 5:00:00 AM 1.42 34.556 0.093 6.29 2.88 13.62
1/26/2021 5:15:00 AM 1.42 34.556 0.093 6.29 2.91 13.6
1/26/2021 5:30:00 AM 1.43 34.574 0.094 6.28 2.87 13.58
1/26/2021 5:45:00 AM 1.43 34.574 0.093 6.29 2.88 13.6
1/26/2021 6:00:00 AM 1.43 34.574 0.094 6.29 2.93 13.6
1/26/2021 6:15:00 AM 1.42 34.556 0.094 6.28 3.03 13.59
1/26/2021 6:30:00 AM 1.43 34.574 0.094 6.29 2.94 13.6
1/26/2021 6:45:00 AM 1.42 34.556 0.094 6.29 2.94 13.58
1/26/2021 7:00:00 AM 1.4 34.52 0.094 6.28 2.94 13.58
1/26/2021 7:15:00 AM 1.38 34.484 0.094 6.28 3.06 13.6
1/26/2021 7:30:00 AM 1.38 34.484 0.094 6.29 3.36 13.59
1/26/2021 7:45:00 AM 1.37 34.466 0.094 6.29 3.7 13.6
1/26/2021 8:00:00 AM 1.26 34.268 0.093 6.28 2.91 13.61
1/26/2021 8:15:00 AM 1.14 34.052 0.093 6.28 2.91 13.62
1/26/2021 8:30:00 AM 1.16 34.088 0.093 6.27 2.95 13.64
1/26/2021 8:45:00 AM 0.79 33.422 0.093 6.26 2.92 13.67
1/26/2021 9:00:00 AM 0.89 33.602 0.093 6.28 2.91 13.72
1/26/2021 9:15:00 AM 0.95 33.71 0.093 6.3 2.98 13.78
1/26/2021 9:30:00 AM 0.94 33.692 0.093 6.3 2.9 13.81
1/26/2021 9:45:00 AM 0.82 33.476 0.093 6.29 2.91 13.85
1/26/2021 10:00:00 AM 0.78 33.404 0.093 6.3 2.9 13.89
1/26/2021 10:15:00 AM 0.78 33.404 0.093 6.28 2.91 13.93
1/26/2021 10:30:00 AM 0.77 33.386 0.093 6.3 2.94 14
1/26/2021 10:45:00 AM 0.79 33.422 0.093 6.31 2.86 14.02
1/26/2021 11:00:00 AM 0.77 33.386 0.093 6.32 2.87 14.06
1/26/2021 11:15:00 AM 0.7 33.26 0.092 6.32 2.92 14.1
1/26/2021 11:30:00 AM 0.72 33.296 0.092 6.33 2.94 14.14
1/26/2021 11:45:00 AM 0.75 33.35 0.092 6.34 2.98 14.16
1/26/2021 12:00:00 PM 0.76 33.368 0.092 6.34 2.93 14.19
1/26/2021 12:15:00 PM 0.77 33.386 0.092 6.35 2.88 14.21
1/26/2021 12:30:00 PM 0.77 33.386 0.092 6.35 2.92 14.23
1/26/2021 12:45:00 PM 0.79 33.422 0.092 6.35 2.97 14.25
1/26/2021 1:00:00 PM 0.81 33.458 0.092 6.35 2.83 14.27
1/26/2021 1:15:00 PM 0.84 33.512 0.091 6.36 2.91 14.27
1/26/2021 1:30:00 PM 0.87 33.566 0.092 6.36 2.95 14.27
1/26/2021 1:45:00 PM 0.91 33.638 0.092 6.36 2.89 14.27
1/26/2021 2:00:00 PM 0.94 33.692 0.092 6.37 2.92 14.27
1/26/2021 2:15:00 PM 0.96 33.728 0.091 6.38 2.9 14.29
1/26/2021 2:30:00 PM 0.99 33.782 0.091 6.38 2.85 14.28
1/26/2021 2:45:00 PM 1.02 33.836 0.091 6.4 2.91 14.27
1/26/2021 3:00:00 PM 1.04 33.872 0.091 6.38 2.88 14.27
1/26/2021 3:15:00 PM 1.06 33.908 0.091 6.39 2.95 14.25
1/26/2021 3:30:00 PM 1.07 33.926 0.091 6.38 2.92 14.25
1/26/2021 3:45:00 PM 1.09 33.962 0.091 6.38 3.24 14.23
1/26/2021 4:00:00 PM 1.11 33.998 0.091 6.38 2.95 14.21
1/26/2021 4:15:00 PM 1.13 34.034 0.091 6.39 2.92 14.19
1/26/2021 4:30:00 PM 1.14 34.052 0.091 6.39 2.92 14.16
1/26/2021 4:45:00 PM 1.16 34.088 0.091 6.38 2.9 14.11
1/26/2021 5:00:00 PM 1.12 34.016 0.091 6.37 2.87 14.07
1/26/2021 5:15:00 PM 1.13 34.034 0.091 6.37 2.88 14.04
1/26/2021 5:30:00 PM 1.16 34.088 0.091 6.36 2.93 13.99
1/26/2021 5:45:00 PM 1.17 34.106 0.091 6.36 2.91 13.96
1/26/2021 6:00:00 PM 1.19 34.142 0.091 6.37 2.93 13.9
1/26/2021 6:15:00 PM 1.17 34.106 0.091 6.35 2.94 13.88
1/26/2021 6:30:00 PM 1.15 34.07 0.091 6.33 2.98 13.85
1/26/2021 6:45:00 PM 1.17 34.106 0.091 6.33 2.94 13.82
1/26/2021 7:00:00 PM 1.18 34.124 0.092 6.32 3.03 13.8
1/26/2021 7:15:00 PM 1.19 34.142 0.092 6.32 2.89 13.77
1/26/2021 7:30:00 PM 1.19 34.142 0.092 6.32 2.9 13.76
1/26/2021 7:45:00 PM 1.19 34.142 0.092 6.32 2.91 13.75
1/26/2021 8:00:00 PM 1.19 34.142 0.092 6.32 2.94 13.71
1/26/2021 8:15:00 PM 1.19 34.142 0.092 6.31 2.89 13.72
1/26/2021 8:30:00 PM 1.2 34.16 0.092 6.31 2.9 13.7
1/26/2021 8:45:00 PM 1.21 34.178 0.093 6.31 2.91 13.69
1/26/2021 9:00:00 PM 1.21 34.178 0.093 6.31 2.89 13.69
1/26/2021 9:15:00 PM 1.23 34.214 0.093 6.3 2.95 13.68
1/26/2021 9:30:00 PM 1.24 34.232 0.094 6.3 2.92 13.67
1/26/2021 9:45:00 PM 1.25 34.25 0.094 6.31 2.9 13.66
1/26/2021 10:00:00 PM 1.26 34.268 0.094 6.31 2.95 13.67
1/26/2021 10:15:00 PM 1.27 34.286 0.095 6.3 2.93 13.67
1/26/2021 10:30:00 PM 1.28 34.304 0.095 6.28 2.92 13.65
1/26/2021 10:45:00 PM 1.28 34.304 0.095 6.29 2.91 13.65
1/26/2021 11:00:00 PM 1.28 34.304 0.096 6.29 3 13.66
1/26/2021 11:15:00 PM 1.29 34.322 0.096 6.29 2.9 13.65
1/26/2021 11:30:00 PM 1.31 34.358 0.096 6.29 2.97 13.64
1/26/2021 11:45:00 PM 1.31 34.358 0.096 6.29 2.93 13.64
1/27/2021 12:00:00 AM 1.32 34.376 0.097 6.28 2.86 13.63
1/27/2021 12:15:00 AM 1.32 34.376 0.097 6.26 2.89 13.63
1/27/2021 12:30:00 AM 1.34 34.412 0.097 6.29 2.96 13.63
1/27/2021 12:45:00 AM 1.35 34.43 0.097 6.29 2.87 13.64
1/27/2021 1:00:00 AM 1.36 34.448 0.097 6.29 3 13.62
1/27/2021 1:15:00 AM 1.37 34.466 0.097 6.28 2.9 13.62
1/27/2021 1:30:00 AM 1.38 34.484 0.097 6.29 2.91 13.62
1/27/2021 1:45:00 AM 1.38 34.484 0.097 6.29 2.86 13.63
1/27/2021 2:00:00 AM 1.39 34.502 0.097 6.3 2.87 13.62
1/27/2021 2:15:00 AM 1.4 34.52 0.097 6.29 2.85 13.62
1/27/2021 2:30:00 AM 1.41 34.538 0.097 6.29 2.84 13.61
1/27/2021 2:45:00 AM 1.42 34.556 0.097 6.29 2.85 13.63
1/27/2021 3:00:00 AM 1.43 34.574 0.097 6.28 3.02 13.62
1/27/2021 3:15:00 AM 1.44 34.592 0.097 6.28 2.86 13.61
1/27/2021 3:30:00 AM 1.44 34.592 0.097 6.29 2.89 13.61
1/27/2021 3:45:00 AM 1.45 34.61 0.097 6.29 2.85 13.62
1/27/2021 4:00:00 AM 1.45 34.61 0.097 6.28 2.84 13.61
1/27/2021 4:15:00 AM 1.45 34.61 0.097 6.28 2.87 13.61
1/27/2021 4:30:00 AM 1.46 34.628 0.097 6.28 2.91 13.62
1/27/2021 4:45:00 AM 1.46 34.628 0.097 6.29 2.86 13.6
1/27/2021 5:00:00 AM 1.46 34.628 0.097 6.29 2.88 13.62
1/27/2021 5:15:00 AM 1.45 34.61 0.097 6.29 3 13.64
1/27/2021 5:30:00 AM 1.45 34.61 0.097 6.29 2.84 13.63
1/27/2021 5:45:00 AM 1.45 34.61 0.097 6.29 2.91 13.63
1/27/2021 6:00:00 AM 1.44 34.592 0.097 6.28 2.85 13.63
1/27/2021 6:15:00 AM 1.44 34.592 0.097 6.29 2.93 13.62
1/27/2021 6:30:00 AM 1.44 34.592 0.097 6.29 2.87 13.63
1/27/2021 6:45:00 AM 1.43 34.574 0.097 6.28 2.9 13.64
1/27/2021 7:00:00 AM 1.43 34.574 0.097 6.3 2.92 13.64
1/27/2021 7:15:00 AM 1.43 34.574 0.097 6.29 2.88 13.65
1/27/2021 7:30:00 AM 1.42 34.556 0.097 6.28 2.87 13.66
1/27/2021 7:45:00 AM 1.42 34.556 0.097 6.29 2.85 13.66
1/27/2021 8:00:00 AM 1.41 34.538 0.097 6.27 2.89 13.69
1/27/2021 8:15:00 AM 1.41 34.538 0.097 6.3 2.87 13.73
1/27/2021 8:30:00 AM 1.41 34.538 0.097 6.31 2.9 13.77
1/27/2021 8:45:00 AM 1.42 34.556 0.097 6.31 2.98 13.81
1/27/2021 9:00:00 AM 1.44 34.592 0.097 6.32 2.93 13.88
1/27/2021 9:15:00 AM 1.45 34.61 0.097 6.33 2.93 13.94
1/27/2021 9:30:00 AM 1.47 34.646 0.097 6.34 2.9 13.97
1/27/2021 9:45:00 AM 1.49 34.682 0.097 6.35 2.87 14.03
1/27/2021 10:00:00 AM 1.52 34.736 0.097 6.35 2.85 14.07
1/27/2021 10:15:00 AM 1.54 34.772 0.097 6.37 2.88 14.12
1/27/2021 10:30:00 AM 1.59 34.862 0.097 6.38 2.92 14.17
1/27/2021 10:45:00 AM 1.63 34.934 0.097 6.38 2.82 14.19
1/27/2021 11:00:00 AM 1.66 34.988 0.097 6.39 2.88 14.22
1/27/2021 11:15:00 AM 1.7 35.06 0.097 6.4 2.94 14.24
1/27/2021 11:30:00 AM 1.74 35.132 0.097 6.41 2.85 14.26
1/27/2021 11:45:00 AM 1.8 35.24 0.097 6.42 2.86 14.27
1/27/2021 12:00:00 PM 1.88 35.384 0.097 6.42 2.82 14.28
1/27/2021 12:15:00 PM 1.93 35.474 0.097 6.43 2.82 14.28
1/27/2021 12:30:00 PM 2 35.6 0.097 6.43 2.83 14.27
1/27/2021 12:45:00 PM 2.07 35.726 0.097 6.44 2.81 14.26
1/27/2021 1:00:00 PM 2.14 35.852 0.097 6.45 2.78 14.25
1/27/2021 1:15:00 PM 2.19 35.942 0.097 6.46 2.92 14.24
1/27/2021 1:30:00 PM 2.23 36.014 0.097 6.45 2.76 14.22
1/27/2021 1:45:00 PM 2.27 36.086 0.097 6.45 2.8 14.21
1/27/2021 2:00:00 PM 2.29 36.122 0.097 6.45 2.81 14.19
1/27/2021 2:15:00 PM 2.31 36.158 0.097 6.45 2.77 14.18
1/27/2021 2:30:00 PM 2.34 36.212 0.097 6.45 2.82 14.16
1/27/2021 2:45:00 PM 2.37 36.266 0.097 6.45 2.85 14.15
1/27/2021 3:00:00 PM 2.37 36.266 0.097 6.44 2.91 14.12
1/27/2021 3:15:00 PM 2.36 36.248 0.097 6.43 2.85 14.1
1/27/2021 3:30:00 PM 2.36 36.248 0.097 6.44 2.93 14.1
1/27/2021 3:45:00 PM 2.36 36.248 0.097 6.43 2.91 14.08
1/27/2021 4:00:00 PM 2.34 36.212 0.098 6.42 2.92 14.06
1/27/2021 4:15:00 PM 2.31 36.158 0.098 6.43 2.86 14.05
1/27/2021 4:30:00 PM 2.28 36.104 0.098 6.43 2.87 14.03
1/27/2021 4:45:00 PM 2.26 36.068 0.098 6.42 2.92 13.99
1/27/2021 5:00:00 PM 2.23 36.014 0.098 6.41 2.88 13.95
1/27/2021 5:15:00 PM 2.2 35.96 0.098 6.41 2.94 13.91
1/27/2021 5:30:00 PM 2.18 35.924 0.098 6.39 2.92 13.86
1/27/2021 5:45:00 PM 2.14 35.852 0.098 6.38 2.95 13.82
1/27/2021 6:00:00 PM 2.11 35.798 0.098 6.37 2.94 13.79
1/27/2021 6:15:00 PM 2.08 35.744 0.099 6.37 2.99 13.75
1/27/2021 6:30:00 PM 2.04 35.672 0.099 6.36 2.92 13.72
1/27/2021 6:45:00 PM 2.02 35.636 0.099 6.35 2.94 13.69
1/27/2021 7:00:00 PM 1.99 35.582 0.099 6.34 2.96 13.66
1/27/2021 7:15:00 PM 1.96 35.528 0.099 6.34 2.9 13.63
1/27/2021 7:30:00 PM 1.93 35.474 0.099 6.34 2.88 13.61
1/27/2021 7:45:00 PM 1.91 35.438 0.099 6.32 2.91 13.6
1/27/2021 8:00:00 PM 1.88 35.384 0.099 6.33 2.95 13.58
1/27/2021 8:15:00 PM 1.85 35.33 0.099 6.31 3 13.58
1/27/2021 8:30:00 PM 1.83 35.294 0.099 6.33 2.91 13.58
1/27/2021 8:45:00 PM 1.81 35.258 0.1 6.33 3 13.58
1/27/2021 9:00:00 PM 1.79 35.222 0.1 6.32 2.95 13.57
1/27/2021 9:15:00 PM 1.77 35.186 0.1 6.31 2.94 13.57
1/27/2021 9:30:00 PM 1.74 35.132 0.1 6.31 2.93 13.56
1/27/2021 9:45:00 PM 1.71 35.078 0.1 6.31 2.95 13.56
1/27/2021 10:00:00 PM 1.69 35.042 0.1 6.31 2.94 13.57
1/27/2021 10:15:00 PM 1.66 34.988 0.1 6.31 2.99 13.59
1/27/2021 10:30:00 PM 1.63 34.934 0.1 6.3 2.98 13.6
1/27/2021 10:45:00 PM 1.59 34.862 0.1 6.29 2.98 13.61
1/27/2021 11:00:00 PM 1.56 34.808 0.1 6.29 3 13.61
1/27/2021 11:15:00 PM 1.51 34.718 0.101 6.3 3.03 13.62
1/27/2021 11:30:00 PM 1.46 34.628 0.101 6.3 2.99 13.64
1/27/2021 11:45:00 PM 1.4 34.52 0.101 6.3 2.98 13.67
1/28/2021 12:00:00 AM 1.33 34.394 0.101 6.3 2.95 13.68
1/28/2021 12:15:00 AM 1.28 34.304 0.101 6.3 2.94 13.69
1/28/2021 12:30:00 AM 1.22 34.196 0.101 6.3 2.92 13.71
1/28/2021 12:45:00 AM 1.16 34.088 0.101 6.3 3.01 13.71
1/28/2021 1:00:00 AM 1.09 33.962 0.101 6.31 3.07 13.74
1/28/2021 1:15:00 AM 1.03 33.854 0.101 6.3 2.88 13.77
1/28/2021 1:30:00 AM 0.97 33.746 0.101 6.31 2.98 13.79
1/28/2021 1:45:00 AM 0.92 33.656 0.101 6.31 2.89 13.81
1/28/2021 2:00:00 AM 0.89 33.602 0.101 6.3 2.91 13.83
1/28/2021 2:15:00 AM 0.85 33.53 0.101 6.31 2.98 13.85
1/28/2021 2:30:00 AM 0.81 33.458 0.101 6.31 2.95 13.88
1/28/2021 2:45:00 AM 0.78 33.404 0.101 6.31 2.95 13.89
1/28/2021 3:00:00 AM 0.74 33.332 0.101 6.3 2.93 13.91
1/28/2021 3:15:00 AM 0.72 33.296 0.101 6.31 2.94 13.93
1/28/2021 3:30:00 AM 0.68 33.224 0.101 6.31 2.92 13.93
1/28/2021 3:45:00 AM 0.64 33.152 0.101 6.3 2.86 13.96
1/28/2021 4:00:00 AM 0.6 33.08 0.101 6.3 2.89 13.96
1/28/2021 4:15:00 AM 0.56 33.008 0.101 6.3 2.88 13.97
1/28/2021 4:30:00 AM 0.53 32.954 0.101 6.31 2.89 13.99
1/28/2021 4:45:00 AM 0.5 32.9 0.101 6.3 2.88 13.99
1/28/2021 5:00:00 AM 0.45 32.81 0.101 6.3 2.86 14.02
1/28/2021 5:15:00 AM 0.41 32.738 0.101 6.31 2.9 14.04
1/28/2021 5:30:00 AM 0.37 32.666 0.101 6.3 2.86 14.05
1/28/2021 5:45:00 AM 0.32 32.576 0.101 6.3 2.87 14.07
1/28/2021 6:00:00 AM 0.25 32.45 0.101 6.29 2.84 14.11
1/28/2021 6:15:00 AM 0.21 32.378 0.101 6.31 2.91 14.12
1/28/2021 6:30:00 AM 0.15 32.27 0.101 6.3 2.86 14.14
1/28/2021 6:45:00 AM 0.1 32.18 0.102 6.29 2.89 14.16
1/28/2021 7:00:00 AM 0.05 32.09 0.102 6.31 2.92 14.18
1/28/2021 7:15:00 AM -0.01 31.982 0.102 6.31 2.95 14.2
1/28/2021 7:30:00 AM -0.08 31.856 0.102 6.31 2.97 14.25
1/28/2021 7:45:00 AM -0.13 31.766 0.102 6.3 2.95 14.3
1/28/2021 8:00:00 AM -0.12 31.784 0.102 6.31 2.88 14.32
1/28/2021 8:15:00 AM -0.12 31.784 0.102 6.32 2.95 14.39
1/28/2021 8:30:00 AM -0.09 31.838 0.102 6.33 2.91 14.44
1/28/2021 8:45:00 AM -0.09 31.838 0.102 6.34 2.9 14.51
1/28/2021 9:00:00 AM -0.07 31.874 0.102 6.34 2.95 14.55
1/28/2021 9:15:00 AM -0.03 31.946 0.102 6.35 2.99 14.58
1/28/2021 9:30:00 AM -0.03 31.946 0.102 6.36 2.95 14.66
1/28/2021 9:45:00 AM -0.01 31.982 0.103 6.38 2.86 14.72
1/28/2021 10:00:00 AM 0.02 32.036 0.102 6.38 2.91 14.77
1/28/2021 10:15:00 AM 0.05 32.09 0.102 6.38 2.92 14.81
1/28/2021 10:30:00 AM 0.08 32.144 0.102 6.39 2.86 14.85
1/28/2021 10:45:00 AM 0.05 32.09 0.102 6.39 2.9 14.89
1/28/2021 11:00:00 AM 0.06 32.108 0.102 6.39 3.02 14.92
1/28/2021 11:15:00 AM 0.15 32.27 0.101 6.4 3.17 14.94
1/28/2021 11:30:00 AM 0.23 32.414 0.101 6.42 3.01 14.95
1/28/2021 11:45:00 AM 0.32 32.576 0.101 6.42 2.94 14.97
1/28/2021 12:00:00 PM 0.37 32.666 0.101 6.43 2.91 14.96
1/28/2021 12:15:00 PM 0.44 32.792 0.1 6.42 2.81 14.95
1/28/2021 12:30:00 PM 0.59 33.062 0.1 6.43 2.87 14.93
1/28/2021 12:45:00 PM 0.67 33.206 0.1 6.41 2.82 14.91
1/28/2021 1:00:00 PM 0.78 33.404 0.1 6.45 2.83 14.88
1/28/2021 1:15:00 PM 0.96 33.728 0.1 6.45 2.95 14.85
1/28/2021 1:30:00 PM 1.14 34.052 0.1 6.47 2.82 14.8
1/28/2021 1:45:00 PM 1.31 34.358 0.1 6.46 2.94 14.73
1/28/2021 2:00:00 PM 1.44 34.592 0.1 6.45 2.8 14.7
1/28/2021 2:15:00 PM 1.55 34.79 0.1 6.45 2.87 14.64
1/28/2021 2:30:00 PM 1.61 34.898 0.1 6.46 2.98 14.62
1/28/2021 2:45:00 PM 1.64 34.952 0.099 6.44 2.87 14.61
1/28/2021 3:00:00 PM 1.65 34.97 0.099 6.45 2.92 14.58
1/28/2021 3:15:00 PM 1.63 34.934 0.099 6.45 2.84 14.57
1/28/2021 3:30:00 PM 1.61 34.898 0.099 6.43 3.49 14.55
1/28/2021 3:45:00 PM 1.53 34.754 0.099 6.43 3.29 14.56
1/28/2021 4:00:00 PM 1.41 34.538 0.099 6.43 2.93 14.58
1/28/2021 4:15:00 PM 1.31 34.358 0.099 6.42 3.12 14.58
1/28/2021 4:30:00 PM 1.17 34.106 0.099 6.42 3.01 14.59
1/28/2021 4:45:00 PM 1.03 33.854 0.099 6.39 3.27 14.6
1/28/2021 5:00:00 PM 0.88 33.584 0.1 6.4 3.09 14.6
1/28/2021 5:15:00 PM 0.74 33.332 0.1 6.39 2.95 14.6
1/28/2021 5:30:00 PM 0.61 33.098 0.1 6.39 2.88 14.59
1/28/2021 5:45:00 PM 0.47 32.846 0.1 6.38 2.88 14.58
1/28/2021 6:00:00 PM 0.37 32.666 0.1 6.37 2.88 14.55
1/28/2021 6:15:00 PM 0.28 32.504 0.1 6.36 3.02 14.55
1/28/2021 6:30:00 PM 0.19 32.342 0.1 6.37 2.89 14.53
1/28/2021 6:45:00 PM 0.1 32.18 0.1 6.36 2.84 14.55
1/28/2021 7:00:00 PM 0.01 32.018 0.1 6.36 2.89 14.55
1/28/2021 7:15:00 PM -0.07 31.874 0.1 6.35 2.88 14.55
1/28/2021 7:30:00 PM -0.11 31.802 0.101 6.36 2.83 14.54
1/28/2021 7:45:00 PM -0.11 31.802 0.101 6.35 2.94 14.53
1/28/2021 8:00:00 PM -0.1 31.82 0.101 6.35 2.84 14.52
1/28/2021 8:15:00 PM -0.11 31.802 0.101 6.36 2.85 14.52
1/28/2021 8:30:00 PM -0.11 31.802 0.101 6.36 2.88 14.51
1/28/2021 8:45:00 PM -0.1 31.82 0.102 6.36 2.96 14.49
1/28/2021 9:00:00 PM -0.08 31.856 0.102 6.34 2.92 14.45
1/28/2021 9:15:00 PM -0.1 31.82 0.102 6.35 3.01 14.48
1/28/2021 9:30:00 PM -0.1 31.82 0.102 6.34 2.86 14.48
1/28/2021 9:45:00 PM -0.11 31.802 0.102 6.35 3.02 14.5
1/28/2021 10:00:00 PM -0.1 31.82 0.102 6.33 2.9 14.48
1/28/2021 10:15:00 PM -0.11 31.802 0.102 6.36 3 14.49
1/28/2021 10:30:00 PM -0.1 31.82 0.102 6.34 2.91 14.46
1/28/2021 10:45:00 PM -0.11 31.802 0.102 6.33 2.8 14.47
1/28/2021 11:00:00 PM -0.1 31.82 0.102 6.34 2.87 14.46
1/28/2021 11:15:00 PM -0.1 31.82 0.103 6.34 2.95 14.44
1/28/2021 11:30:00 PM -0.1 31.82 0.103 6.34 2.84 14.45
1/28/2021 11:45:00 PM -0.11 31.802 0.103 6.34 2.86 14.46
1/29/2021 12:00:00 AM -0.1 31.82 0.103 6.34 2.87 14.45
1/29/2021 12:15:00 AM -0.11 31.802 0.103 6.34 2.88 14.46
1/29/2021 12:30:00 AM -0.11 31.802 0.103 6.33 2.98 14.46
1/29/2021 12:45:00 AM -0.11 31.802 0.103 6.33 2.84 14.46
1/29/2021 1:00:00 AM -0.11 31.802 0.103 6.33 2.87 14.46
1/29/2021 1:15:00 AM -0.11 31.802 0.103 6.32 2.81 14.45
1/29/2021 1:30:00 AM -0.11 31.802 0.103 6.33 2.85 14.46
1/29/2021 1:45:00 AM -0.11 31.802 0.103 6.32 2.9 14.46
1/29/2021 2:00:00 AM -0.11 31.802 0.103 6.33 2.85 14.46
1/29/2021 2:15:00 AM -0.11 31.802 0.103 6.33 2.79 14.45
1/29/2021 2:30:00 AM -0.11 31.802 0.103 6.32 2.85 14.45
1/29/2021 2:45:00 AM -0.1 31.82 0.103 6.33 2.9 14.43
1/29/2021 3:00:00 AM -0.11 31.802 0.103 6.32 2.85 14.43
1/29/2021 3:15:00 AM -0.11 31.802 0.103 6.33 2.87 14.44
1/29/2021 3:30:00 AM -0.11 31.802 0.104 6.33 2.83 14.45
1/29/2021 3:45:00 AM -0.1 31.82 0.104 6.33 2.82 14.43
1/29/2021 4:00:00 AM -0.1 31.82 0.104 6.33 2.85 14.43
1/29/2021 4:15:00 AM -0.11 31.802 0.104 6.33 2.83 14.44
1/29/2021 4:30:00 AM -0.1 31.82 0.104 6.33 2.87 14.43
1/29/2021 4:45:00 AM -0.1 31.82 0.104 6.33 2.85 14.43
1/29/2021 5:00:00 AM -0.1 31.82 0.105 6.33 2.84 14.42
1/29/2021 5:15:00 AM -0.1 31.82 0.105 6.33 2.84 14.43
1/29/2021 5:30:00 AM -0.11 31.802 0.105 6.34 2.8 14.44
1/29/2021 5:45:00 AM -0.1 31.82 0.105 6.33 2.85 14.42
1/29/2021 6:00:00 AM -0.1 31.82 0.105 6.34 2.93 14.43
1/29/2021 6:15:00 AM -0.1 31.82 0.106 6.32 2.83 14.42
1/29/2021 6:30:00 AM -0.1 31.82 0.106 6.33 2.94 14.42
1/29/2021 6:45:00 AM -0.09 31.838 0.106 6.33 2.8 14.41
1/29/2021 7:00:00 AM -0.09 31.838 0.106 6.34 2.87 14.4
1/29/2021 7:15:00 AM -0.09 31.838 0.107 6.32 2.94 14.39
1/29/2021 7:30:00 AM -0.08 31.856 0.107 6.33 3.03 14.39
1/29/2021 7:45:00 AM -0.08 31.856 0.107 6.33 3.04 14.4
1/29/2021 8:00:00 AM -0.08 31.856 0.107 6.33 2.93 14.43
1/29/2021 8:15:00 AM -0.08 31.856 0.107 6.33 3.01 14.48
1/29/2021 8:30:00 AM -0.08 31.856 0.107 6.34 2.89 14.52
1/29/2021 8:45:00 AM -0.08 31.856 0.107 6.35 2.88 14.55
1/29/2021 9:00:00 AM -0.07 31.874 0.107 6.35 2.93 14.59
1/29/2021 9:15:00 AM -0.06 31.892 0.107 6.35 3.19 14.63
1/29/2021 9:30:00 AM -0.06 31.892 0.107 6.36 3 14.66
1/29/2021 9:45:00 AM -0.06 31.892 0.107 6.36 2.89 14.71
1/29/2021 10:00:00 AM -0.07 31.874 0.107 6.37 3.03 14.75
1/29/2021 10:15:00 AM -0.06 31.892 0.107 6.33 2.9 14.78
1/29/2021 10:30:00 AM -0.06 31.892 0.107 6.29 3.28 14.82
1/29/2021 10:45:00 AM -0.09 31.838 0.106 6.26 3.6 14.86
1/29/2021 11:00:00 AM -0.08 31.856 0.106 6.24 3.09 14.89
1/29/2021 11:15:00 AM -0.07 31.874 0.107 6.26 3.08 14.91
1/29/2021 11:30:00 AM -0.06 31.892 0.106 6.26 2.78 14.94
1/29/2021 11:45:00 AM -0.06 31.892 0.106 6.25 2.9 14.96
1/29/2021 12:00:00 PM -0.08 31.856 0.106 6.25 5.72 14.99
1/29/2021 12:15:00 PM -0.06 31.892 0.106 6.24 3.02 15.02
1/29/2021 12:30:00 PM -0.06 31.892 0.105 6.28 2.97 15.05
1/29/2021 12:45:00 PM -0.06 31.892 0.105 6.3 2.96 15.08
1/29/2021 1:00:00 PM -0.07 31.874 0.104 6.3 3.28 15.1
1/29/2021 1:15:00 PM -0.08 31.856 0.104 6.33 3.58 15.12
1/29/2021 1:30:00 PM -0.07 31.874 0.104 6.35 2.95 15.14
1/29/2021 1:45:00 PM -0.07 31.874 0.104 6.34 3.73 15.15
1/29/2021 2:00:00 PM -0.07 31.874 0.103 6.35 3.15 15.16
1/29/2021 2:15:00 PM -0.07 31.874 0.103 6.34 3.89 15.17
1/29/2021 2:30:00 PM -0.08 31.856 0.103 6.34 2.97 15.17
1/29/2021 2:45:00 PM -0.08 31.856 0.102 6.3 2.97 15.19
1/29/2021 3:00:00 PM -0.09 31.838 0.102 6.32 2.85 15.19
1/29/2021 3:15:00 PM -0.07 31.874 0.103 6.35 2.74 15.17
1/29/2021 3:30:00 PM -0.07 31.874 0.103 6.32 2.69 15.19
1/29/2021 3:45:00 PM -0.08 31.856 0.102 6.32 2.65 15.19
1/29/2021 4:00:00 PM -0.09 31.838 0.102 6.38 2.72 15.19
1/29/2021 4:15:00 PM -0.09 31.838 0.102 6.35 2.76 15.18
1/29/2021 4:30:00 PM -0.1 31.82 0.102 6.33 2.66 15.18
1/29/2021 4:45:00 PM -0.1 31.82 0.101 6.34 2.67 15.16
1/29/2021 5:00:00 PM -0.11 31.802 0.101 6.33 2.58 15.14
1/29/2021 5:15:00 PM -0.11 31.802 0.101 6.33 2.63 15.12
1/29/2021 5:30:00 PM -0.12 31.784 0.101 6.33 2.6 15.08
1/29/2021 5:45:00 PM -0.12 31.784 0.1 6.32 2.61 15.04
1/29/2021 6:00:00 PM -0.12 31.784 0.1 6.31 2.61 15
1/29/2021 6:15:00 PM -0.11 31.802 0.1 6.3 2.68 14.97
1/29/2021 6:30:00 PM -0.11 31.802 0.1 6.28 2.64 14.92
1/29/2021 6:45:00 PM -0.11 31.802 0.099 6.29 2.63 14.88
1/29/2021 7:00:00 PM -0.11 31.802 0.099 6.29 2.58 14.84
1/29/2021 7:15:00 PM -0.11 31.802 0.099 6.26 2.73 14.79
1/29/2021 7:30:00 PM -0.11 31.802 0.099 6.25 2.59 14.76
1/29/2021 7:45:00 PM -0.11 31.802 0.099 6.26 2.54 14.71
1/29/2021 8:00:00 PM -0.11 31.802 0.099 6.25 2.55 14.68
1/29/2021 8:15:00 PM -0.11 31.802 0.099 6.24 2.52 14.65
1/29/2021 8:30:00 PM -0.11 31.802 0.099 6.23 2.49 14.62
1/29/2021 8:45:00 PM -0.11 31.802 0.099 6.22 2.52 14.59
1/29/2021 9:00:00 PM -0.11 31.802 0.099 6.24 2.49 14.57
1/29/2021 9:15:00 PM -0.11 31.802 0.099 6.24 2.45 14.55
1/29/2021 9:30:00 PM -0.11 31.802 0.098 6.23 2.52 14.53
1/29/2021 9:45:00 PM -0.11 31.802 0.099 6.22 2.46 14.5
1/29/2021 10:00:00 PM -0.11 31.802 0.099 6.21 2.48 14.49
1/29/2021 10:15:00 PM -0.11 31.802 0.099 6.2 2.44 14.47
1/29/2021 10:30:00 PM -0.11 31.802 0.099 6.22 2.45 14.46
1/29/2021 10:45:00 PM -0.1 31.82 0.099 6.25 2.42 14.45
1/29/2021 11:00:00 PM -0.11 31.802 0.099 6.26 2.41 14.44
1/29/2021 11:15:00 PM -0.11 31.802 0.099 6.21 2.45 14.43
1/29/2021 11:30:00 PM -0.11 31.802 0.099 6.21 2.4 14.43
1/29/2021 11:45:00 PM -0.11 31.802 0.099 6.22 2.43 14.42
1/30/2021 12:00:00 AM -0.11 31.802 0.099 6.2 2.39 14.41
1/30/2021 12:15:00 AM -0.11 31.802 0.1 6.19 2.4 14.41
1/30/2021 12:30:00 AM -0.11 31.802 0.1 6.19 2.4 14.41
1/30/2021 12:45:00 AM -0.11 31.802 0.1 6.19 2.41 14.41
1/30/2021 1:00:00 AM -0.11 31.802 0.1 6.18 2.39 14.4
1/30/2021 1:15:00 AM -0.11 31.802 0.1 6.16 2.43 14.4
1/30/2021 1:30:00 AM -0.11 31.802 0.1 6.16 2.37 14.4
1/30/2021 1:45:00 AM -0.11 31.802 0.1 6.15 2.39 14.4
1/30/2021 2:00:00 AM -0.11 31.802 0.101 6.18 2.39 14.4
1/30/2021 2:15:00 AM -0.11 31.802 0.101 6.17 2.38 14.41
1/30/2021 2:30:00 AM -0.11 31.802 0.101 6.17 2.36 14.4
1/30/2021 2:45:00 AM -0.11 31.802 0.101 6.18 2.37 14.4
1/30/2021 3:00:00 AM -0.11 31.802 0.101 6.17 2.38 14.4
1/30/2021 3:15:00 AM -0.11 31.802 0.101 6.17 2.37 14.41
1/30/2021 3:30:00 AM -0.11 31.802 0.101 6.18 2.39 14.4
1/30/2021 3:45:00 AM -0.11 31.802 0.101 6.18 2.37 14.41
1/30/2021 4:00:00 AM -0.11 31.802 0.101 6.18 2.4 14.4
1/30/2021 4:15:00 AM -0.11 31.802 0.101 6.18 2.37 14.4
1/30/2021 4:30:00 AM -0.12 31.784 0.101 6.16 2.35 14.41
1/30/2021 4:45:00 AM -0.12 31.784 0.101 6.18 2.33 14.4
1/30/2021 5:00:00 AM -0.12 31.784 0.101 6.17 2.38 14.41
1/30/2021 5:15:00 AM -0.12 31.784 0.101 6.17 2.35 14.41
1/30/2021 5:30:00 AM -0.12 31.784 0.102 6.18 2.41 14.41
1/30/2021 5:45:00 AM -0.12 31.784 0.102 6.17 2.37 14.41
1/30/2021 6:00:00 AM -0.12 31.784 0.102 6.17 2.4 14.42
1/30/2021 6:15:00 AM -0.12 31.784 0.102 6.18 2.4 14.42
1/30/2021 6:30:00 AM -0.13 31.766 0.102 6.22 2.44 14.42
1/30/2021 6:45:00 AM -0.13 31.766 0.102 6.21 2.5 14.42
1/30/2021 7:00:00 AM -0.13 31.766 0.102 6.21 2.41 14.43
1/30/2021 7:15:00 AM -0.12 31.784 0.103 6.22 2.41 14.42
1/30/2021 7:30:00 AM -0.12 31.784 0.103 6.22 2.52 14.44
1/30/2021 7:45:00 AM -0.12 31.784 0.103 6.25 2.43 14.46
1/30/2021 8:00:00 AM -0.12 31.784 0.103 6.26 2.48 14.49
1/30/2021 8:15:00 AM -0.11 31.802 0.103 6.23 2.46 14.53
1/30/2021 8:30:00 AM -0.1 31.82 0.104 6.21 2.46 14.56
1/30/2021 8:45:00 AM -0.09 31.838 0.104 6.18 2.44 14.6
1/30/2021 9:00:00 AM -0.07 31.874 0.104 6.2 2.41 14.64
1/30/2021 9:15:00 AM -0.05 31.91 0.104 6.22 2.46 14.67
1/30/2021 9:30:00 AM -0.02 31.964 0.104 6.24 2.33 14.71
1/30/2021 9:45:00 AM 0 32 0.104 6.25 2.36 14.74
1/30/2021 10:00:00 AM 0.03 32.054 0.104 6.25 2.43 14.78
1/30/2021 10:15:00 AM 0.04 32.072 0.104 6.25 2.38 14.82
1/30/2021 10:30:00 AM 0.07 32.126 0.104 6.26 2.49 14.85
1/30/2021 10:45:00 AM 0.09 32.162 0.104 6.27 2.47 14.89
1/30/2021 11:00:00 AM 0.13 32.234 0.103 6.28 2.38 14.89
1/30/2021 11:15:00 AM 0.16 32.288 0.103 6.28 2.45 14.92
1/30/2021 11:30:00 AM 0.18 32.324 0.103 6.29 2.5 14.94
1/30/2021 11:45:00 AM 0.23 32.414 0.103 6.3 2.42 14.95
1/30/2021 12:00:00 PM 0.31 32.558 0.103 6.32 2.41 14.96
1/30/2021 12:15:00 PM 0.34 32.612 0.102 6.31 2.38 14.98
1/30/2021 12:30:00 PM 0.37 32.666 0.102 6.33 2.42 14.98
1/30/2021 12:45:00 PM 0.41 32.738 0.102 6.33 2.5 14.99
1/30/2021 1:00:00 PM 0.45 32.81 0.102 6.33 2.47 14.98
1/30/2021 1:15:00 PM 0.48 32.864 0.102 6.3 2.47 14.96
1/30/2021 1:30:00 PM 0.48 32.864 0.102 6.31 2.39 14.95
1/30/2021 1:45:00 PM 0.48 32.864 0.102 6.34 2.46 14.96
1/30/2021 2:00:00 PM 0.47 32.846 0.102 6.35 2.42 14.95
1/30/2021 2:15:00 PM 0.43 32.774 0.101 6.37 2.51 14.94
1/30/2021 2:30:00 PM 0.44 32.792 0.101 6.37 2.41 14.94
1/30/2021 2:45:00 PM 0.38 32.684 0.101 6.39 2.43 14.95
1/30/2021 3:00:00 PM 0.36 32.648 0.101 6.4 2.44 14.94
1/30/2021 3:15:00 PM 0.34 32.612 0.101 6.43 2.48 14.93
1/30/2021 3:30:00 PM 0.29 32.522 0.101 6.43 2.39 14.93
1/30/2021 3:45:00 PM 0.26 32.468 0.101 6.45 2.46 14.93
1/30/2021 4:00:00 PM 0.22 32.396 0.101 6.45 2.45 14.93
1/30/2021 4:15:00 PM 0.16 32.288 0.1 6.43 2.41 14.93
1/30/2021 4:30:00 PM 0.11 32.198 0.1 6.44 2.46 14.94
1/30/2021 4:45:00 PM 0.05 32.09 0.099 6.46 2.41 14.95
1/30/2021 5:00:00 PM 0 32 0.099 6.46 2.4 14.94
1/30/2021 5:15:00 PM -0.04 31.928 0.099 6.46 2.49 14.92
1/30/2021 5:30:00 PM -0.06 31.892 0.099 6.46 2.49 14.9
1/30/2021 5:45:00 PM -0.09 31.838 0.099 6.47 2.5 14.87
1/30/2021 6:00:00 PM -0.11 31.802 0.099 6.45 2.48 14.85
1/30/2021 6:15:00 PM -0.12 31.784 0.099 6.44 2.51 14.82
1/30/2021 6:30:00 PM -0.12 31.784 0.099 6.43 2.52 14.79
1/30/2021 6:45:00 PM -0.13 31.766 0.099 6.42 2.56 14.76
1/30/2021 7:00:00 PM -0.13 31.766 0.099 6.41 2.53 14.73
1/30/2021 7:15:00 PM -0.12 31.784 0.099 6.4 2.52 14.7
1/30/2021 7:30:00 PM -0.12 31.784 0.099 6.38 2.53 14.68
1/30/2021 7:45:00 PM -0.12 31.784 0.099 6.36 2.48 14.65
1/30/2021 8:00:00 PM -0.12 31.784 0.099 6.35 2.5 14.63
1/30/2021 8:15:00 PM -0.12 31.784 0.099 6.33 2.49 14.61
1/30/2021 8:30:00 PM -0.12 31.784 0.099 6.3 2.46 14.59
1/30/2021 8:45:00 PM -0.12 31.784 0.099 6.31 2.49 14.57
1/30/2021 9:00:00 PM -0.12 31.784 0.099 6.29 2.47 14.56
1/30/2021 9:15:00 PM -0.12 31.784 0.099 6.29 2.49 14.55
1/30/2021 9:30:00 PM -0.12 31.784 0.099 6.29 2.4 14.54
1/30/2021 9:45:00 PM -0.12 31.784 0.099 6.28 2.45 14.52
1/30/2021 10:00:00 PM -0.11 31.802 0.099 6.28 2.44 14.51
1/30/2021 10:15:00 PM -0.11 31.802 0.099 6.27 2.36 14.51
1/30/2021 10:30:00 PM -0.11 31.802 0.099 6.28 2.41 14.5
1/30/2021 10:45:00 PM -0.11 31.802 0.099 6.27 2.34 14.49
1/30/2021 11:00:00 PM -0.11 31.802 0.1 6.28 2.4 14.48
1/30/2021 11:15:00 PM -0.11 31.802 0.1 6.28 2.41 14.47
1/30/2021 11:30:00 PM -0.11 31.802 0.1 6.28 2.49 14.46
1/30/2021 11:45:00 PM -0.1 31.82 0.1 6.27 2.38 14.44
1/31/2021 12:00:00 AM -0.1 31.82 0.1 6.27 2.4 14.44
1/31/2021 12:15:00 AM -0.1 31.82 0.101 6.27 2.41 14.44
1/31/2021 12:30:00 AM -0.11 31.802 0.101 6.26 2.38 14.42
1/31/2021 12:45:00 AM -0.11 31.802 0.101 6.27 2.36 14.42
1/31/2021 1:00:00 AM -0.11 31.802 0.101 6.26 2.34 14.41
1/31/2021 1:15:00 AM -0.11 31.802 0.102 6.26 2.3 14.41
1/31/2021 1:30:00 AM -0.11 31.802 0.102 6.27 2.37 14.41
1/31/2021 1:45:00 AM -0.11 31.802 0.102 6.27 2.38 14.4
1/31/2021 2:00:00 AM -0.11 31.802 0.102 6.27 2.35 14.4
1/31/2021 2:15:00 AM -0.11 31.802 0.102 6.27 2.35 14.39
1/31/2021 2:30:00 AM -0.11 31.802 0.103 6.27 2.36 14.39
1/31/2021 2:45:00 AM -0.11 31.802 0.103 6.26 2.35 14.39
1/31/2021 3:00:00 AM -0.11 31.802 0.103 6.27 2.3 14.38
1/31/2021 3:15:00 AM -0.11 31.802 0.103 6.27 2.38 14.38
1/31/2021 3:30:00 AM -0.11 31.802 0.103 6.26 2.36 14.38
1/31/2021 3:45:00 AM -0.11 31.802 0.103 6.26 2.37 14.38
1/31/2021 4:00:00 AM -0.11 31.802 0.103 6.23 2.33 14.38
1/31/2021 4:15:00 AM -0.11 31.802 0.103 6.25 2.35 14.37
1/31/2021 4:30:00 AM -0.11 31.802 0.103 6.25 2.33 14.38
1/31/2021 4:45:00 AM -0.11 31.802 0.103 6.24 2.37 14.37
1/31/2021 5:00:00 AM -0.11 31.802 0.103 6.23 2.33 14.37
1/31/2021 5:15:00 AM -0.11 31.802 0.103 6.23 2.34 14.37
1/31/2021 5:30:00 AM -0.11 31.802 0.103 6.24 2.43 14.37
1/31/2021 5:45:00 AM -0.11 31.802 0.103 6.22 2.37 14.37
1/31/2021 6:00:00 AM -0.11 31.802 0.103 6.22 2.38 14.36
1/31/2021 6:15:00 AM -0.11 31.802 0.103 6.23 2.38 14.37
1/31/2021 6:30:00 AM -0.11 31.802 0.103 6.23 2.37 14.36
1/31/2021 6:45:00 AM -0.11 31.802 0.102 6.22 2.35 14.36
1/31/2021 7:00:00 AM -0.11 31.802 0.102 6.22 2.39 14.36
1/31/2021 7:15:00 AM -0.11 31.802 0.102 6.22 2.35 14.36
1/31/2021 7:30:00 AM -0.11 31.802 0.102 6.22 2.36 14.36
1/31/2021 7:45:00 AM -0.11 31.802 0.101 6.21 2.36 14.37
1/31/2021 8:00:00 AM -0.11 31.802 0.101 6.22 2.35 14.38
1/31/2021 8:15:00 AM -0.1 31.82 0.101 6.21 2.38 14.41
1/31/2021 8:30:00 AM -0.11 31.802 0.101 6.22 2.35 14.43
1/31/2021 8:45:00 AM -0.11 31.802 0.101 6.22 2.39 14.44
1/31/2021 9:00:00 AM -0.11 31.802 0.1 6.21 2.36 14.46
1/31/2021 9:15:00 AM -0.1 31.82 0.1 6.22 2.37 14.5
1/31/2021 9:30:00 AM -0.1 31.82 0.1 6.23 2.4 14.54
1/31/2021 9:45:00 AM -0.1 31.82 0.1 6.22 2.36 14.57
1/31/2021 10:00:00 AM -0.1 31.82 0.1 6.22 2.39 14.61
1/31/2021 10:15:00 AM -0.09 31.838 0.1 6.23 2.42 14.65
1/31/2021 10:30:00 AM -0.09 31.838 0.1 6.24 2.38 14.69
1/31/2021 10:45:00 AM -0.08 31.856 0.099 6.24 2.33 14.74
1/31/2021 11:00:00 AM -0.08 31.856 0.099 6.25 2.37 14.78
1/31/2021 11:15:00 AM -0.08 31.856 0.099 6.25 2.4 14.82
1/31/2021 11:30:00 AM -0.08 31.856 0.099 6.27 2.36 14.85
1/31/2021 11:45:00 AM -0.06 31.892 0.099 6.29 2.36 14.89
1/31/2021 12:00:00 PM -0.05 31.91 0.099 6.29 2.36 14.92
1/31/2021 12:15:00 PM -0.04 31.928 0.099 6.29 2.39 14.95
1/31/2021 12:30:00 PM -0.05 31.91 0.098 6.31 2.39 14.97
1/31/2021 12:45:00 PM -0.04 31.928 0.098 6.32 2.4 14.99
1/31/2021 1:00:00 PM -0.05 31.91 0.098 6.3 2.41 15.01
1/31/2021 1:15:00 PM -0.04 31.928 0.098 6.33 2.42 15.03
1/31/2021 1:30:00 PM -0.04 31.928 0.098 6.32 2.45 15.04
1/31/2021 1:45:00 PM -0.04 31.928 0.098 6.35 2.41 15.05
1/31/2021 2:00:00 PM -0.05 31.91 0.098 6.36 2.42 15.06
1/31/2021 2:15:00 PM -0.05 31.91 0.098 6.36 2.39 15.06
1/31/2021 2:30:00 PM -0.05 31.91 0.097 6.36 2.41 15.06
1/31/2021 2:45:00 PM -0.05 31.91 0.097 6.37 2.39 15.06
1/31/2021 3:00:00 PM -0.04 31.928 0.098 6.38 2.39 15.06
1/31/2021 3:15:00 PM -0.05 31.91 0.098 6.4 2.43 15.06
1/31/2021 3:30:00 PM -0.04 31.928 0.098 6.41 2.38 15.06
1/31/2021 3:45:00 PM -0.04 31.928 0.098 6.42 2.4 15.05
1/31/2021 4:00:00 PM -0.05 31.91 0.098 6.42 2.37 15.05
1/31/2021 4:15:00 PM -0.07 31.874 0.098 6.42 2.39 15.03
1/31/2021 4:30:00 PM -0.08 31.856 0.098 6.42 2.37 15.02
1/31/2021 4:45:00 PM -0.09 31.838 0.097 6.44 2.36 15
1/31/2021 5:00:00 PM -0.09 31.838 0.097 6.45 2.4 14.98
1/31/2021 5:15:00 PM -0.1 31.82 0.097 6.45 2.37 14.94
1/31/2021 5:30:00 PM -0.1 31.82 0.097 6.46 2.48 14.91
1/31/2021 5:45:00 PM -0.1 31.82 0.097 6.44 2.4 14.86
1/31/2021 6:00:00 PM -0.1 31.82 0.097 6.44 2.38 14.83
1/31/2021 6:15:00 PM -0.1 31.82 0.097 6.43 2.36 14.79
1/31/2021 6:30:00 PM -0.1 31.82 0.097 6.44 2.43 14.75
1/31/2021 6:45:00 PM -0.1 31.82 0.097 6.42 2.43 14.7
1/31/2021 7:00:00 PM -0.11 31.802 0.097 6.41 2.37 14.67
1/31/2021 7:15:00 PM -0.11 31.802 0.097 6.41 2.43 14.62
1/31/2021 7:30:00 PM -0.11 31.802 0.097 6.41 2.44 14.59
1/31/2021 7:45:00 PM -0.11 31.802 0.096 6.4 2.43 14.56
1/31/2021 8:00:00 PM -0.11 31.802 0.097 6.39 2.41 14.52
1/31/2021 8:15:00 PM -0.11 31.802 0.097 6.38 2.46 14.49
1/31/2021 8:30:00 PM -0.11 31.802 0.097 6.37 2.43 14.46
1/31/2021 8:45:00 PM -0.11 31.802 0.097 6.36 2.47 14.43
1/31/2021 9:00:00 PM -0.11 31.802 0.097 6.36 2.44 14.42
1/31/2021 9:15:00 PM -0.1 31.82 0.097 6.36 2.39 14.4
1/31/2021 9:30:00 PM -0.1 31.82 0.097 6.35 2.44 14.38
1/31/2021 9:45:00 PM -0.11 31.802 0.097 6.34 2.42 14.37
1/31/2021 10:00:00 PM -0.11 31.802 0.097 6.35 2.41 14.35
1/31/2021 10:15:00 PM -0.11 31.802 0.097 6.34 2.41 14.35
1/31/2021 10:30:00 PM -0.1 31.82 0.098 6.33 2.42 14.33
1/31/2021 10:45:00 PM -0.1 31.82 0.098 6.33 2.39 14.32
1/31/2021 11:00:00 PM -0.11 31.802 0.098 6.33 2.42 14.31
1/31/2021 11:15:00 PM -0.1 31.82 0.098 6.34 2.4 14.3
1/31/2021 11:30:00 PM -0.1 31.82 0.098 6.33 2.4 14.29
1/31/2021 11:45:00 PM -0.11 31.802 0.098 6.33 2.37 14.29
2/1/2021 12:00:00 AM -0.1 31.82 0.098 6.33 2.4 14.28
2/1/2021 12:15:00 AM -0.11 31.802 0.098 6.33 2.42 14.27
2/1/2021 12:30:00 AM -0.11 31.802 0.099 6.32 2.42 14.27
2/1/2021 12:45:00 AM -0.11 31.802 0.098 6.33 2.38 14.27
2/1/2021 1:00:00 AM -0.11 31.802 0.099 6.33 2.35 14.26
2/1/2021 1:15:00 AM -0.11 31.802 0.099 6.32 2.41 14.25
2/1/2021 1:30:00 AM -0.11 31.802 0.099 6.31 2.38 14.25
2/1/2021 1:45:00 AM -0.1 31.82 0.099 6.31 2.39 14.23
2/1/2021 2:00:00 AM -0.1 31.82 0.099 6.32 2.38 14.23
2/1/2021 2:15:00 AM -0.11 31.802 0.099 6.32 2.39 14.23
2/1/2021 2:30:00 AM -0.11 31.802 0.099 6.32 2.39 14.23
2/1/2021 2:45:00 AM -0.11 31.802 0.099 6.33 2.34 14.22
2/1/2021 3:00:00 AM -0.1 31.82 0.099 6.31 2.45 14.22
2/1/2021 3:15:00 AM -0.11 31.802 0.099 6.31 2.39 14.23
2/1/2021 3:30:00 AM -0.11 31.802 0.099 6.32 2.39 14.22
2/1/2021 3:45:00 AM -0.11 31.802 0.099 6.32 2.39 14.22
2/1/2021 4:00:00 AM -0.11 31.802 0.099 6.31 2.42 14.22
2/1/2021 4:15:00 AM -0.11 31.802 0.099 6.32 2.43 14.2
2/1/2021 4:30:00 AM -0.11 31.802 0.099 6.32 2.33 14.2
2/1/2021 4:45:00 AM -0.11 31.802 0.099 6.31 2.37 14.21
2/1/2021 5:00:00 AM -0.11 31.802 0.099 6.32 2.35 14.2
2/1/2021 5:15:00 AM -0.11 31.802 0.099 6.32 2.38 14.19
2/1/2021 5:30:00 AM -0.11 31.802 0.099 6.31 2.33 14.19
2/1/2021 5:45:00 AM -0.11 31.802 0.099 6.3 2.38 14.19
2/1/2021 6:00:00 AM -0.11 31.802 0.099 6.32 2.43 14.19
2/1/2021 6:15:00 AM -0.11 31.802 0.099 6.31 2.43 14.19
2/1/2021 6:30:00 AM -0.11 31.802 0.099 6.31 2.44 14.19
2/1/2021 6:45:00 AM -0.11 31.802 0.099 6.31 2.38 14.18
2/1/2021 7:00:00 AM -0.11 31.802 0.099 6.31 2.37 14.18
2/1/2021 7:15:00 AM -0.11 31.802 0.099 6.3 2.44 14.18
2/1/2021 7:30:00 AM -0.11 31.802 0.099 6.31 2.44 14.18
2/1/2021 7:45:00 AM -0.11 31.802 0.099 6.31 2.45 14.19
2/1/2021 8:00:00 AM -0.1 31.82 0.1 6.3 2.41 14.19
2/1/2021 8:15:00 AM -0.09 31.838 0.1 6.31 2.42 14.23
2/1/2021 8:30:00 AM -0.09 31.838 0.1 6.32 2.41 14.25
2/1/2021 8:45:00 AM -0.07 31.874 0.1 6.32 2.38 14.27
2/1/2021 9:00:00 AM -0.08 31.856 0.1 6.31 2.43 14.32
2/1/2021 9:15:00 AM -0.07 31.874 0.1 6.33 2.39 14.35
2/1/2021 9:30:00 AM -0.08 31.856 0.099 6.33 2.42 14.39
2/1/2021 9:45:00 AM -0.08 31.856 0.099 6.33 2.41 14.42
2/1/2021 10:00:00 AM -0.08 31.856 0.099 6.34 2.44 14.46
2/1/2021 10:15:00 AM -0.09 31.838 0.099 6.34 2.5 14.5
2/1/2021 10:30:00 AM -0.08 31.856 0.099 6.35 2.5 14.54
2/1/2021 10:45:00 AM -0.07 31.874 0.099 6.35 2.42 14.57
2/1/2021 11:00:00 AM -0.08 31.856 0.098 6.36 2.45 14.63
2/1/2021 11:15:00 AM -0.07 31.874 0.099 6.36 2.53 14.64
2/1/2021 11:30:00 AM -0.06 31.892 0.098 6.37 2.47 14.66
2/1/2021 11:45:00 AM -0.06 31.892 0.099 6.37 2.45 14.71
2/1/2021 12:00:00 PM -0.06 31.892 0.1 6.37 2.45 14.73
2/1/2021 12:15:00 PM -0.08 31.856 0.1 6.38 2.43 14.75
2/1/2021 12:30:00 PM -0.09 31.838 0.1 6.36 2.42 14.77
2/1/2021 12:45:00 PM -0.09 31.838 0.099 6.38 2.52 14.79
2/1/2021 1:00:00 PM -0.08 31.856 0.099 6.39 2.47 14.81
2/1/2021 1:15:00 PM -0.05 31.91 0.1 6.4 2.43 14.81
2/1/2021 1:30:00 PM -0.03 31.946 0.099 6.4 2.46 14.82
2/1/2021 1:45:00 PM -0.02 31.964 0.099 6.4 2.46 14.82
2/1/2021 2:00:00 PM -0.05 31.91 0.099 6.41 2.52 14.84
2/1/2021 2:15:00 PM -0.03 31.946 0.099 6.37 2.49 14.83
2/1/2021 2:30:00 PM -0.03 31.946 0.098 6.42 2.53 14.84
2/1/2021 2:45:00 PM 0 32 0.099 6.42 2.48 14.85
2/1/2021 3:00:00 PM -0.01 31.982 0.098 6.42 2.47 14.85
2/1/2021 3:15:00 PM 0 32 0.098 6.42 2.51 14.85
2/1/2021 3:30:00 PM -0.03 31.946 0.097 6.43 2.52 14.87
2/1/2021 3:45:00 PM -0.03 31.946 0.098 6.43 2.48 14.86
2/1/2021 4:00:00 PM -0.03 31.946 0.098 6.43 2.45 14.86
2/1/2021 4:15:00 PM -0.06 31.892 0.097 6.43 2.53 14.85
2/1/2021 4:30:00 PM -0.07 31.874 0.097 6.42 2.44 14.83
2/1/2021 4:45:00 PM -0.07 31.874 0.097 6.42 2.47 14.81
2/1/2021 5:00:00 PM -0.09 31.838 0.097 6.42 2.46 14.78
2/1/2021 5:15:00 PM -0.09 31.838 0.097 6.42 2.45 14.75
2/1/2021 5:30:00 PM -0.08 31.856 0.099 6.41 2.58 14.71
2/1/2021 5:45:00 PM -0.09 31.838 0.098 6.41 2.53 14.68
2/1/2021 6:00:00 PM -0.08 31.856 0.097 6.4 2.49 14.63
2/1/2021 6:15:00 PM -0.08 31.856 0.097 6.4 2.54 14.6
2/1/2021 6:30:00 PM -0.09 31.838 0.096 6.38 2.47 14.56
2/1/2021 6:45:00 PM -0.09 31.838 0.096 6.39 2.46 14.53
2/1/2021 7:00:00 PM -0.1 31.82 0.096 6.38 2.48 14.5
2/1/2021 7:15:00 PM -0.1 31.82 0.096 6.37 2.52 14.47
2/1/2021 7:30:00 PM -0.09 31.838 0.096 6.36 2.52 14.44
2/1/2021 7:45:00 PM -0.09 31.838 0.096 6.36 2.49 14.41
2/1/2021 8:00:00 PM -0.1 31.82 0.096 6.36 2.57 14.38
2/1/2021 8:15:00 PM -0.1 31.82 0.095 6.35 2.53 14.36
2/1/2021 8:30:00 PM -0.1 31.82 0.095 6.35 2.58 14.33
2/1/2021 8:45:00 PM -0.1 31.82 0.095 6.34 2.54 14.32
2/1/2021 9:00:00 PM -0.1 31.82 0.095 6.33 2.56 14.31
2/1/2021 9:15:00 PM -0.1 31.82 0.095 6.33 2.52 14.29
2/1/2021 9:30:00 PM -0.11 31.802 0.095 6.33 2.56 14.28
2/1/2021 9:45:00 PM -0.11 31.802 0.095 6.32 2.59 14.26
2/1/2021 10:00:00 PM -0.1 31.82 0.095 6.31 2.57 14.25
2/1/2021 10:15:00 PM -0.11 31.802 0.095 6.31 2.57 14.24
2/1/2021 10:30:00 PM -0.11 31.802 0.095 6.3 2.54 14.22
2/1/2021 10:45:00 PM -0.11 31.802 0.095 6.31 2.6 14.21
2/1/2021 11:00:00 PM -0.1 31.82 0.095 6.31 2.61 14.2
2/1/2021 11:15:00 PM -0.11 31.802 0.094 6.32 2.53 14.19
2/1/2021 11:30:00 PM -0.1 31.82 0.094 6.31 2.54 14.19
2/1/2021 11:45:00 PM -0.1 31.82 0.094 6.29 2.55 14.16
2/2/2021 12:00:00 AM -0.1 31.82 0.094 6.3 2.53 14.16
2/2/2021 12:15:00 AM -0.1 31.82 0.094 6.28 2.54 14.16
2/2/2021 12:30:00 AM -0.1 31.82 0.094 6.28 2.52 14.15
2/2/2021 12:45:00 AM -0.1 31.82 0.094 6.28 2.59 14.14
2/2/2021 1:00:00 AM -0.1 31.82 0.094 6.3 2.5 14.14
2/2/2021 1:15:00 AM -0.1 31.82 0.094 6.29 2.59 14.13
2/2/2021 1:30:00 AM -0.1 31.82 0.094 6.29 2.54 14.12
2/2/2021 1:45:00 AM -0.09 31.838 0.094 6.29 2.54 14.11
2/2/2021 2:00:00 AM -0.1 31.82 0.094 6.29 2.51 14.11
2/2/2021 2:15:00 AM -0.09 31.838 0.095 6.28 2.57 14.1
2/2/2021 2:30:00 AM -0.09 31.838 0.094 6.28 2.5 14.1
2/2/2021 2:45:00 AM -0.09 31.838 0.095 6.28 2.49 14.09
2/2/2021 3:00:00 AM -0.1 31.82 0.095 6.28 2.54 14.09
2/2/2021 3:15:00 AM -0.1 31.82 0.095 6.29 2.45 14.09
2/2/2021 3:30:00 AM -0.1 31.82 0.095 6.27 2.45 14.08
2/2/2021 3:45:00 AM -0.09 31.838 0.095 6.27 2.48 14.08
2/2/2021 4:00:00 AM -0.09 31.838 0.095 6.28 2.52 14.08
2/2/2021 4:15:00 AM -0.1 31.82 0.095 6.29 2.42 14.07
2/2/2021 4:30:00 AM -0.09 31.838 0.096 6.27 2.53 14.07
2/2/2021 4:45:00 AM -0.09 31.838 0.096 6.3 2.5 14.06
2/2/2021 5:00:00 AM -0.09 31.838 0.096 6.25 2.45 14.07
2/2/2021 5:15:00 AM -0.09 31.838 0.096 6.28 2.46 14.07
2/2/2021 5:30:00 AM -0.09 31.838 0.096 6.28 2.45 14.06
2/2/2021 5:45:00 AM -0.09 31.838 0.096 6.28 2.44 14.05
2/2/2021 6:00:00 AM -0.09 31.838 0.096 6.28 2.48 14.06
2/2/2021 6:15:00 AM -0.09 31.838 0.097 6.28 2.43 14.05
2/2/2021 6:30:00 AM -0.09 31.838 0.097 6.28 2.45 14.05
2/2/2021 6:45:00 AM -0.09 31.838 0.097 6.28 2.48 14.05
2/2/2021 7:00:00 AM -0.09 31.838 0.097 6.28 2.45 14.05
2/2/2021 7:15:00 AM -0.09 31.838 0.097 6.28 2.47 14.04
2/2/2021 7:30:00 AM -0.09 31.838 0.097 6.28 2.42 14.05
2/2/2021 7:45:00 AM -0.08 31.856 0.098 6.28 2.41 14.05
2/2/2021 8:00:00 AM -0.08 31.856 0.098 6.28 2.46 14.06
2/2/2021 8:15:00 AM -0.08 31.856 0.098 6.28 2.42 14.07
2/2/2021 8:30:00 AM -0.09 31.838 0.098 6.29 2.45 14.1
2/2/2021 8:45:00 AM -0.09 31.838 0.098 6.28 2.43 14.13
2/2/2021 9:00:00 AM -0.08 31.856 0.099 6.29 2.4 14.14
2/2/2021 9:15:00 AM -0.08 31.856 0.099 6.3 2.45 14.17
2/2/2021 9:30:00 AM -0.08 31.856 0.098 6.3 2.42 14.21
2/2/2021 9:45:00 AM -0.07 31.874 0.099 6.32 2.41 14.24
2/2/2021 10:00:00 AM -0.06 31.892 0.099 6.31 2.41 14.27
2/2/2021 10:15:00 AM -0.06 31.892 0.099 6.32 2.42 14.31
2/2/2021 10:30:00 AM -0.06 31.892 0.099 6.33 2.39 14.36
2/2/2021 10:45:00 AM -0.05 31.91 0.098 6.34 2.4 14.4
2/2/2021 11:00:00 AM -0.04 31.928 0.099 6.35 2.42 14.45
2/2/2021 11:15:00 AM -0.05 31.91 0.099 6.36 2.4 14.49
2/2/2021 11:30:00 AM -0.04 31.928 0.099 6.35 2.43 14.52
2/2/2021 11:45:00 AM -0.04 31.928 0.098 6.36 2.42 14.55
2/2/2021 12:00:00 PM -0.03 31.946 0.098 6.37 2.38 14.59
2/2/2021 12:15:00 PM -0.03 31.946 0.098 6.37 2.4 14.62
2/2/2021 12:30:00 PM -0.02 31.964 0.098 6.39 2.4 14.64
2/2/2021 12:45:00 PM -0.02 31.964 0.098 6.39 2.42 14.67
2/2/2021 1:00:00 PM -0.02 31.964 0.098 6.38 2.38 14.69
2/2/2021 1:15:00 PM -0.03 31.946 0.098 6.41 2.45 14.71
2/2/2021 1:30:00 PM -0.03 31.946 0.097 6.41 2.42 14.73
2/2/2021 1:45:00 PM -0.03 31.946 0.097 6.41 2.46 14.75
2/2/2021 2:00:00 PM -0.05 31.91 0.097 6.42 2.42 14.77
2/2/2021 2:15:00 PM -0.05 31.91 0.097 6.43 2.42 14.78
2/2/2021 2:30:00 PM -0.05 31.91 0.097 6.42 2.45 14.79
2/2/2021 2:45:00 PM -0.06 31.892 0.097 6.42 2.43 14.78
2/2/2021 3:00:00 PM -0.06 31.892 0.096 6.43 2.43 14.8
2/2/2021 3:15:00 PM -0.05 31.91 0.097 6.4 2.41 14.8
2/2/2021 3:30:00 PM -0.05 31.91 0.096 6.43 2.45 14.8
2/2/2021 3:45:00 PM -0.05 31.91 0.096 6.43 2.47 14.8
2/2/2021 4:00:00 PM -0.05 31.91 0.096 6.43 2.44 14.79
2/2/2021 4:15:00 PM -0.07 31.874 0.096 6.43 2.48 14.79
2/2/2021 4:30:00 PM -0.07 31.874 0.096 6.43 2.46 14.78
2/2/2021 4:45:00 PM -0.08 31.856 0.096 6.42 2.43 14.75
2/2/2021 5:00:00 PM -0.09 31.838 0.096 6.43 2.4 14.73
2/2/2021 5:15:00 PM -0.09 31.838 0.096 6.41 2.42 14.7
2/2/2021 5:30:00 PM -0.09 31.838 0.096 6.4 2.41 14.66
2/2/2021 5:45:00 PM -0.1 31.82 0.096 6.38 2.43 14.62
2/2/2021 6:00:00 PM -0.1 31.82 0.096 6.38 2.4 14.58
2/2/2021 6:15:00 PM -0.1 31.82 0.096 6.39 2.46 14.54
2/2/2021 6:30:00 PM -0.1 31.82 0.095 6.37 2.41 14.51
2/2/2021 6:45:00 PM -0.1 31.82 0.096 6.38 2.39 14.47
2/2/2021 7:00:00 PM -0.1 31.82 0.096 6.36 2.4 14.42
2/2/2021 7:15:00 PM -0.1 31.82 0.096 6.35 2.42 14.38
2/2/2021 7:30:00 PM -0.11 31.802 0.096 6.36 2.46 14.35
2/2/2021 7:45:00 PM -0.1 31.82 0.096 6.35 2.41 14.33
2/2/2021 8:00:00 PM -0.1 31.82 0.096 6.34 2.41 14.29
2/2/2021 8:15:00 PM -0.1 31.82 0.096 6.35 2.45 14.27
2/2/2021 8:30:00 PM -0.1 31.82 0.096 6.33 2.38 14.24
2/2/2021 8:45:00 PM -0.1 31.82 0.096 6.33 2.39 14.22
2/2/2021 9:00:00 PM -0.1 31.82 0.096 6.32 2.37 14.2
2/2/2021 9:15:00 PM -0.1 31.82 0.096 6.33 2.4 14.18
2/2/2021 9:30:00 PM -0.1 31.82 0.097 6.32 2.41 14.17
2/2/2021 9:45:00 PM -0.1 31.82 0.097 6.32 2.41 14.15
2/2/2021 10:00:00 PM -0.1 31.82 0.097 6.32 2.46 14.15
2/2/2021 10:15:00 PM -0.1 31.82 0.098 6.32 2.39 14.12
2/2/2021 10:30:00 PM -0.1 31.82 0.097 6.31 2.45 14.12
2/2/2021 10:45:00 PM -0.1 31.82 0.098 6.3 2.4 14.11
2/2/2021 11:00:00 PM -0.1 31.82 0.098 6.31 2.41 14.1
2/2/2021 11:15:00 PM -0.1 31.82 0.098 6.31 2.39 14.09
2/2/2021 11:30:00 PM -0.1 31.82 0.099 6.29 2.39 14.08
2/2/2021 11:45:00 PM -0.1 31.82 0.099 6.3 2.39 14.07
2/3/2021 12:00:00 AM -0.1 31.82 0.099 6.31 2.36 14.07
2/3/2021 12:15:00 AM -0.1 31.82 0.099 6.3 2.42 14.06
2/3/2021 12:30:00 AM -0.09 31.838 0.1 6.3 2.41 14.06
2/3/2021 12:45:00 AM -0.09 31.838 0.1 6.3 2.39 14.05
2/3/2021 1:00:00 AM -0.1 31.82 0.1 6.3 2.36 14.04
2/3/2021 1:15:00 AM -0.1 31.82 0.1 6.29 2.43 14.04
2/3/2021 1:30:00 AM -0.09 31.838 0.101 6.31 2.38 14.03
2/3/2021 1:45:00 AM -0.09 31.838 0.101 6.31 2.32 14.04
2/3/2021 2:00:00 AM -0.09 31.838 0.101 6.29 2.42 14.03
2/3/2021 2:15:00 AM -0.09 31.838 0.101 6.3 2.41 14.03
2/3/2021 2:30:00 AM -0.09 31.838 0.101 6.29 2.39 14.04
2/3/2021 2:45:00 AM -0.09 31.838 0.101 6.28 2.36 14.02
2/3/2021 3:00:00 AM -0.09 31.838 0.101 6.29 2.42 14.02
2/3/2021 3:15:00 AM -0.09 31.838 0.101 6.3 2.36 14.02
2/3/2021 3:30:00 AM -0.09 31.838 0.102 6.29 2.34 14.02
2/3/2021 3:45:00 AM -0.09 31.838 0.102 6.28 2.36 14.01
2/3/2021 4:00:00 AM -0.09 31.838 0.102 6.28 2.33 14.02
2/3/2021 4:15:00 AM -0.1 31.82 0.102 6.29 2.35 14.02
2/3/2021 4:30:00 AM -0.1 31.82 0.101 6.31 2.35 14.02
2/3/2021 4:45:00 AM -0.09 31.838 0.102 6.29 2.34 14.02
2/3/2021 5:00:00 AM -0.1 31.82 0.102 6.3 2.37 14.02
2/3/2021 5:15:00 AM -0.1 31.82 0.101 6.29 2.35 14.02
2/3/2021 5:30:00 AM -0.1 31.82 0.101 6.29 2.36 14.02
2/3/2021 5:45:00 AM -0.1 31.82 0.102 6.29 2.33 14.02
2/3/2021 6:00:00 AM -0.1 31.82 0.101 6.29 2.37 14.03
2/3/2021 6:15:00 AM -0.09 31.838 0.102 6.3 2.37 14.02
2/3/2021 6:30:00 AM -0.1 31.82 0.102 6.3 2.34 14.02
2/3/2021 6:45:00 AM -0.1 31.82 0.101 6.31 2.38 14.02
2/3/2021 7:00:00 AM -0.09 31.838 0.102 6.31 2.37 14.03
2/3/2021 7:15:00 AM -0.1 31.82 0.101 6.3 2.33 14.02
2/3/2021 7:30:00 AM -0.09 31.838 0.101 6.3 2.39 14.03
2/3/2021 7:45:00 AM -0.09 31.838 0.101 6.31 2.36 14.05
2/3/2021 8:00:00 AM -0.09 31.838 0.101 6.31 2.41 14.07
2/3/2021 8:15:00 AM -0.09 31.838 0.101 6.31 2.32 14.09
2/3/2021 8:30:00 AM -0.09 31.838 0.101 6.31 2.34 14.11
2/3/2021 8:45:00 AM -0.09 31.838 0.101 6.32 2.32 14.14
2/3/2021 9:00:00 AM -0.08 31.856 0.101 6.33 2.36 14.17
2/3/2021 9:15:00 AM -0.08 31.856 0.101 6.34 2.31 14.22
2/3/2021 9:30:00 AM -0.07 31.874 0.101 6.33 2.32 14.26
2/3/2021 9:45:00 AM -0.07 31.874 0.1 6.35 2.32 14.3
2/3/2021 10:00:00 AM -0.05 31.91 0.1 6.36 2.33 14.34
2/3/2021 10:15:00 AM -0.04 31.928 0.1 6.36 2.31 14.39
2/3/2021 10:30:00 AM -0.02 31.964 0.1 6.36 2.31 14.43
2/3/2021 10:45:00 AM -0.02 31.964 0.1 6.37 2.34 14.48
2/3/2021 11:00:00 AM 0 32 0.1 6.38 2.37 14.52
2/3/2021 11:15:00 AM 0.01 32.018 0.1 6.39 2.35 14.56
2/3/2021 11:30:00 AM 0.02 32.036 0.099 6.38 2.3 14.6
2/3/2021 11:45:00 AM 0.03 32.054 0.099 6.4 2.36 14.62
2/3/2021 12:00:00 PM 0.03 32.054 0.099 6.41 2.35 14.65
2/3/2021 12:15:00 PM 0.07 32.126 0.099 6.42 2.33 14.68
2/3/2021 12:30:00 PM 0.15 32.27 0.098 6.42 2.34 14.69
2/3/2021 12:45:00 PM 0.2 32.36 0.099 6.43 2.35 14.7
2/3/2021 1:00:00 PM 0.22 32.396 0.098 6.43 2.37 14.71
2/3/2021 1:15:00 PM 0.23 32.414 0.098 6.44 2.34 14.71
2/3/2021 1:30:00 PM 0.27 32.486 0.098 6.44 2.39 14.71
2/3/2021 1:45:00 PM 0.29 32.522 0.097 6.44 2.35 14.72
2/3/2021 2:00:00 PM 0.3 32.54 0.097 6.45 2.42 14.73
2/3/2021 2:15:00 PM 0.32 32.576 0.097 6.44 2.35 14.71
2/3/2021 2:30:00 PM 0.31 32.558 0.097 6.44 2.37 14.72
2/3/2021 2:45:00 PM 0.3 32.54 0.096 6.43 2.47 14.7
2/3/2021 3:00:00 PM 0.23 32.414 0.096 6.42 2.42 14.71
2/3/2021 3:15:00 PM 0.18 32.324 0.095 6.4 2.46 14.74
2/3/2021 3:30:00 PM 0.15 32.27 0.095 6.39 2.39 14.72
2/3/2021 3:45:00 PM 0.15 32.27 0.096 6.39 2.36 14.72
2/3/2021 4:00:00 PM 0.11 32.198 0.096 6.39 2.47 14.71
2/3/2021 4:15:00 PM 0.07 32.126 0.096 6.4 2.4 14.69
2/3/2021 4:30:00 PM 0.09 32.162 0.096 6.4 2.41 14.68
2/3/2021 4:45:00 PM 0.04 32.072 0.096 6.41 2.42 14.7
2/3/2021 5:00:00 PM 0.02 32.036 0.096 6.41 2.44 14.68
2/3/2021 5:15:00 PM -0.01 31.982 0.096 6.41 2.46 14.65
2/3/2021 5:30:00 PM -0.03 31.946 0.096 6.41 2.49 14.62
2/3/2021 5:45:00 PM -0.05 31.91 0.097 6.4 2.45 14.57
2/3/2021 6:00:00 PM -0.05 31.91 0.097 6.39 2.45 14.53
2/3/2021 6:15:00 PM -0.07 31.874 0.097 6.39 2.41 14.5
2/3/2021 6:30:00 PM -0.07 31.874 0.097 6.38 2.44 14.46
2/3/2021 6:45:00 PM -0.08 31.856 0.097 6.37 2.48 14.43
2/3/2021 7:00:00 PM -0.07 31.874 0.098 6.37 2.43 14.38
2/3/2021 7:15:00 PM -0.09 31.838 0.097 6.36 2.44 14.34
2/3/2021 7:30:00 PM -0.1 31.82 0.098 6.36 2.45 14.34
2/3/2021 7:45:00 PM -0.1 31.82 0.098 6.36 2.42 14.31
2/3/2021 8:00:00 PM -0.11 31.802 0.098 6.35 2.49 14.28
2/3/2021 8:15:00 PM -0.11 31.802 0.098 6.34 2.46 14.27
2/3/2021 8:30:00 PM -0.12 31.784 0.098 6.34 2.49 14.25
2/3/2021 8:45:00 PM -0.11 31.802 0.099 6.33 2.44 14.24
2/3/2021 9:00:00 PM -0.12 31.784 0.098 6.33 2.48 14.24
2/3/2021 9:15:00 PM -0.12 31.784 0.099 6.32 2.43 14.23
2/3/2021 9:30:00 PM -0.12 31.784 0.099 6.3 2.41 14.21
2/3/2021 9:45:00 PM -0.12 31.784 0.1 6.29 2.41 14.21
2/3/2021 10:00:00 PM -0.12 31.784 0.099 6.29 2.45 14.2
2/3/2021 10:15:00 PM -0.12 31.784 0.1 6.29 2.44 14.2
2/3/2021 10:30:00 PM -0.12 31.784 0.1 6.27 2.42 14.19
2/3/2021 10:45:00 PM -0.12 31.784 0.101 6.27 2.47 14.19
2/3/2021 11:00:00 PM -0.12 31.784 0.101 6.26 2.51 14.18
2/3/2021 11:15:00 PM -0.11 31.802 0.102 6.26 2.44 14.18
2/3/2021 11:30:00 PM -0.11 31.802 0.102 6.25 2.42 14.18
2/3/2021 11:45:00 PM -0.11 31.802 0.102 6.24 2.46 14.18
2/4/2021 12:00:00 AM -0.11 31.802 0.102 6.23 2.42 14.18
2/4/2021 12:15:00 AM -0.11 31.802 0.102 6.23 2.43 14.18
2/4/2021 12:30:00 AM -0.11 31.802 0.102 6.21 2.45 14.18
2/4/2021 12:45:00 AM -0.11 31.802 0.102 6.21 2.44 14.18
2/4/2021 1:00:00 AM -0.12 31.784 0.102 6.2 2.44 14.18
2/4/2021 1:15:00 AM -0.11 31.802 0.102 6.2 2.48 14.18
2/4/2021 1:30:00 AM -0.11 31.802 0.103 6.17 2.41 14.18
2/4/2021 1:45:00 AM -0.11 31.802 0.103 6.19 2.45 14.18
2/4/2021 2:00:00 AM -0.11 31.802 0.103 6.19 2.45 14.19
2/4/2021 2:15:00 AM -0.11 31.802 0.104 6.19 2.43 14.19
2/4/2021 2:30:00 AM -0.12 31.784 0.103 6.2 2.39 14.18
2/4/2021 2:45:00 AM -0.11 31.802 0.104 6.2 2.44 14.18
2/4/2021 3:00:00 AM -0.11 31.802 0.104 6.2 2.43 14.18
2/4/2021 3:15:00 AM -0.11 31.802 0.104 6.2 2.38 14.18
2/4/2021 3:30:00 AM -0.11 31.802 0.104 6.19 2.39 14.19
2/4/2021 3:45:00 AM -0.11 31.802 0.105 6.19 2.4 14.18
2/4/2021 4:00:00 AM -0.11 31.802 0.105 6.19 2.43 14.19
2/4/2021 4:15:00 AM -0.11 31.802 0.105 6.2 2.39 14.18
2/4/2021 4:30:00 AM -0.11 31.802 0.105 6.2 2.39 14.18
2/4/2021 4:45:00 AM -0.11 31.802 0.106 6.21 2.37 14.18
2/4/2021 5:00:00 AM -0.12 31.784 0.106 6.21 2.38 14.19
2/4/2021 5:15:00 AM -0.11 31.802 0.106 6.21 2.39 14.19
2/4/2021 5:30:00 AM -0.11 31.802 0.106 6.2 2.37 14.19
2/4/2021 5:45:00 AM -0.11 31.802 0.106 6.2 2.38 14.19
2/4/2021 6:00:00 AM -0.11 31.802 0.107 6.22 2.4 14.18
2/4/2021 6:15:00 AM -0.11 31.802 0.107 6.22 2.35 14.18
2/4/2021 6:30:00 AM -0.12 31.784 0.107 6.22 2.39 14.18
2/4/2021 6:45:00 AM -0.12 31.784 0.108 6.23 2.37 14.19
2/4/2021 7:00:00 AM -0.12 31.784 0.108 6.23 2.37 14.18
2/4/2021 7:15:00 AM -0.12 31.784 0.108 6.25 2.35 14.19
2/4/2021 7:30:00 AM -0.12 31.784 0.108 6.25 2.37 14.19
2/4/2021 7:45:00 AM -0.12 31.784 0.108 6.24 2.38 14.23
2/4/2021 8:00:00 AM -0.12 31.784 0.108 6.25 2.36 14.28
2/4/2021 8:15:00 AM -0.1 31.82 0.109 6.26 2.41 14.32
2/4/2021 8:30:00 AM -0.09 31.838 0.109 6.25 2.34 14.37
2/4/2021 8:45:00 AM -0.07 31.874 0.109 6.27 2.32 14.42
2/4/2021 9:00:00 AM -0.04 31.928 0.109 6.27 2.33 14.45
2/4/2021 9:15:00 AM -0.02 31.964 0.109 6.29 2.34 14.49
2/4/2021 9:30:00 AM 0 32 0.11 6.28 2.36 14.52
2/4/2021 9:45:00 AM 0.02 32.036 0.109 6.29 2.32 14.55
2/4/2021 10:00:00 AM 0.04 32.072 0.11 6.28 2.37 14.58
2/4/2021 10:15:00 AM 0.07 32.126 0.11 6.29 2.38 14.61
2/4/2021 10:30:00 AM 0.1 32.18 0.11 6.29 2.38 14.64
2/4/2021 10:45:00 AM 0.14 32.252 0.11 6.29 2.37 14.66
2/4/2021 11:00:00 AM 0.13 32.234 0.11 6.29 2.41 14.71
2/4/2021 11:15:00 AM 0.18 32.324 0.11 6.32 2.38 14.72
2/4/2021 11:30:00 AM 0.2 32.36 0.109 6.34 2.41 14.74
2/4/2021 11:45:00 AM 0.24 32.432 0.109 6.36 2.44 14.77
2/4/2021 12:00:00 PM 0.29 32.522 0.108 6.39 2.43 14.78
2/4/2021 12:15:00 PM 0.31 32.558 0.107 6.4 2.36 14.81
2/4/2021 12:30:00 PM 0.43 32.774 0.107 6.41 2.4 14.8
2/4/2021 12:45:00 PM 0.49 32.882 0.107 6.43 2.41 14.8
2/4/2021 1:00:00 PM 0.51 32.918 0.106 6.43 2.35 14.8
2/4/2021 1:15:00 PM 0.56 33.008 0.106 6.44 2.4 14.8
2/4/2021 1:30:00 PM 0.56 33.008 0.105 6.44 2.38 14.79
2/4/2021 1:45:00 PM 0.56 33.008 0.105 6.43 2.39 14.79
2/4/2021 2:00:00 PM 0.55 32.99 0.105 6.44 2.38 14.78
2/4/2021 2:15:00 PM 0.54 32.972 0.104 6.44 2.42 14.78
2/4/2021 2:30:00 PM 0.49 32.882 0.104 6.44 2.41 14.78
2/4/2021 2:45:00 PM 0.47 32.846 0.104 6.45 2.43 14.78
2/4/2021 3:00:00 PM 0.44 32.792 0.104 6.45 2.49 14.77
2/4/2021 3:15:00 PM 0.37 32.666 0.103 6.45 2.44 14.78
2/4/2021 3:30:00 PM 0.33 32.594 0.103 6.45 2.4 14.79
2/4/2021 3:45:00 PM 0.27 32.486 0.103 6.46 2.56 14.79
2/4/2021 4:00:00 PM 0.24 32.432 0.103 6.44 2.48 14.79
2/4/2021 4:15:00 PM 0.16 32.288 0.102 6.46 2.53 14.8
2/4/2021 4:30:00 PM 0.11 32.198 0.102 6.45 2.49 14.8
2/4/2021 4:45:00 PM 0.06 32.108 0.102 6.46 2.69 14.79
2/4/2021 5:00:00 PM 0 32 0.102 6.45 2.55 14.78
2/4/2021 5:15:00 PM -0.03 31.946 0.102 6.45 2.52 14.75
2/4/2021 5:30:00 PM -0.05 31.91 0.102 6.45 2.52 14.72
2/4/2021 5:45:00 PM -0.07 31.874 0.101 6.43 2.58 14.69
2/4/2021 6:00:00 PM -0.08 31.856 0.102 6.42 2.54 14.65
2/4/2021 6:15:00 PM -0.09 31.838 0.102 6.41 2.63 14.62
2/4/2021 6:30:00 PM -0.1 31.82 0.101 6.4 2.71 14.58
2/4/2021 6:45:00 PM -0.1 31.82 0.102 6.39 2.57 14.54
2/4/2021 7:00:00 PM -0.1 31.82 0.102 6.38 2.56 14.49
2/4/2021 7:15:00 PM -0.11 31.802 0.102 6.36 2.55 14.46
2/4/2021 7:30:00 PM -0.11 31.802 0.102 6.36 2.52 14.42
2/4/2021 7:45:00 PM -0.11 31.802 0.102 6.35 2.56 14.38
2/4/2021 8:00:00 PM -0.11 31.802 0.103 6.35 2.57 14.36
2/4/2021 8:15:00 PM -0.1 31.82 0.103 6.33 2.58 14.33
2/4/2021 8:30:00 PM -0.1 31.82 0.103 6.34 2.64 14.31
2/4/2021 8:45:00 PM -0.1 31.82 0.103 6.33 2.67 14.28
2/4/2021 9:00:00 PM -0.1 31.82 0.103 6.33 2.63 14.27
2/4/2021 9:15:00 PM -0.09 31.838 0.103 6.32 2.58 14.24
2/4/2021 9:30:00 PM -0.09 31.838 0.104 6.32 2.64 14.23
2/4/2021 9:45:00 PM -0.09 31.838 0.103 6.32 2.59 14.22
2/4/2021 10:00:00 PM -0.08 31.856 0.104 6.32 2.62 14.21
2/4/2021 10:15:00 PM -0.08 31.856 0.104 6.31 2.54 14.19
2/4/2021 10:30:00 PM -0.08 31.856 0.104 6.31 2.59 14.18
2/4/2021 10:45:00 PM -0.08 31.856 0.104 6.31 2.57 14.17
2/4/2021 11:00:00 PM -0.07 31.874 0.105 6.31 2.5 14.16
2/4/2021 11:15:00 PM -0.07 31.874 0.105 6.3 2.56 14.15
2/4/2021 11:30:00 PM -0.07 31.874 0.105 6.3 2.64 14.13
2/4/2021 11:45:00 PM -0.07 31.874 0.105 6.31 2.5 14.12
2/5/2021 12:00:00 AM -0.06 31.892 0.106 6.3 2.59 14.11
2/5/2021 12:15:00 AM -0.06 31.892 0.106 6.3 2.57 14.11
2/5/2021 12:30:00 AM -0.06 31.892 0.106 6.31 2.54 14.1
2/5/2021 12:45:00 AM -0.06 31.892 0.107 6.3 2.56 14.08
2/5/2021 1:00:00 AM -0.05 31.91 0.107 6.28 2.54 14.08
2/5/2021 1:15:00 AM -0.06 31.892 0.107 6.3 2.49 14.08
2/5/2021 1:30:00 AM -0.06 31.892 0.108 6.3 2.52 14.06
2/5/2021 1:45:00 AM -0.05 31.91 0.108 6.3 2.55 14.06
2/5/2021 2:00:00 AM -0.04 31.928 0.108 6.29 2.46 14.06
2/5/2021 2:15:00 AM -0.04 31.928 0.108 6.3 2.48 14.05
2/5/2021 2:30:00 AM -0.04 31.928 0.108 6.31 2.5 14.04
2/5/2021 2:45:00 AM -0.03 31.946 0.108 6.3 2.55 14.03
2/5/2021 3:00:00 AM -0.04 31.928 0.108 6.3 2.51 14.03
2/5/2021 3:15:00 AM -0.05 31.91 0.108 6.3 2.54 14.02
2/5/2021 3:30:00 AM -0.04 31.928 0.108 6.29 2.51 14.01
2/5/2021 3:45:00 AM -0.04 31.928 0.108 6.27 2.53 14.02
2/5/2021 4:00:00 AM -0.04 31.928 0.108 6.29 2.5 14
2/5/2021 4:15:00 AM -0.03 31.946 0.108 6.3 2.5 13.99
2/5/2021 4:30:00 AM -0.03 31.946 0.108 6.3 2.52 13.99
2/5/2021 4:45:00 AM -0.02 31.964 0.108 6.29 2.5 13.98
2/5/2021 5:00:00 AM -0.02 31.964 0.108 6.3 2.45 13.98
2/5/2021 5:15:00 AM -0.01 31.982 0.108 6.3 2.47 13.97
2/5/2021 5:30:00 AM -0.01 31.982 0.109 6.3 2.48 13.96
2/5/2021 5:45:00 AM -0.01 31.982 0.109 6.3 2.47 13.96
2/5/2021 6:00:00 AM -0.01 31.982 0.109 6.29 2.44 13.96
2/5/2021 6:15:00 AM -0.01 31.982 0.109 6.29 2.38 13.96
2/5/2021 6:30:00 AM -0.01 31.982 0.11 6.3 2.46 13.96
2/5/2021 6:45:00 AM -0.02 31.964 0.11 6.29 2.44 13.97
2/5/2021 7:00:00 AM -0.02 31.964 0.11 6.3 2.43 13.96
2/5/2021 7:15:00 AM -0.02 31.964 0.11 6.3 2.39 13.96
2/5/2021 7:30:00 AM -0.02 31.964 0.111 6.3 2.46 13.96
2/5/2021 7:45:00 AM -0.02 31.964 0.111 6.3 2.5 13.99
2/5/2021 8:00:00 AM 0 32 0.112 6.3 2.38 14
2/5/2021 8:15:00 AM 0.01 32.018 0.112 6.31 2.44 14.04
2/5/2021 8:30:00 AM 0.03 32.054 0.112 6.31 2.45 14.1
2/5/2021 8:45:00 AM 0.05 32.09 0.112 6.31 2.51 14.16
2/5/2021 9:00:00 AM 0.08 32.144 0.112 6.32 2.44 14.21
2/5/2021 9:15:00 AM 0.11 32.198 0.113 6.33 2.41 14.26
2/5/2021 9:30:00 AM 0.15 32.27 0.113 6.34 2.5 14.31
2/5/2021 9:45:00 AM 0.23 32.414 0.113 6.35 2.42 14.35
2/5/2021 10:00:00 AM 0.3 32.54 0.112 6.36 2.42 14.39
2/5/2021 10:15:00 AM 0.46 32.828 0.112 6.37 2.6 14.43